Provisional Data: Little Pine Creek near Waterville, PA


Please select a monitoring station.
Please select start date.
Please select start date.

Toggle Unit: C/F Toggle Unit: C/F
Sample Time Temperature (C) Temperature (F) Specific Conductivity (mS/cm) pH   Turbidity (NTU+) DO (mg/L)
12/4/2020 12:00:00 AM 4.11 39.398 0.119 7.05 2.7 12.74
12/4/2020 12:15:00 AM 4.1 39.38 0.119 7.06 2.63 12.74
12/4/2020 12:30:00 AM 4.1 39.38 0.119 7.05 2.76 12.74
12/4/2020 12:45:00 AM 4.09 39.362 0.119 7.05 2.68 12.74
12/4/2020 1:00:00 AM 4.09 39.362 0.119 7.06 2.63 12.73
12/4/2020 1:15:00 AM 4.08 39.344 0.119 7.04 2.72 12.74
12/4/2020 1:30:00 AM 4.06 39.308 0.119 7.03 2.68 12.74
12/4/2020 1:45:00 AM 4.04 39.272 0.119 7.03 2.69 12.74
12/4/2020 2:00:00 AM 4.04 39.272 0.119 7.03 2.68 12.73
12/4/2020 2:15:00 AM 4.04 39.272 0.119 7.04 2.69 12.73
12/4/2020 2:30:00 AM 4.04 39.272 0.119 7.04 2.66 12.73
12/4/2020 2:45:00 AM 4.03 39.254 0.119 7.05 2.67 12.73
12/4/2020 3:00:00 AM 4.02 39.236 0.119 7.05 2.73 12.73
12/4/2020 3:15:00 AM 4.02 39.236 0.119 7.05 2.68 12.73
12/4/2020 3:30:00 AM 4.02 39.236 0.119 7.05 2.69 12.73
12/4/2020 3:45:00 AM 4.03 39.254 0.119 7.05 2.63 12.73
12/4/2020 4:00:00 AM 4.03 39.254 0.119 7.05 2.67 12.73
12/4/2020 4:15:00 AM 4.04 39.272 0.119 7.05 2.62 12.73
12/4/2020 4:30:00 AM 4.04 39.272 0.119 7.04 2.71 12.73
12/4/2020 4:45:00 AM 4.03 39.254 0.119 7.04 2.67 12.74
12/4/2020 5:00:00 AM 4.04 39.272 0.119 7.04 2.62 12.74
12/4/2020 5:15:00 AM 4.03 39.254 0.119 7.04 2.64 12.73
12/4/2020 5:30:00 AM 4.02 39.236 0.119 7.04 2.59 12.73
12/4/2020 5:45:00 AM 4.02 39.236 0.119 7.05 2.65 12.73
12/4/2020 6:00:00 AM 4.03 39.254 0.119 7.06 2.67 12.73
12/4/2020 6:15:00 AM 4.02 39.236 0.119 7.04 2.6 12.73
12/4/2020 6:30:00 AM 4.01 39.218 0.119 7.05 2.66 12.73
12/4/2020 6:45:00 AM 3.99 39.182 0.119 7.04 2.63 12.73
12/4/2020 7:00:00 AM 3.98 39.164 0.119 7.03 2.66 12.73
12/4/2020 7:15:00 AM 3.98 39.164 0.119 7.04 2.65 12.73
12/4/2020 7:30:00 AM 3.96 39.128 0.119 7.05 2.61 12.75
12/4/2020 7:45:00 AM 3.95 39.11 0.119 7.04 2.66 12.77
12/4/2020 8:00:00 AM 3.94 39.092 0.119 7.06 2.63 12.81
12/4/2020 8:15:00 AM 3.94 39.092 0.119 7.07 2.61 12.86
12/4/2020 8:30:00 AM 3.94 39.092 0.119 7.08 2.56 12.9
12/4/2020 8:45:00 AM 3.95 39.11 0.118 7.09 2.56 12.95
12/4/2020 9:00:00 AM 3.97 39.146 0.118 7.11 2.61 12.99
12/4/2020 9:15:00 AM 3.99 39.182 0.118 7.13 2.64 13.03
12/4/2020 9:30:00 AM 4.01 39.218 0.118 7.14 2.56 13.06
12/4/2020 9:45:00 AM 4.05 39.29 0.118 7.15 2.6 13.09
12/4/2020 10:00:00 AM 4.08 39.344 0.118 7.17 2.61 13.11
12/4/2020 10:15:00 AM 4.12 39.416 0.118 7.18 2.57 13.15
12/4/2020 10:30:00 AM 4.17 39.506 0.118 7.2 2.55 13.17
12/4/2020 10:45:00 AM 4.24 39.632 0.118 7.21 2.58 13.18
12/4/2020 11:00:00 AM 4.32 39.776 0.118 7.23 2.54 13.2
12/4/2020 11:15:00 AM 4.42 39.956 0.118 7.25 2.63 13.21
12/4/2020 11:30:00 AM 4.56 40.208 0.118 7.26 2.57 13.21
12/4/2020 11:45:00 AM 4.7 40.46 0.118 7.29 2.56 13.21
12/4/2020 12:00:00 PM 4.87 40.766 0.118 7.3 2.54 13.2
12/4/2020 12:15:00 PM 5.07 41.126 0.118 7.33 2.58 13.18
12/4/2020 12:30:00 PM 5.27 41.486 0.118 7.34 2.47 13.16
12/4/2020 12:45:00 PM 5.44 41.792 0.117 7.35 2.5 13.13
12/4/2020 1:00:00 PM 5.47 41.846 0.117 7.35 2.56 13.12
12/4/2020 1:15:00 PM 5.44 41.792 0.118 7.39 2.53 13.11
12/4/2020 1:30:00 PM 5.43 41.774 0.117 7.4 2.5 13.1
12/4/2020 1:45:00 PM 5.45 41.81 0.118 7.43 2.52 13.1
12/4/2020 2:00:00 PM 5.42 41.756 0.117 7.43 2.59 13.09
12/4/2020 2:15:00 PM 5.42 41.756 0.118 7.44 2.48 13.09
12/4/2020 2:30:00 PM 5.39 41.702 0.118 7.44 2.47 13.08
12/4/2020 2:45:00 PM 5.36 41.648 0.118 7.44 2.52 13.05
12/4/2020 3:00:00 PM 5.33 41.594 0.118 7.43 2.66 13.01
12/4/2020 3:15:00 PM 5.31 41.558 0.118 7.42 2.48 12.96
12/4/2020 3:30:00 PM 5.3 41.54 0.118 7.4 2.54 12.91
12/4/2020 3:45:00 PM 5.3 41.54 0.118 7.39 2.4 12.86
12/4/2020 4:00:00 PM 5.28 41.504 0.118 7.37 2.45 12.8
12/4/2020 4:15:00 PM 5.26 41.468 0.118 7.36 2.41 12.76
12/4/2020 4:30:00 PM 5.22 41.396 0.118 7.34 2.45 12.72
12/4/2020 4:45:00 PM 5.17 41.306 0.119 7.32 2.46 12.68
12/4/2020 5:00:00 PM 5.12 41.216 0.119 7.31 2.4 12.64
12/4/2020 5:15:00 PM 5.06 41.108 0.119 7.29 2.44 12.61
12/4/2020 5:30:00 PM 4.98 40.964 0.119 7.28 2.5 12.58
12/4/2020 5:45:00 PM 4.9 40.82 0.119 7.26 2.48 12.57
12/4/2020 6:00:00 PM 4.82 40.676 0.119 7.25 2.47 12.57
12/4/2020 6:15:00 PM 4.76 40.568 0.12 7.23 2.44 12.56
12/4/2020 6:30:00 PM 4.7 40.46 0.12 7.23 2.5 12.56
12/4/2020 6:45:00 PM 4.64 40.352 0.12 7.22 2.44 12.56
12/4/2020 7:00:00 PM 4.59 40.262 0.12 7.21 2.46 12.56
12/4/2020 7:15:00 PM 4.54 40.172 0.12 7.21 2.45 12.56
12/4/2020 7:30:00 PM 4.49 40.082 0.12 7.21 2.43 12.57
12/4/2020 7:45:00 PM 4.46 40.028 0.12 7.2 2.43 12.57
12/4/2020 8:00:00 PM 4.42 39.956 0.12 7.2 2.47 12.58
12/4/2020 8:15:00 PM 4.39 39.902 0.12 7.19 2.47 12.58
12/4/2020 8:30:00 PM 4.37 39.866 0.12 7.16 2.51 12.58
12/4/2020 8:45:00 PM 4.36 39.848 0.12 7.13 2.47 12.59
12/4/2020 9:00:00 PM 4.34 39.812 0.12 7.1 2.52 12.59
12/4/2020 9:15:00 PM 4.34 39.812 0.12 7.09 2.53 12.59
12/4/2020 9:30:00 PM 4.34 39.812 0.12 7.09 2.49 12.6
12/4/2020 9:45:00 PM 4.34 39.812 0.12 7.09 2.49 12.6
12/4/2020 10:00:00 PM 4.34 39.812 0.12 7.09 2.5 12.59
12/4/2020 10:15:00 PM 4.34 39.812 0.12 7.1 2.51 12.59
12/4/2020 10:30:00 PM 4.35 39.83 0.12 7.11 2.46 12.59
12/4/2020 10:45:00 PM 4.35 39.83 0.12 7.12 2.5 12.59
12/4/2020 11:00:00 PM 4.36 39.848 0.12 7.12 2.52 12.59
12/4/2020 11:15:00 PM 4.36 39.848 0.12 7.13 2.47 12.58
12/4/2020 11:30:00 PM 4.37 39.866 0.12 7.13 2.45 12.58
12/4/2020 11:45:00 PM 4.38 39.884 0.12 7.12 2.49 12.57
12/5/2020 12:00:00 AM 4.39 39.902 0.12 7.12 2.51 12.56
12/5/2020 12:15:00 AM 4.39 39.902 0.12 7.12 2.5 12.56
12/5/2020 12:30:00 AM 4.39 39.902 0.12 7.12 2.53 12.56
12/5/2020 12:45:00 AM 4.39 39.902 0.12 7.11 2.56 12.55
12/5/2020 1:00:00 AM 4.38 39.884 0.12 7.12 2.46 12.54
12/5/2020 1:15:00 AM 4.38 39.884 0.12 7.13 2.51 12.55
12/5/2020 1:30:00 AM 4.38 39.884 0.12 7.13 2.52 12.54
12/5/2020 1:45:00 AM 4.37 39.866 0.12 7.13 2.48 12.55
12/5/2020 2:00:00 AM 4.36 39.848 0.12 7.13 2.47 12.55
12/5/2020 2:15:00 AM 4.34 39.812 0.12 7.13 2.48 12.55
12/5/2020 2:30:00 AM 4.32 39.776 0.12 7.12 2.46 12.55
12/5/2020 2:45:00 AM 4.3 39.74 0.12 7.12 2.5 12.56
12/5/2020 3:00:00 AM 4.29 39.722 0.12 7.13 2.48 12.56
12/5/2020 3:15:00 AM 4.29 39.722 0.12 7.13 2.44 12.56
12/5/2020 3:30:00 AM 4.28 39.704 0.12 7.13 2.49 12.56
12/5/2020 3:45:00 AM 4.27 39.686 0.12 7.14 2.49 12.56
12/5/2020 4:00:00 AM 4.27 39.686 0.12 7.14 2.56 12.56
12/5/2020 4:15:00 AM 4.27 39.686 0.12 7.15 2.56 12.56
12/5/2020 4:30:00 AM 4.27 39.686 0.12 7.15 2.52 12.56
12/5/2020 4:45:00 AM 4.27 39.686 0.12 7.16 2.47 12.56
12/5/2020 5:00:00 AM 4.27 39.686 0.12 7.16 2.45 12.56
12/5/2020 5:15:00 AM 4.28 39.704 0.12 7.18 2.41 12.56
12/5/2020 5:30:00 AM 4.28 39.704 0.12 7.18 2.45 12.56
12/5/2020 5:45:00 AM 4.29 39.722 0.12 7.18 2.49 12.56
12/5/2020 6:00:00 AM 4.3 39.74 0.12 7.19 2.48 12.56
12/5/2020 6:15:00 AM 4.31 39.758 0.12 7.17 2.49 12.56
12/5/2020 6:30:00 AM 4.32 39.776 0.12 7.19 2.49 12.55
12/5/2020 6:45:00 AM 4.33 39.794 0.12 7.19 2.43 12.55
12/5/2020 7:00:00 AM 4.34 39.812 0.12 7.19 2.47 12.54
12/5/2020 7:15:00 AM 4.35 39.83 0.12 7.19 2.46 12.54
12/5/2020 7:30:00 AM 4.36 39.848 0.12 7.19 2.47 12.54
12/5/2020 7:45:00 AM 4.37 39.866 0.12 7.19 2.48 12.55
12/5/2020 8:00:00 AM 4.38 39.884 0.12 7.19 2.46 12.57
12/5/2020 8:15:00 AM 4.4 39.92 0.12 7.2 2.45 12.62
12/5/2020 8:30:00 AM 4.43 39.974 0.12 7.22 2.45 12.67
12/5/2020 8:45:00 AM 4.46 40.028 0.12 7.24 2.44 12.74
12/5/2020 9:00:00 AM 4.51 40.118 0.119 7.25 2.5 12.81
12/5/2020 9:15:00 AM 4.56 40.208 0.119 7.28 2.45 12.87
12/5/2020 9:30:00 AM 4.62 40.316 0.119 7.3 2.43 12.93
12/5/2020 9:45:00 AM 4.68 40.424 0.119 7.32 2.5 12.98
12/5/2020 10:00:00 AM 4.71 40.478 0.119 7.34 2.43 13.01
12/5/2020 10:15:00 AM 4.72 40.496 0.119 7.35 2.49 13.03
12/5/2020 10:30:00 AM 4.71 40.478 0.119 7.36 2.48 13.02
12/5/2020 10:45:00 AM 4.76 40.568 0.119 7.36 2.47 13.05
12/5/2020 11:00:00 AM 4.81 40.658 0.119 7.38 2.43 13.09
12/5/2020 11:15:00 AM 4.81 40.658 0.119 7.39 2.4 13.09
12/5/2020 11:30:00 AM 4.81 40.658 0.119 7.39 2.47 13.09
12/5/2020 11:45:00 AM 4.82 40.676 0.119 7.39 2.44 13.1
12/5/2020 12:00:00 PM 4.85 40.73 0.119 7.41 2.46 13.11
12/5/2020 12:15:00 PM 4.87 40.766 0.119 7.41 2.4 13.11
12/5/2020 12:30:00 PM 4.91 40.838 0.119 7.42 2.4 13.13
12/5/2020 12:45:00 PM 4.95 40.91 0.118 7.44 2.46 13.14
12/5/2020 1:00:00 PM 4.94 40.892 0.119 7.43 2.44 13.11
12/5/2020 1:15:00 PM 4.92 40.856 0.119 7.42 2.39 13.08
12/5/2020 1:30:00 PM 4.92 40.856 0.119 7.43 2.42 13.08
12/5/2020 1:45:00 PM 4.91 40.838 0.119 7.43 2.4 13.07
12/5/2020 2:00:00 PM 4.89 40.802 0.119 7.43 2.44 13.06
12/5/2020 2:15:00 PM 4.86 40.748 0.119 7.42 2.45 13.04
12/5/2020 2:30:00 PM 4.85 40.73 0.119 7.41 2.42 13.02
12/5/2020 2:45:00 PM 4.83 40.694 0.119 7.41 2.49 13
12/5/2020 3:00:00 PM 4.81 40.658 0.119 7.39 2.43 12.96
12/5/2020 3:15:00 PM 4.8 40.64 0.119 7.39 2.44 12.96
12/5/2020 3:30:00 PM 4.8 40.64 0.119 7.39 2.42 12.97
12/5/2020 3:45:00 PM 4.78 40.604 0.119 7.39 2.44 12.98
12/5/2020 4:00:00 PM 4.76 40.568 0.119 7.39 2.44 12.95
12/5/2020 4:15:00 PM 4.74 40.532 0.119 7.37 2.45 12.89
12/5/2020 4:30:00 PM 4.71 40.478 0.119 7.36 2.46 12.83
12/5/2020 4:45:00 PM 4.69 40.442 0.119 7.33 2.44 12.77
12/5/2020 5:00:00 PM 4.67 40.406 0.12 7.32 2.45 12.72
12/5/2020 5:15:00 PM 4.64 40.352 0.12 7.34 2.59 12.68
12/5/2020 5:30:00 PM 4.62 40.316 0.12 7.3 2.49 12.65
12/5/2020 5:45:00 PM 4.6 40.28 0.12 7.29 2.55 12.63
12/5/2020 6:00:00 PM 4.58 40.244 0.12 7.28 2.52 12.61
12/5/2020 6:15:00 PM 4.56 40.208 0.12 7.27 2.53 12.6
12/5/2020 6:30:00 PM 4.55 40.19 0.12 7.27 2.49 12.59
12/5/2020 6:45:00 PM 4.53 40.154 0.12 7.26 2.48 12.58
12/5/2020 7:00:00 PM 4.52 40.136 0.12 7.25 2.47 12.56
12/5/2020 7:15:00 PM 4.5 40.1 0.12 7.25 2.58 12.56
12/5/2020 7:30:00 PM 4.48 40.064 0.12 7.25 2.48 12.55
12/5/2020 7:45:00 PM 4.47 40.046 0.12 7.24 2.45 12.55
12/5/2020 8:00:00 PM 4.46 40.028 0.12 7.24 2.46 12.54
12/5/2020 8:15:00 PM 4.44 39.992 0.121 7.24 2.53 12.53
12/5/2020 8:30:00 PM 4.43 39.974 0.121 7.23 2.48 12.54
12/5/2020 8:45:00 PM 4.42 39.956 0.121 7.23 2.5 12.54
12/5/2020 9:00:00 PM 4.4 39.92 0.121 7.23 2.5 12.53
12/5/2020 9:15:00 PM 4.39 39.902 0.121 7.23 2.5 12.53
12/5/2020 9:30:00 PM 4.39 39.902 0.121 7.23 2.51 12.54
12/5/2020 9:45:00 PM 4.38 39.884 0.121 7.23 2.43 12.54
12/5/2020 10:00:00 PM 4.38 39.884 0.121 7.23 2.44 12.53
12/5/2020 10:15:00 PM 4.36 39.848 0.121 7.23 2.44 12.54
12/5/2020 10:30:00 PM 4.35 39.83 0.121 7.22 2.44 12.54
12/5/2020 10:45:00 PM 4.33 39.794 0.121 7.22 2.42 12.55
12/5/2020 11:00:00 PM 4.31 39.758 0.121 7.22 2.55 12.55
12/5/2020 11:15:00 PM 4.29 39.722 0.121 7.22 2.43 12.56
12/5/2020 11:30:00 PM 4.27 39.686 0.121 7.22 2.48 12.56
12/5/2020 11:45:00 PM 4.25 39.65 0.121 7.22 2.47 12.57
12/6/2020 12:00:00 AM 4.24 39.632 0.121 7.22 2.43 12.57
12/6/2020 12:15:00 AM 4.21 39.578 0.121 7.21 2.44 12.58
12/6/2020 12:30:00 AM 4.19 39.542 0.121 7.21 2.42 12.58
12/6/2020 12:45:00 AM 4.17 39.506 0.121 7.21 2.46 12.59
12/6/2020 1:00:00 AM 4.15 39.47 0.121 7.22 2.4 12.6
12/6/2020 1:15:00 AM 4.12 39.416 0.121 7.21 2.44 12.6
12/6/2020 1:30:00 AM 4.08 39.344 0.121 7.21 2.43 12.61
12/6/2020 1:45:00 AM 4.06 39.308 0.121 7.21 2.42 12.61
12/6/2020 2:00:00 AM 4.04 39.272 0.121 7.21 2.38 12.62
12/6/2020 2:15:00 AM 4.03 39.254 0.121 7.21 2.4 12.63
12/6/2020 2:30:00 AM 4 39.2 0.121 7.2 2.43 12.64
12/6/2020 2:45:00 AM 3.97 39.146 0.121 7.2 2.43 12.64
12/6/2020 3:00:00 AM 3.93 39.074 0.121 7.21 2.39 12.65
12/6/2020 3:15:00 AM 3.9 39.02 0.121 7.2 2.43 12.66
12/6/2020 3:30:00 AM 3.87 38.966 0.121 7.21 2.38 12.67
12/6/2020 3:45:00 AM 3.84 38.912 0.121 7.21 2.35 12.67
12/6/2020 4:00:00 AM 3.81 38.858 0.121 7.21 2.37 12.69
12/6/2020 4:30:00 AM 3.77 38.786 0.121 7.21 2.39 12.7
12/6/2020 4:45:00 AM 3.74 38.732 0.121 7.21 2.47 12.7
12/6/2020 5:00:00 AM 3.73 38.714 0.121 7.21 2.41 12.72
12/6/2020 5:15:00 AM 3.72 38.696 0.121 7.21 2.39 12.71
12/6/2020 5:30:00 AM 3.73 38.714 0.121 7.21 2.43 12.73
12/6/2020 5:45:00 AM 3.74 38.732 0.121 7.21 2.36 12.72
12/6/2020 6:00:00 AM 3.75 38.75 0.121 7.21 2.39 12.72
12/6/2020 6:15:00 AM 3.74 38.732 0.121 7.21 2.39 12.73
12/6/2020 6:30:00 AM 3.73 38.714 0.121 7.21 2.34 12.73
12/6/2020 6:45:00 AM 3.73 38.714 0.121 7.22 2.37 12.74
12/6/2020 7:00:00 AM 3.72 38.696 0.121 7.21 2.38 12.74
12/6/2020 7:15:00 AM 3.72 38.696 0.121 7.22 2.37 12.74
12/6/2020 7:30:00 AM 3.72 38.696 0.121 7.22 2.34 12.75
12/6/2020 7:45:00 AM 3.71 38.678 0.121 7.23 2.28 12.78
12/6/2020 8:00:00 AM 3.72 38.696 0.121 7.24 2.39 12.84
12/6/2020 8:15:00 AM 3.73 38.714 0.121 7.25 2.41 12.91
12/6/2020 8:30:00 AM 3.75 38.75 0.121 7.27 2.37 12.98
12/6/2020 8:45:00 AM 3.76 38.768 0.121 7.29 2.39 13.04
12/6/2020 9:00:00 AM 3.77 38.786 0.121 7.3 2.32 13.1
12/6/2020 9:15:00 AM 3.77 38.786 0.121 7.31 2.31 13.14
12/6/2020 9:30:00 AM 3.78 38.804 0.121 7.33 2.3 13.18
12/6/2020 9:45:00 AM 3.8 38.84 0.121 7.34 2.27 13.22
12/6/2020 10:00:00 AM 3.86 38.948 0.121 7.36 2.28 13.24
12/6/2020 10:15:00 AM 3.92 39.056 0.121 7.37 2.35 13.27
12/6/2020 10:30:00 AM 4.01 39.218 0.12 7.38 2.37 13.3
12/6/2020 10:45:00 AM 4.05 39.29 0.12 7.39 2.42 13.31
12/6/2020 11:00:00 AM 4.06 39.308 0.12 7.4 2.31 13.33
12/6/2020 11:15:00 AM 4.06 39.308 0.12 7.41 2.3 13.34
12/6/2020 11:30:00 AM 4.12 39.416 0.12 7.42 2.29 13.35
12/6/2020 11:45:00 AM 4.18 39.524 0.12 7.43 2.32 13.34
12/6/2020 12:00:00 PM 4.25 39.65 0.12 7.44 2.32 13.34
12/6/2020 12:15:00 PM 4.47 40.046 0.12 7.45 2.45 13.33
12/6/2020 12:30:00 PM 4.71 40.478 0.12 7.47 2.26 13.3
12/6/2020 12:45:00 PM 4.89 40.802 0.12 7.47 2.32 13.28
12/6/2020 1:00:00 PM 5 41 0.12 7.47 3.55 13.25
12/6/2020 1:15:00 PM 5.08 41.144 0.12 7.47 2.52 13.23
12/6/2020 1:30:00 PM 5.06 41.108 0.12 7.47 2.61 13.21
12/6/2020 1:45:00 PM 5.01 41.018 0.12 7.47 2.4 13.19
12/6/2020 2:00:00 PM 4.89 40.802 0.12 7.45 2.33 13.17
12/6/2020 2:15:00 PM 4.8 40.64 0.12 7.45 2.33 13.17
12/6/2020 2:30:00 PM 4.65 40.37 0.12 7.43 2.34 13.16
12/6/2020 2:45:00 PM 4.52 40.136 0.12 7.42 2.37 13.15
12/6/2020 3:00:00 PM 4.41 39.938 0.12 7.41 2.31 13.15
12/6/2020 3:15:00 PM 4.33 39.794 0.12 7.4 2.33 13.14
12/6/2020 3:30:00 PM 4.26 39.668 0.121 7.39 2.38 13.13
12/6/2020 3:45:00 PM 4.19 39.542 0.121 7.39 2.31 13.11
12/6/2020 4:00:00 PM 4.15 39.47 0.121 7.37 2.38 13.08
12/6/2020 4:15:00 PM 4.12 39.416 0.121 7.37 2.3 13.05
12/6/2020 4:30:00 PM 4.09 39.362 0.121 7.35 2.32 13.01
12/6/2020 4:45:00 PM 4.05 39.29 0.121 7.34 2.36 12.96
12/6/2020 5:00:00 PM 4.01 39.218 0.121 7.33 2.34 12.91
12/6/2020 5:15:00 PM 3.96 39.128 0.121 7.3 2.43 12.87
12/6/2020 5:30:00 PM 3.9 39.02 0.121 7.3 2.35 12.85
12/6/2020 5:45:00 PM 3.85 38.93 0.122 7.28 2.38 12.82
12/6/2020 6:00:00 PM 3.81 38.858 0.122 7.27 2.36 12.81
12/6/2020 6:15:00 PM 3.76 38.768 0.122 7.27 2.44 12.8
12/6/2020 6:30:00 PM 3.72 38.696 0.122 7.26 2.4 12.8
12/6/2020 6:45:00 PM 3.68 38.624 0.122 7.26 2.35 12.8
12/6/2020 7:00:00 PM 3.64 38.552 0.122 7.25 2.34 12.8
12/6/2020 7:15:00 PM 3.6 38.48 0.122 7.25 2.31 12.8
12/6/2020 7:30:00 PM 3.56 38.408 0.123 7.25 2.38 12.81
12/6/2020 7:45:00 PM 3.52 38.336 0.123 7.25 2.36 12.82
12/6/2020 8:00:00 PM 3.48 38.264 0.123 7.24 2.41 12.82
12/6/2020 8:15:00 PM 3.44 38.192 0.123 7.24 2.42 12.84
12/6/2020 8:30:00 PM 3.4 38.12 0.123 7.24 2.35 12.84
12/6/2020 8:45:00 PM 3.36 38.048 0.123 7.23 2.32 12.85
12/6/2020 9:00:00 PM 3.32 37.976 0.123 7.24 2.38 12.86
12/6/2020 9:15:00 PM 3.3 37.94 0.123 7.23 2.35 12.87
12/6/2020 9:30:00 PM 3.29 37.922 0.123 7.24 2.37 12.87
12/6/2020 9:45:00 PM 3.28 37.904 0.123 7.23 2.33 12.88
12/6/2020 10:00:00 PM 3.25 37.85 0.123 7.23 2.45 12.89
12/6/2020 10:15:00 PM 3.23 37.814 0.123 7.23 2.3 12.89
12/6/2020 10:30:00 PM 3.21 37.778 0.123 7.23 2.34 12.89
12/6/2020 10:45:00 PM 3.19 37.742 0.123 7.23 2.39 12.9
12/6/2020 11:00:00 PM 3.17 37.706 0.123 7.23 2.38 12.9
12/6/2020 11:15:00 PM 3.15 37.67 0.123 7.24 2.37 12.91
12/6/2020 11:30:00 PM 3.13 37.634 0.123 7.23 2.36 12.91
12/6/2020 11:45:00 PM 3.1 37.58 0.123 7.23 2.36 12.92
12/7/2020 12:00:00 AM 3.08 37.544 0.123 7.23 2.38 12.93
12/7/2020 12:15:00 AM 3.07 37.526 0.123 7.23 2.36 12.93
12/7/2020 12:30:00 AM 3.07 37.526 0.123 7.23 2.37 12.93
12/7/2020 12:45:00 AM 3.07 37.526 0.123 7.23 2.39 12.93
12/7/2020 1:00:00 AM 3.07 37.526 0.123 7.23 2.38 12.93
12/7/2020 1:15:00 AM 3.07 37.526 0.123 7.24 2.3 12.93
12/7/2020 1:30:00 AM 3.08 37.544 0.123 7.23 2.36 12.93
12/7/2020 1:45:00 AM 3.08 37.544 0.123 7.23 2.37 12.93
12/7/2020 2:00:00 AM 3.07 37.526 0.123 7.23 2.37 12.93
12/7/2020 2:15:00 AM 3.07 37.526 0.123 7.23 2.36 12.93
12/7/2020 2:30:00 AM 3.05 37.49 0.123 7.23 2.39 12.93
12/7/2020 2:45:00 AM 3.04 37.472 0.123 7.23 2.33 12.93
12/7/2020 3:00:00 AM 3.03 37.454 0.123 7.23 2.38 12.93
12/7/2020 3:15:00 AM 3.02 37.436 0.123 7.23 2.99 12.94
12/7/2020 3:30:00 AM 3.01 37.418 0.123 7.23 2.39 12.94
12/7/2020 3:45:00 AM 3.01 37.418 0.123 7.23 2.36 12.94
12/7/2020 4:00:00 AM 3.02 37.436 0.123 7.23 2.37 12.94
12/7/2020 4:15:00 AM 3.04 37.472 0.123 7.23 2.36 12.94
12/7/2020 4:30:00 AM 3.05 37.49 0.123 7.23 2.33 12.93
12/7/2020 4:45:00 AM 3.06 37.508 0.123 7.23 2.33 12.93
12/7/2020 5:00:00 AM 3.07 37.526 0.123 7.23 2.33 12.93
12/7/2020 5:15:00 AM 3.07 37.526 0.123 7.23 2.4 12.93
12/7/2020 5:30:00 AM 3.07 37.526 0.123 7.23 2.33 12.92
12/7/2020 5:45:00 AM 3.05 37.49 0.122 7.23 2.35 12.92
12/7/2020 6:00:00 AM 3.04 37.472 0.122 7.23 2.33 12.92
12/7/2020 6:15:00 AM 3.04 37.472 0.122 7.23 2.35 12.92
12/7/2020 6:30:00 AM 3.04 37.472 0.122 7.23 2.32 12.92
12/7/2020 6:45:00 AM 3.03 37.454 0.123 7.23 2.37 12.92
12/7/2020 7:00:00 AM 3.03 37.454 0.123 7.22 2.38 12.92
12/7/2020 7:15:00 AM 3.02 37.436 0.123 7.22 2.35 12.93
12/7/2020 7:30:00 AM 3.02 37.436 0.123 7.22 2.36 12.93
12/7/2020 7:45:00 AM 3.04 37.472 0.123 7.23 2.33 12.96
12/7/2020 8:00:00 AM 3.06 37.508 0.122 7.24 2.33 13.01
12/7/2020 8:15:00 AM 3.08 37.544 0.122 7.25 2.31 13.06
12/7/2020 8:30:00 AM 3.12 37.616 0.122 7.27 2.4 13.12
12/7/2020 8:45:00 AM 3.16 37.688 0.122 7.29 2.38 13.19
12/7/2020 9:00:00 AM 3.21 37.778 0.122 7.3 2.33 13.26
12/7/2020 9:15:00 AM 3.25 37.85 0.122 7.32 2.36 13.3
12/7/2020 9:30:00 AM 3.31 37.958 0.122 7.34 2.27 13.35
12/7/2020 9:45:00 AM 3.37 38.066 0.122 7.36 2.36 13.39
12/7/2020 10:00:00 AM 3.43 38.174 0.122 7.37 2.34 13.41
12/7/2020 10:15:00 AM 3.47 38.246 0.122 7.38 2.37 13.44
12/7/2020 10:30:00 AM 3.51 38.318 0.122 7.39 2.31 13.45
12/7/2020 10:45:00 AM 3.56 38.408 0.121 7.4 2.26 13.47
12/7/2020 11:00:00 AM 3.59 38.462 0.121 7.41 2.29 13.47
12/7/2020 11:15:00 AM 3.62 38.516 0.121 7.42 2.37 13.48
12/7/2020 11:30:00 AM 3.67 38.606 0.121 7.43 2.24 13.49
12/7/2020 11:45:00 AM 3.72 38.696 0.121 7.44 2.25 13.5
12/7/2020 12:00:00 PM 3.77 38.786 0.121 7.45 2.3 13.5
12/7/2020 12:15:00 PM 3.81 38.858 0.121 7.45 2.25 13.5
12/7/2020 12:30:00 PM 3.87 38.966 0.121 7.46 2.37 13.49
12/7/2020 12:45:00 PM 3.91 39.038 0.121 7.47 2.27 13.48
12/7/2020 1:00:00 PM 3.96 39.128 0.121 7.47 2.29 13.47
12/7/2020 1:15:00 PM 4 39.2 0.121 7.48 2.29 13.47
12/7/2020 1:30:00 PM 4.09 39.362 0.121 7.49 2.26 13.46
12/7/2020 1:45:00 PM 4.21 39.578 0.121 7.5 2.23 13.44
12/7/2020 2:00:00 PM 4.33 39.794 0.121 7.5 2.22 13.42
12/7/2020 2:15:00 PM 4.36 39.848 0.121 7.5 2.31 13.39
12/7/2020 2:30:00 PM 4.29 39.722 0.121 7.5 2.25 13.37
12/7/2020 2:45:00 PM 4.16 39.488 0.121 7.48 2.25 13.34
12/7/2020 3:00:00 PM 4.08 39.344 0.121 7.46 2.25 13.31
12/7/2020 3:15:00 PM 4 39.2 0.121 7.45 2.29 13.29
12/7/2020 3:30:00 PM 3.94 39.092 0.121 7.44 2.35 13.26
12/7/2020 3:45:00 PM 3.87 38.966 0.121 7.43 2.28 13.24
12/7/2020 4:00:00 PM 3.84 38.912 0.121 7.42 2.3 13.21
12/7/2020 4:15:00 PM 3.82 38.876 0.121 7.41 2.27 13.19
12/7/2020 4:30:00 PM 3.8 38.84 0.122 7.4 2.24 13.16
12/7/2020 4:45:00 PM 3.76 38.768 0.122 7.38 2.33 13.09
12/7/2020 5:00:00 PM 3.73 38.714 0.122 7.36 2.28 13.04
12/7/2020 5:15:00 PM 3.68 38.624 0.122 7.33 2.29 12.98
12/7/2020 5:30:00 PM 3.64 38.552 0.122 7.33 2.38 12.95
12/7/2020 5:45:00 PM 3.6 38.48 0.122 7.31 2.32 12.92
12/7/2020 6:00:00 PM 3.57 38.426 0.122 7.3 2.25 12.9
12/7/2020 6:15:00 PM 3.54 38.372 0.123 7.29 2.34 12.88
12/7/2020 6:30:00 PM 3.51 38.318 0.123 7.29 2.41 12.87
12/7/2020 6:45:00 PM 3.49 38.282 0.123 7.28 2.41 12.87
12/7/2020 7:00:00 PM 3.47 38.246 0.123 7.27 2.4 12.86
12/7/2020 7:15:00 PM 3.44 38.192 0.123 7.27 2.38 12.85
12/7/2020 7:30:00 PM 3.42 38.156 0.123 7.27 2.34 12.85
12/7/2020 7:45:00 PM 3.39 38.102 0.123 7.26 2.4 12.84
12/7/2020 8:00:00 PM 3.37 38.066 0.123 7.26 2.4 12.84
12/7/2020 8:15:00 PM 3.34 38.012 0.123 7.25 2.4 12.84
12/7/2020 8:30:00 PM 3.3 37.94 0.123 7.25 2.43 12.85
12/7/2020 8:45:00 PM 3.27 37.886 0.123 7.25 2.34 12.85
12/7/2020 9:00:00 PM 3.24 37.832 0.123 7.24 2.33 12.85
12/7/2020 9:15:00 PM 3.21 37.778 0.123 7.24 2.4 12.86
12/7/2020 9:30:00 PM 3.18 37.724 0.124 7.24 2.34 12.87
12/7/2020 9:45:00 PM 3.14 37.652 0.124 7.24 2.29 12.88
12/7/2020 10:00:00 PM 3.1 37.58 0.124 7.24 2.36 12.89
12/7/2020 10:15:00 PM 3.06 37.508 0.124 7.24 2.33 12.9
12/7/2020 10:30:00 PM 3.04 37.472 0.124 7.24 2.38 12.91
12/7/2020 10:45:00 PM 3.02 37.436 0.124 7.23 2.37 12.91
12/7/2020 11:00:00 PM 2.99 37.382 0.124 7.22 2.37 12.92
12/7/2020 11:15:00 PM 2.97 37.346 0.123 7.23 2.31 12.93
12/7/2020 11:30:00 PM 2.95 37.31 0.123 7.23 2.31 12.94
12/7/2020 11:45:00 PM 2.96 37.328 0.123 7.22 2.33 12.95
12/8/2020 12:00:00 AM 2.96 37.328 0.123 7.23 2.31 12.95
12/8/2020 12:15:00 AM 2.96 37.328 0.123 7.24 2.36 12.95
12/8/2020 12:30:00 AM 2.97 37.346 0.123 7.24 2.4 12.95
12/8/2020 12:45:00 AM 2.97 37.346 0.123 7.24 2.35 12.95
12/8/2020 1:00:00 AM 2.96 37.328 0.123 7.23 2.35 12.96
12/8/2020 1:15:00 AM 2.96 37.328 0.123 7.24 2.34 12.96
12/8/2020 1:30:00 AM 2.97 37.346 0.124 7.23 2.4 12.96
12/8/2020 1:45:00 AM 2.97 37.346 0.124 7.23 2.25 12.96
12/8/2020 2:00:00 AM 2.96 37.328 0.124 7.23 2.29 12.96
12/8/2020 2:15:00 AM 2.95 37.31 0.124 7.23 2.38 12.97
12/8/2020 2:30:00 AM 2.92 37.256 0.124 7.23 2.27 12.98
12/8/2020 2:45:00 AM 2.89 37.202 0.124 7.23 2.33 12.98
12/8/2020 3:00:00 AM 2.84 37.112 0.124 7.23 2.35 12.99
12/8/2020 3:15:00 AM 2.8 37.04 0.124 7.21 2.27 13
12/8/2020 3:30:00 AM 2.77 36.986 0.124 7.22 2.29 13.01
12/8/2020 3:45:00 AM 2.73 36.914 0.124 7.22 2.34 13.02
12/8/2020 4:00:00 AM 2.7 36.86 0.124 7.22 2.27 13.03
12/8/2020 4:15:00 AM 2.68 36.824 0.124 7.22 2.36 13.04
12/8/2020 4:30:00 AM 2.66 36.788 0.124 7.22 2.3 13.04
12/8/2020 4:45:00 AM 2.64 36.752 0.124 7.22 2.34 13.05
12/8/2020 5:00:00 AM 2.63 36.734 0.124 7.21 2.28 13.06
12/8/2020 5:15:00 AM 2.61 36.698 0.124 7.22 2.31 13.07
12/8/2020 5:30:00 AM 2.57 36.626 0.124 7.21 2.33 13.08
12/8/2020 5:45:00 AM 2.53 36.554 0.124 7.22 2.31 13.1
12/8/2020 6:00:00 AM 2.49 36.482 0.124 7.22 2.28 13.1
12/8/2020 6:15:00 AM 2.45 36.41 0.124 7.21 2.26 13.12
12/8/2020 6:30:00 AM 2.41 36.338 0.124 7.22 2.27 13.15
12/8/2020 6:45:00 AM 2.37 36.266 0.124 7.22 2.28 13.15
12/8/2020 7:00:00 AM 2.33 36.194 0.124 7.21 2.23 13.17
12/8/2020 7:15:00 AM 2.3 36.14 0.124 7.22 2.26 13.19
12/8/2020 7:30:00 AM 2.26 36.068 0.124 7.22 2.24 13.21
12/8/2020 7:45:00 AM 2.23 36.014 0.124 7.22 2.21 13.24
12/8/2020 8:00:00 AM 2.21 35.978 0.124 7.23 2.24 13.31
12/8/2020 8:15:00 AM 2.2 35.96 0.124 7.24 2.24 13.37
12/8/2020 8:30:00 AM 2.18 35.924 0.124 7.25 2.23 13.43
12/8/2020 8:45:00 AM 2.19 35.942 0.124 7.27 2.22 13.49
12/8/2020 9:00:00 AM 2.2 35.96 0.124 7.28 2.23 13.54
12/8/2020 9:15:00 AM 2.24 36.032 0.124 7.3 2.24 13.59
12/8/2020 9:30:00 AM 2.27 36.086 0.124 7.31 2.25 13.63
12/8/2020 9:45:00 AM 2.31 36.158 0.124 7.33 2.21 13.66
12/8/2020 10:00:00 AM 2.36 36.248 0.124 7.34 2.21 13.69
12/8/2020 10:15:00 AM 2.42 36.356 0.124 7.35 2.27 13.72
12/8/2020 10:30:00 AM 2.51 36.518 0.124 7.37 2.27 13.74
12/8/2020 10:45:00 AM 2.57 36.626 0.124 7.37 2.22 13.75
12/8/2020 11:00:00 AM 2.65 36.77 0.124 7.39 2.2 13.77
12/8/2020 11:15:00 AM 2.76 36.968 0.124 7.4 2.24 13.78
12/8/2020 11:30:00 AM 2.87 37.166 0.123 7.41 2.15 13.79
12/8/2020 11:45:00 AM 2.99 37.382 0.123 7.42 2.2 13.78
12/8/2020 12:00:00 PM 3.06 37.508 0.123 7.41 2.21 13.77
12/8/2020 12:15:00 PM 3.17 37.706 0.123 7.43 2.17 13.76
12/8/2020 12:30:00 PM 3.33 37.994 0.123 7.44 2.12 13.73
12/8/2020 12:45:00 PM 3.53 38.354 0.123 7.44 2.14 13.7
12/8/2020 1:00:00 PM 3.72 38.696 0.123 7.45 2.19 13.65
12/8/2020 1:15:00 PM 3.88 38.984 0.123 7.46 2.11 13.62
12/8/2020 1:30:00 PM 3.98 39.164 0.123 7.46 2.21 13.58
12/8/2020 1:45:00 PM 4 39.2 0.123 7.45 2.16 13.55
12/8/2020 2:00:00 PM 3.97 39.146 0.123 7.44 2.16 13.53
12/8/2020 2:15:00 PM 3.9 39.02 0.123 7.44 2.21 13.52
12/8/2020 2:30:00 PM 3.76 38.768 0.123 7.43 2.13 13.51
12/8/2020 2:45:00 PM 3.62 38.516 0.123 7.41 2.26 13.49
12/8/2020 3:00:00 PM 3.52 38.336 0.123 7.41 2.16 13.49
12/8/2020 3:15:00 PM 3.42 38.156 0.123 7.4 2.13 13.47
12/8/2020 3:30:00 PM 3.36 38.048 0.123 7.39 2.18 13.46
12/8/2020 3:45:00 PM 3.29 37.922 0.123 7.38 2.15 13.43
12/8/2020 4:00:00 PM 3.23 37.814 0.124 7.37 2.22 13.4
12/8/2020 4:15:00 PM 3.19 37.742 0.124 7.36 2.16 13.39
12/8/2020 4:30:00 PM 3.13 37.634 0.124 7.34 2.12 13.36
12/8/2020 4:45:00 PM 3.07 37.526 0.124 7.34 2.22 13.33
12/8/2020 5:00:00 PM 2.99 37.382 0.124 7.32 2.18 13.29
12/8/2020 5:15:00 PM 2.92 37.256 0.124 7.3 2.16 13.26
12/8/2020 5:30:00 PM 2.86 37.148 0.125 7.29 2.22 13.24
12/8/2020 5:45:00 PM 2.79 37.022 0.125 7.27 2.17 13.23
12/8/2020 6:00:00 PM 2.74 36.932 0.125 7.27 2.19 13.21
12/8/2020 6:15:00 PM 2.7 36.86 0.125 7.27 2.2 13.21
12/8/2020 6:30:00 PM 2.66 36.788 0.125 7.26 2.19 13.21
12/8/2020 6:45:00 PM 2.61 36.698 0.125 7.26 2.19 13.21
12/8/2020 7:00:00 PM 2.57 36.626 0.126 7.25 2.37 13.22
12/8/2020 7:15:00 PM 2.53 36.554 0.126 7.25 2.19 13.22
12/8/2020 7:30:00 PM 2.5 36.5 0.126 7.25 2.18 13.23
12/8/2020 7:45:00 PM 2.46 36.428 0.126 7.24 4.81 13.21
12/8/2020 8:00:00 PM 2.42 36.356 0.126 7.24 2.47 13.23
12/8/2020 8:15:00 PM 2.41 36.338 0.126 7.24 2.14 13.24
12/8/2020 8:30:00 PM 2.39 36.302 0.126 7.24 2.15 13.25
12/8/2020 8:45:00 PM 2.36 36.248 0.126 7.23 2.17 13.25
12/8/2020 9:00:00 PM 2.34 36.212 0.126 7.24 2.14 13.25
12/8/2020 9:15:00 PM 2.32 36.176 0.126 7.24 2.15 13.26
12/8/2020 9:30:00 PM 2.3 36.14 0.126 7.24 2.14 13.26
12/8/2020 9:45:00 PM 2.28 36.104 0.126 7.24 2.18 13.26
12/8/2020 10:00:00 PM 2.26 36.068 0.126 7.24 2.16 13.27
12/8/2020 10:15:00 PM 2.24 36.032 0.126 7.24 2.17 13.27
12/8/2020 10:30:00 PM 2.23 36.014 0.126 7.24 2.2 13.27
12/8/2020 10:45:00 PM 2.22 35.996 0.126 7.24 2.3 13.28
12/8/2020 11:00:00 PM 2.21 35.978 0.126 7.24 2.12 13.28
12/8/2020 11:15:00 PM 2.19 35.942 0.126 7.24 2.11 13.29
12/8/2020 11:30:00 PM 2.19 35.942 0.126 7.24 2.24 13.29
12/8/2020 11:45:00 PM 2.19 35.942 0.126 7.24 2.14 13.29
12/9/2020 12:00:00 AM 2.19 35.942 0.126 7.23 2.16 13.29
12/9/2020 12:15:00 AM 2.21 35.978 0.126 7.23 2.13 13.28
12/9/2020 12:30:00 AM 2.22 35.996 0.126 7.24 2.14 13.27
12/9/2020 12:45:00 AM 2.23 36.014 0.126 7.24 2.12 13.27
12/9/2020 1:00:00 AM 2.25 36.05 0.126 7.24 2.19 13.27
12/9/2020 1:15:00 AM 2.27 36.086 0.126 7.24 2.13 13.27
12/9/2020 1:30:00 AM 2.28 36.104 0.126 7.24 2.16 13.27
12/9/2020 1:45:00 AM 2.3 36.14 0.126 7.24 2.14 13.26
12/9/2020 2:00:00 AM 2.31 36.158 0.126 7.24 2.17 13.26
12/9/2020 2:15:00 AM 2.31 36.158 0.126 7.24 2.16 13.25
12/9/2020 2:30:00 AM 2.33 36.194 0.126 7.24 2.13 13.24
12/9/2020 2:45:00 AM 2.34 36.212 0.126 7.24 2.16 13.24
12/9/2020 3:00:00 AM 2.37 36.266 0.126 7.24 2.14 13.22
12/9/2020 3:15:00 AM 2.39 36.302 0.126 7.23 2.13 13.21
12/9/2020 3:30:00 AM 2.39 36.302 0.126 7.23 2.1 13.21
12/9/2020 3:45:00 AM 2.39 36.302 0.126 7.24 2.17 13.2
12/9/2020 4:00:00 AM 2.38 36.284 0.126 7.23 2.11 13.2
12/9/2020 4:15:00 AM 2.38 36.284 0.126 7.23 2.17 13.2
12/9/2020 4:30:00 AM 2.41 36.338 0.126 7.23 2.11 13.19
12/9/2020 4:45:00 AM 2.44 36.392 0.126 7.24 2.19 13.18
12/9/2020 5:00:00 AM 2.46 36.428 0.125 7.24 2.11 13.18
12/9/2020 5:15:00 AM 2.46 36.428 0.125 7.24 2.14 13.17
12/9/2020 5:30:00 AM 2.49 36.482 0.126 7.23 2.17 13.16
12/9/2020 5:45:00 AM 2.5 36.5 0.126 7.23 2.11 13.16
12/9/2020 6:00:00 AM 2.52 36.536 0.126 7.23 2.11 13.15
12/9/2020 6:15:00 AM 2.53 36.554 0.126 7.23 2.14 13.14
12/9/2020 6:30:00 AM 2.56 36.608 0.126 7.23 2.17 13.13
12/9/2020 6:45:00 AM 2.57 36.626 0.126 7.23 2.11 13.12
12/9/2020 7:00:00 AM 2.58 36.644 0.126 7.23 2.12 13.12
12/9/2020 7:15:00 AM 2.59 36.662 0.126 7.23 2.28 13.1
12/9/2020 7:30:00 AM 2.6 36.68 0.126 7.23 2.21 13.12
12/9/2020 7:45:00 AM 2.62 36.716 0.126 7.23 2.19 13.11
12/9/2020 8:00:00 AM 2.62 36.716 0.126 7.23 2.17 13.12
12/9/2020 8:15:00 AM 2.63 36.734 0.126 7.24 2.14 13.14
12/9/2020 8:30:00 AM 2.63 36.734 0.125 7.24 2.12 13.18
12/9/2020 8:45:00 AM 2.63 36.734 0.125 7.24 2.16 13.2
12/9/2020 9:00:00 AM 2.63 36.734 0.125 7.26 2.2 13.22
12/9/2020 9:15:00 AM 2.64 36.752 0.125 7.26 2.08 13.26
12/9/2020 9:30:00 AM 2.64 36.752 0.125 7.27 2.13 13.3
12/9/2020 9:45:00 AM 2.67 36.806 0.125 7.28 2.16 13.36
12/9/2020 10:00:00 AM 2.72 36.896 0.125 7.3 2.09 13.41
12/9/2020 10:15:00 AM 2.77 36.986 0.125 7.3 2.4 13.46
12/9/2020 10:30:00 AM 2.82 37.076 0.125 7.33 2.19 13.5
12/9/2020 10:45:00 AM 2.85 37.13 0.125 7.34 2.2 13.53
12/9/2020 11:00:00 AM 2.88 37.184 0.125 7.35 2.14 13.54
12/9/2020 11:15:00 AM 2.9 37.22 0.125 7.35 2.15 13.54
12/9/2020 11:30:00 AM 2.9 37.22 0.125 7.35 2.13 13.53
12/9/2020 11:45:00 AM 2.92 37.256 0.125 7.35 2.17 13.52
12/9/2020 12:00:00 PM 2.94 37.292 0.125 7.36 2.13 13.52
12/9/2020 12:15:00 PM 2.97 37.346 0.124 7.36 2.15 13.52
12/9/2020 12:30:00 PM 2.99 37.382 0.124 7.36 2.21 13.52
12/9/2020 12:45:00 PM 3 37.4 0.124 7.37 2.16 13.53
12/9/2020 1:00:00 PM 3.03 37.454 0.124 7.37 2.15 13.53
12/9/2020 1:15:00 PM 3.05 37.49 0.124 7.38 2.13 13.53
12/9/2020 1:30:00 PM 3.05 37.49 0.124 7.37 2.15 13.5
12/9/2020 1:45:00 PM 3.07 37.526 0.124 7.37 2.19 13.48
12/9/2020 2:00:00 PM 3.09 37.562 0.124 7.36 2.27 13.46
12/9/2020 2:15:00 PM 3.1 37.58 0.124 7.36 2.12 13.44
12/9/2020 2:30:00 PM 3.12 37.616 0.124 7.36 2.2 13.41
12/9/2020 2:45:00 PM 3.14 37.652 0.124 7.36 2.4 13.39
12/9/2020 3:00:00 PM 3.15 37.67 0.124 7.35 2.19 13.37
12/9/2020 3:15:00 PM 3.16 37.688 0.124 7.35 2.11 13.34
12/9/2020 3:30:00 PM 3.17 37.706 0.124 7.35 2.15 13.33
12/9/2020 3:45:00 PM 3.18 37.724 0.124 7.34 2.16 13.3
12/9/2020 4:00:00 PM 3.18 37.724 0.124 7.33 2.17 13.27
12/9/2020 4:15:00 PM 3.18 37.724 0.125 7.32 2.15 13.22
12/9/2020 4:30:00 PM 3.18 37.724 0.125 7.31 2.15 13.18
12/9/2020 4:45:00 PM 3.18 37.724 0.126 7.34 2.28 13.14
12/9/2020 5:00:00 PM 3.18 37.724 0.125 7.31 2.15 13.11
12/9/2020 5:15:00 PM 3.18 37.724 0.125 7.28 2.14 13.08
12/9/2020 5:30:00 PM 3.17 37.706 0.125 7.28 2.19 13.05
12/9/2020 5:45:00 PM 3.17 37.706 0.125 7.27 2.13 13.03
12/9/2020 6:00:00 PM 3.16 37.688 0.125 7.27 2.15 13.02
12/9/2020 6:15:00 PM 3.15 37.67 0.125 7.26 2.14 13.01
12/9/2020 6:30:00 PM 3.14 37.652 0.125 7.25 2.16 13
12/9/2020 6:45:00 PM 3.14 37.652 0.125 7.26 2.16 12.99
12/9/2020 7:00:00 PM 3.14 37.652 0.126 7.25 2.13 12.99
12/9/2020 7:15:00 PM 3.14 37.652 0.126 7.24 2.13 12.99
12/9/2020 7:30:00 PM 3.13 37.634 0.126 7.25 2.18 12.98
12/9/2020 7:45:00 PM 3.13 37.634 0.126 7.24 2.14 12.98
12/9/2020 8:00:00 PM 3.12 37.616 0.126 7.24 2.16 12.98
12/9/2020 8:15:00 PM 3.12 37.616 0.126 7.24 2.28 12.98
12/9/2020 8:30:00 PM 3.11 37.598 0.126 7.22 2.1 12.98
12/9/2020 8:45:00 PM 3.11 37.598 0.126 7.23 2.16 12.99
12/9/2020 9:00:00 PM 3.1 37.58 0.126 7.23 2.16 12.99
12/9/2020 9:15:00 PM 3.09 37.562 0.126 7.23 2.14 12.99
12/9/2020 9:30:00 PM 3.08 37.544 0.126 7.23 2.13 12.99
12/9/2020 9:45:00 PM 3.07 37.526 0.126 7.21 2.12 12.99
12/9/2020 10:00:00 PM 3.07 37.526 0.126 7.22 2.18 12.99
12/9/2020 10:15:00 PM 3.06 37.508 0.126 7.22 2.2 13
12/9/2020 10:30:00 PM 3.06 37.508 0.126 7.21 2.09 13
12/9/2020 10:45:00 PM 3.05 37.49 0.126 7.21 2.18 13
12/9/2020 11:00:00 PM 3.05 37.49 0.126 7.21 2.1 13
12/9/2020 11:15:00 PM 3.05 37.49 0.126 7.21 2.19 13
12/9/2020 11:30:00 PM 3.05 37.49 0.126 7.21 2.09 13.01
12/9/2020 11:45:00 PM 3.04 37.472 0.126 7.21 2.12 13.01
12/10/2020 12:00:00 AM 3.04 37.472 0.126 7.21 2.17 13.02
12/10/2020 12:15:00 AM 3.03 37.454 0.126 7.21 2.09 13.02
12/10/2020 12:30:00 AM 3.02 37.436 0.126 7.21 2.19 13.02
12/10/2020 12:45:00 AM 3.01 37.418 0.126 7.2 2.12 13.02
12/10/2020 1:00:00 AM 3.01 37.418 0.126 7.21 2.09 13.03
12/10/2020 1:15:00 AM 3.01 37.418 0.126 7.21 2.16 13.03
12/10/2020 1:30:00 AM 3.01 37.418 0.126 7.21 2.17 13.03
12/10/2020 1:45:00 AM 3.01 37.418 0.126 7.21 2.07 13.04
12/10/2020 2:00:00 AM 3 37.4 0.126 7.21 2.11 13.04
12/10/2020 2:15:00 AM 2.97 37.346 0.126 7.21 2.16 13.04
12/10/2020 2:30:00 AM 2.94 37.292 0.126 7.2 2.13 13.06
12/10/2020 2:45:00 AM 2.93 37.274 0.126 7.2 2.18 13.06
12/10/2020 3:00:00 AM 2.92 37.256 0.126 7.19 2.36 13.06
12/10/2020 3:15:00 AM 2.92 37.256 0.126 7.21 2.16 13.07
12/10/2020 3:30:00 AM 2.92 37.256 0.126 7.2 2.09 13.08
12/10/2020 3:45:00 AM 2.92 37.256 0.126 7.2 2.13 13.08
12/10/2020 4:00:00 AM 2.92 37.256 0.126 7.21 2.17 13.08
12/10/2020 4:15:00 AM 2.91 37.238 0.126 7.21 2.16 13.09
12/10/2020 4:30:00 AM 2.9 37.22 0.126 7.21 2.19 13.09
12/10/2020 4:45:00 AM 2.9 37.22 0.126 7.21 2.15 13.1
12/10/2020 5:00:00 AM 2.89 37.202 0.126 7.2 2.15 13.1
12/10/2020 5:15:00 AM 2.86 37.148 0.126 7.2 2.24 13.11
12/10/2020 5:30:00 AM 2.84 37.112 0.126 7.2 2.24 13.12
12/10/2020 5:45:00 AM 2.83 37.094 0.126 7.2 2.1 13.12
12/10/2020 6:00:00 AM 2.82 37.076 0.126 7.2 2.14 13.13
12/10/2020 6:15:00 AM 2.82 37.076 0.126 7.2 2.12 13.13
12/10/2020 6:30:00 AM 2.82 37.076 0.126 7.2 2.13 13.14
12/10/2020 6:45:00 AM 2.83 37.094 0.126 7.19 2.21 13.15
12/10/2020 7:00:00 AM 2.83 37.094 0.126 7.2 2.18 13.15
12/10/2020 7:15:00 AM 2.82 37.076 0.126 7.2 2.1 13.15
12/10/2020 7:30:00 AM 2.82 37.076 0.126 7.2 2.1 13.17
12/10/2020 7:45:00 AM 2.82 37.076 0.126 7.21 2.1 13.19
12/10/2020 8:00:00 AM 2.83 37.094 0.126 7.21 2.11 13.22
12/10/2020 8:15:00 AM 2.84 37.112 0.126 7.23 2.08 13.27
12/10/2020 8:30:00 AM 2.86 37.148 0.126 7.23 2.18 13.32
12/10/2020 8:45:00 AM 2.88 37.184 0.126 7.25 2.15 13.38
12/10/2020 9:00:00 AM 2.91 37.238 0.126 7.27 2.08 13.45
12/10/2020 9:15:00 AM 2.95 37.31 0.125 7.28 2.05 13.52
12/10/2020 9:30:00 AM 2.97 37.346 0.125 7.3 2.06 13.57
12/10/2020 9:45:00 AM 3.03 37.454 0.125 7.3 2.07 13.63
12/10/2020 10:00:00 AM 3.12 37.616 0.125 7.34 2.05 13.68
12/10/2020 10:15:00 AM 3.2 37.76 0.125 7.35 2.08 13.71
12/10/2020 10:30:00 AM 3.27 37.886 0.125 7.37 2.1 13.73
12/10/2020 10:45:00 AM 3.31 37.958 0.125 7.37 2.02 13.74
12/10/2020 11:00:00 AM 3.37 38.066 0.125 7.39 2.06 13.76
12/10/2020 11:15:00 AM 3.43 38.174 0.125 7.4 2.07 13.77
12/10/2020 11:30:00 AM 3.49 38.282 0.125 7.41 2.13 13.77
12/10/2020 11:45:00 AM 3.6 38.48 0.125 7.42 2.11 13.78
12/10/2020 12:00:00 PM 3.66 38.588 0.124 7.44 2.11 13.78
12/10/2020 12:15:00 PM 3.75 38.75 0.124 7.44 2.05 13.77
12/10/2020 12:30:00 PM 3.83 38.894 0.124 7.45 2.06 13.76
12/10/2020 12:45:00 PM 3.89 39.002 0.124 7.45 2.09 13.75
12/10/2020 1:00:00 PM 4.02 39.236 0.124 7.46 2.11 13.73
12/10/2020 1:15:00 PM 4.14 39.452 0.124 7.46 2.08 13.7
12/10/2020 1:30:00 PM 4.19 39.542 0.124 7.47 2.09 13.66
12/10/2020 1:45:00 PM 4.19 39.542 0.124 7.46 2.12 13.65
12/10/2020 2:00:00 PM 4.21 39.578 0.124 7.46 2.14 13.64
12/10/2020 2:15:00 PM 4.25 39.65 0.124 7.46 2.04 13.63
12/10/2020 2:30:00 PM 4.19 39.542 0.124 7.44 2.11 13.62
12/10/2020 2:45:00 PM 4.06 39.308 0.124 7.44 2.05 13.61
12/10/2020 3:00:00 PM 3.98 39.164 0.124 7.43 2.02 13.59
12/10/2020 3:15:00 PM 3.89 39.002 0.124 7.41 2.01 13.57
12/10/2020 3:30:00 PM 3.82 38.876 0.124 7.41 2.04 13.54
12/10/2020 3:45:00 PM 3.76 38.768 0.124 7.4 2.07 13.51
12/10/2020 4:00:00 PM 3.7 38.66 0.125 7.39 2.06 13.48
12/10/2020 4:15:00 PM 3.65 38.57 0.125 7.37 2.01 13.45
12/10/2020 4:30:00 PM 3.59 38.462 0.125 7.36 2.1 13.42
12/10/2020 4:45:00 PM 3.52 38.336 0.125 7.34 2.07 13.37
12/10/2020 5:00:00 PM 3.45 38.21 0.125 7.32 2.06 13.33
12/10/2020 5:15:00 PM 3.37 38.066 0.125 7.3 2.11 13.29
12/10/2020 5:30:00 PM 3.29 37.922 0.126 7.29 2.11 13.26
12/10/2020 5:45:00 PM 3.22 37.796 0.126 7.27 2.07 13.25
12/10/2020 6:00:00 PM 3.14 37.652 0.126 7.27 2.09 13.23
12/10/2020 6:15:00 PM 3.07 37.526 0.126 7.25 2.06 13.23
12/10/2020 6:30:00 PM 3.01 37.418 0.126 7.25 2.04 13.23
12/10/2020 6:45:00 PM 2.96 37.328 0.126 7.25 2.07 13.23
12/10/2020 7:00:00 PM 2.91 37.238 0.126 7.24 2.05 13.23
12/10/2020 7:15:00 PM 2.86 37.148 0.127 7.24 2.18 13.24
12/10/2020 7:30:00 PM 2.81 37.058 0.127 7.23 2.07 13.25
12/10/2020 7:45:00 PM 2.75 36.95 0.127 7.23 2.12 13.26
12/10/2020 8:00:00 PM 2.69 36.842 0.127 7.23 2.08 13.27
12/10/2020 8:15:00 PM 2.64 36.752 0.127 7.23 2.09 13.28
12/10/2020 8:30:00 PM 2.58 36.644 0.127 7.23 2.06 13.3
12/10/2020 8:45:00 PM 2.53 36.554 0.127 7.22 2.1 13.31
12/10/2020 9:00:00 PM 2.48 36.464 0.127 7.23 2.16 13.32
12/10/2020 9:15:00 PM 2.43 36.374 0.127 7.23 2.08 13.33
12/10/2020 9:30:00 PM 2.39 36.302 0.127 7.23 2.1 13.34
12/10/2020 9:45:00 PM 2.34 36.212 0.127 7.22 2.09 13.35
12/10/2020 10:00:00 PM 2.29 36.122 0.127 7.22 2.13 13.37
12/10/2020 10:15:00 PM 2.25 36.05 0.127 7.22 2.35 13.39
12/10/2020 10:30:00 PM 2.21 35.978 0.128 7.22 2.07 13.41
12/10/2020 10:45:00 PM 2.17 35.906 0.128 7.22 2.03 13.42
12/10/2020 11:00:00 PM 2.13 35.834 0.128 7.22 2.06 13.43
12/10/2020 11:15:00 PM 2.1 35.78 0.128 7.21 2.15 13.45
12/10/2020 11:30:00 PM 2.06 35.708 0.128 7.21 2.08 13.45
12/10/2020 11:45:00 PM 2.03 35.654 0.128 7.21 2.1 13.46
12/11/2020 12:00:00 AM 2.01 35.618 0.128 7.21 2.1 13.47
12/11/2020 12:15:00 AM 1.98 35.564 0.128 7.22 2.04 13.48
12/11/2020 12:30:00 AM 1.95 35.51 0.128 7.22 2.1 13.49
12/11/2020 12:45:00 AM 1.93 35.474 0.128 7.22 2.08 13.5
12/11/2020 1:00:00 AM 1.91 35.438 0.128 7.22 2.09 13.5
12/11/2020 1:15:00 AM 1.89 35.402 0.128 7.22 2.04 13.51
12/11/2020 1:30:00 AM 1.87 35.366 0.128 7.22 2.03 13.51
12/11/2020 1:45:00 AM 1.85 35.33 0.128 7.22 2.06 13.52
12/11/2020 2:00:00 AM 1.83 35.294 0.128 7.22 2.11 13.53
12/11/2020 2:15:00 AM 1.82 35.276 0.128 7.22 2.07 13.53
12/11/2020 2:30:00 AM 1.8 35.24 0.128 7.22 2.14 13.54
12/11/2020 2:45:00 AM 1.78 35.204 0.128 7.22 2.09 13.54
12/11/2020 3:00:00 AM 1.77 35.186 0.128 7.22 2.24 13.54
12/11/2020 3:15:00 AM 1.76 35.168 0.128 7.22 2.07 13.55
12/11/2020 3:30:00 AM 1.75 35.15 0.128 7.21 2.12 13.55
12/11/2020 3:45:00 AM 1.74 35.132 0.128 7.21 2.04 13.55
12/11/2020 4:00:00 AM 1.73 35.114 0.128 7.22 2.08 13.55
12/11/2020 4:15:00 AM 1.72 35.096 0.128 7.21 2.06 13.55
12/11/2020 4:30:00 AM 1.71 35.078 0.128 7.21 2.02 13.56
12/11/2020 4:45:00 AM 1.69 35.042 0.128 7.21 2.1 13.56
12/11/2020 5:00:00 AM 1.68 35.024 0.128 7.22 2.06 13.56
12/11/2020 5:15:00 AM 1.68 35.024 0.128 7.22 5.37 13.57
12/11/2020 5:30:00 AM 1.66 34.988 0.128 7.21 8.04 13.56
12/11/2020 5:45:00 AM 1.66 34.988 0.128 7.22 2.05 13.57
12/11/2020 6:00:00 AM 1.65 34.97 0.128 7.22 2.41 13.58
12/11/2020 6:15:00 AM 1.64 34.952 0.128 7.21 2 13.58
12/11/2020 6:30:00 AM 1.64 34.952 0.128 7.21 2.09 13.58
12/11/2020 6:45:00 AM 1.63 34.934 0.128 7.22 1.98 13.59
12/11/2020 7:00:00 AM 1.62 34.916 0.128 7.21 2.06 13.59
12/11/2020 7:15:00 AM 1.61 34.898 0.128 7.22 2.2 13.6
12/11/2020 7:30:00 AM 1.6 34.88 0.128 7.22 2.14 13.61
12/11/2020 7:45:00 AM 1.6 34.88 0.128 7.21 2.04 13.63
12/11/2020 8:00:00 AM 1.6 34.88 0.128 7.23 2.06 13.68
12/11/2020 8:15:00 AM 1.61 34.898 0.128 7.24 2.03 13.74
12/11/2020 8:30:00 AM 1.64 34.952 0.127 7.26 2.05 13.81
12/11/2020 8:45:00 AM 1.68 35.024 0.127 7.27 2.06 13.88
12/11/2020 9:00:00 AM 1.72 35.096 0.127 7.29 2.03 13.93
12/11/2020 9:15:00 AM 1.77 35.186 0.127 7.3 2 13.98
12/11/2020 9:30:00 AM 1.84 35.312 0.127 7.32 2.06 14.02
12/11/2020 9:45:00 AM 1.92 35.456 0.127 7.33 2.07 14.04
12/11/2020 10:00:00 AM 1.99 35.582 0.127 7.35 2.06 14.07
12/11/2020 10:15:00 AM 2.09 35.762 0.127 7.36 2.03 14.08
12/11/2020 10:30:00 AM 2.22 35.996 0.126 7.37 2.13 14.09
12/11/2020 10:45:00 AM 2.34 36.212 0.126 7.37 2.13 14.08
12/11/2020 11:00:00 AM 2.47 36.446 0.126 7.39 2.08 14.06
12/11/2020 11:15:00 AM 2.58 36.644 0.126 7.4 2.07 14.05
12/11/2020 11:30:00 AM 2.66 36.788 0.126 7.4 2.13 14.02
12/11/2020 11:45:00 AM 2.8 37.04 0.126 7.41 2.07 14.01
12/11/2020 12:00:00 PM 2.95 37.31 0.126 7.41 2.01 13.99
12/11/2020 12:15:00 PM 3.13 37.634 0.126 7.43 2.05 13.96
12/11/2020 12:30:00 PM 3.32 37.976 0.126 7.44 2 13.93
12/11/2020 12:45:00 PM 3.52 38.336 0.126 7.45 1.98 13.89
12/11/2020 1:00:00 PM 3.66 38.588 0.126 7.45 2.02 13.85
12/11/2020 1:15:00 PM 3.8 38.84 0.126 7.46 2.05 13.81
12/11/2020 1:30:00 PM 3.91 39.038 0.126 7.46 2.07 13.77
12/11/2020 1:45:00 PM 3.98 39.164 0.125 7.46 1.97 13.74
12/11/2020 2:00:00 PM 4.03 39.254 0.125 7.46 2 13.71
12/11/2020 2:15:00 PM 4.04 39.272 0.125 7.46 1.99 13.69
12/11/2020 2:30:00 PM 4.01 39.218 0.126 7.45 2.01 13.67
12/11/2020 2:45:00 PM 3.99 39.182 0.126 7.45 2.04 13.65
12/11/2020 3:00:00 PM 3.97 39.146 0.126 7.44 2.07 13.63
12/11/2020 3:15:00 PM 3.93 39.074 0.126 7.44 2.04 13.6
12/11/2020 3:30:00 PM 3.87 38.966 0.126 7.43 2.07 13.57
12/11/2020 3:45:00 PM 3.82 38.876 0.126 7.42 2.12 13.52
12/11/2020 4:00:00 PM 3.78 38.804 0.126 7.41 2.03 13.47
12/11/2020 4:15:00 PM 3.75 38.75 0.126 7.38 2.1 13.42
12/11/2020 4:30:00 PM 3.74 38.732 0.127 7.38 2.03 13.36
12/11/2020 4:45:00 PM 3.71 38.678 0.127 7.36 2.03 13.28
12/11/2020 5:00:00 PM 3.68 38.624 0.127 7.34 2 13.21
12/11/2020 5:15:00 PM 3.64 38.552 0.127 7.32 2.04 13.16
12/11/2020 5:30:00 PM 3.6 38.48 0.127 7.3 2.06 13.11
12/11/2020 5:45:00 PM 3.56 38.408 0.128 7.32 2.06 13.06
12/11/2020 6:00:00 PM 3.52 38.336 0.128 7.29 2.07 13.05
12/11/2020 6:15:00 PM 3.49 38.282 0.128 7.27 2.01 13.03
12/11/2020 6:30:00 PM 3.45 38.21 0.128 7.26 2.07 13.02
12/11/2020 6:45:00 PM 3.41 38.138 0.128 7.25 2.14 13
12/11/2020 7:00:00 PM 3.37 38.066 0.128 7.25 2.02 13
12/11/2020 7:15:00 PM 3.33 37.994 0.128 7.25 2.07 13
12/11/2020 7:30:00 PM 3.3 37.94 0.128 7.24 2.08 13
12/11/2020 7:45:00 PM 3.27 37.886 0.129 7.23 2.06 13
12/11/2020 8:00:00 PM 3.25 37.85 0.129 7.24 2.09 13.01
12/11/2020 8:15:00 PM 3.22 37.796 0.129 7.23 2.16 13.01
12/11/2020 8:30:00 PM 3.18 37.724 0.129 7.23 2.18 13.02
12/11/2020 8:45:00 PM 3.14 37.652 0.129 7.23 2.13 13.02
12/11/2020 9:00:00 PM 3.11 37.598 0.129 7.22 2.05 13.03
12/11/2020 9:15:00 PM 3.07 37.526 0.129 7.21 2.04 13.03
12/11/2020 9:30:00 PM 3.03 37.454 0.129 7.21 2.05 13.05
12/11/2020 9:45:00 PM 2.99 37.382 0.129 7.21 2.08 13.06
12/11/2020 10:00:00 PM 2.94 37.292 0.129 7.21 2.01 13.07
12/11/2020 10:15:00 PM 2.9 37.22 0.13 7.21 3.16 13.08
12/11/2020 10:30:00 PM 2.86 37.148 0.13 7.21 2.09 13.1
12/11/2020 10:45:00 PM 2.83 37.094 0.13 7.21 2.05 13.11
12/11/2020 11:00:00 PM 2.79 37.022 0.13 7.2 2.06 13.11
12/11/2020 11:15:00 PM 2.77 36.986 0.13 7.21 2.02 13.12
12/11/2020 11:30:00 PM 2.74 36.932 0.13 7.21 2.04 13.13
12/11/2020 11:45:00 PM 2.73 36.914 0.13 7.2 2.06 13.13
12/12/2020 12:00:00 AM 2.72 36.896 0.13 7.2 2.04 13.14
12/12/2020 12:15:00 AM 2.7 36.86 0.13 7.21 2.05 13.15
12/12/2020 12:30:00 AM 2.68 36.824 0.13 7.21 2.17 13.16
12/12/2020 12:45:00 AM 2.66 36.788 0.13 7.21 2.4 13.16
12/12/2020 1:00:00 AM 2.65 36.77 0.13 7.21 2.12 13.16
12/12/2020 1:15:00 AM 2.64 36.752 0.13 7.21 2 13.16
12/12/2020 1:30:00 AM 2.64 36.752 0.13 7.2 2.01 13.17
12/12/2020 1:45:00 AM 2.63 36.734 0.13 7.2 2.05 13.17
12/12/2020 2:00:00 AM 2.63 36.734 0.13 7.21 2.05 13.17
12/12/2020 2:15:00 AM 2.63 36.734 0.13 7.2 2 13.18
12/12/2020 2:30:00 AM 2.63 36.734 0.13 7.21 2.1 13.18
12/12/2020 2:45:00 AM 2.62 36.716 0.13 7.21 2.01 13.18
12/12/2020 3:00:00 AM 2.59 36.662 0.13 7.21 2.02 13.19
12/12/2020 3:15:00 AM 2.58 36.644 0.13 7.21 2.06 13.2
12/12/2020 3:30:00 AM 2.57 36.626 0.13 7.2 2.04 13.2
12/12/2020 3:45:00 AM 2.56 36.608 0.13 7.2 2.08 13.21
12/12/2020 4:00:00 AM 2.54 36.572 0.13 7.2 2.07 13.21
12/12/2020 4:15:00 AM 2.53 36.554 0.13 7.2 2.07 13.21
12/12/2020 4:30:00 AM 2.51 36.518 0.13 7.2 2.04 13.21
12/12/2020 4:45:00 AM 2.5 36.5 0.13 7.2 2 13.22
12/12/2020 5:00:00 AM 2.48 36.464 0.13 7.2 2.05 13.23
12/12/2020 5:15:00 AM 2.48 36.464 0.13 7.2 2.07 13.23
12/12/2020 5:30:00 AM 2.49 36.482 0.13 7.2 2.03 13.22
12/12/2020 5:45:00 AM 2.5 36.5 0.13 7.2 2.08 13.22
12/12/2020 6:00:00 AM 2.53 36.554 0.13 7.21 2.03 13.22
12/12/2020 6:15:00 AM 2.55 36.59 0.13 7.2 2.02 13.21
12/12/2020 6:30:00 AM 2.56 36.608 0.13 7.2 2.22 13.2
12/12/2020 6:45:00 AM 2.58 36.644 0.13 7.21 2.04 13.2
12/12/2020 7:00:00 AM 2.59 36.662 0.13 7.21 2.06 13.2
12/12/2020 7:15:00 AM 2.59 36.662 0.13 7.21 2.03 13.2
12/12/2020 7:30:00 AM 2.6 36.68 0.13 7.21 2.05 13.2
12/12/2020 7:45:00 AM 2.61 36.698 0.13 7.21 2.6 13.2
12/12/2020 8:00:00 AM 2.63 36.734 0.13 7.21 2.02 13.22
12/12/2020 8:15:00 AM 2.65 36.77 0.13 7.22 3.33 13.26
12/12/2020 8:30:00 AM 2.67 36.806 0.13 7.23 2.01 13.33
12/12/2020 8:45:00 AM 2.69 36.842 0.129 7.25 2.02 13.4
12/12/2020 9:00:00 AM 2.74 36.932 0.129 7.26 2.14 13.48
12/12/2020 9:15:00 AM 2.79 37.022 0.129 7.28 2.02 13.54
12/12/2020 9:30:00 AM 2.84 37.112 0.129 7.3 2.05 13.58
12/12/2020 9:45:00 AM 2.9 37.22 0.129 7.3 2.01 13.64
12/12/2020 10:00:00 AM 2.98 37.364 0.129 7.33 2.04 13.67
12/12/2020 10:15:00 AM 3.03 37.454 0.129 7.34 2.02 13.69
12/12/2020 10:30:00 AM 3.07 37.526 0.129 7.35 1.97 13.7
12/12/2020 10:45:00 AM 3.14 37.652 0.129 7.36 2 13.71
12/12/2020 11:00:00 AM 3.23 37.814 0.129 7.37 2.02 13.73
12/12/2020 11:15:00 AM 3.33 37.994 0.128 7.38 1.95 13.73
12/12/2020 11:30:00 AM 3.44 38.192 0.128 7.4 1.98 13.73
12/12/2020 11:45:00 AM 3.56 38.408 0.128 7.41 2 13.73
12/12/2020 12:00:00 PM 3.69 38.642 0.128 7.43 2.04 13.71
12/12/2020 12:15:00 PM 3.83 38.894 0.128 7.44 2.07 13.69
12/12/2020 12:30:00 PM 3.99 39.182 0.128 7.44 2 13.66
12/12/2020 12:45:00 PM 4.17 39.506 0.128 7.44 1.98 13.62
12/12/2020 1:00:00 PM 4.32 39.776 0.128 7.45 2.12 13.58
12/12/2020 1:15:00 PM 4.45 40.01 0.128 7.46 1.97 13.55
12/12/2020 1:30:00 PM 4.55 40.19 0.128 7.46 1.95 13.53
12/12/2020 1:45:00 PM 4.66 40.388 0.127 7.47 1.97 13.51
12/12/2020 2:00:00 PM 4.72 40.496 0.127 7.48 1.95 13.48
12/12/2020 2:15:00 PM 4.74 40.532 0.127 7.47 1.99 13.46
12/12/2020 2:30:00 PM 4.73 40.514 0.127 7.47 2 13.44
12/12/2020 2:45:00 PM 4.72 40.496 0.127 7.47 1.98 13.41
12/12/2020 3:00:00 PM 4.68 40.424 0.127 7.46 2.05 13.38
12/12/2020 3:15:00 PM 4.66 40.388 0.127 7.46 2.04 13.36
12/12/2020 3:30:00 PM 4.67 40.406 0.127 7.46 1.96 13.33
12/12/2020 3:45:00 PM 4.67 40.406 0.128 7.45 2.04 13.28
12/12/2020 4:00:00 PM 4.67 40.406 0.128 7.44 2.01 13.22
12/12/2020 4:15:00 PM 4.67 40.406 0.128 7.42 2.03 13.15
12/12/2020 4:30:00 PM 4.65 40.37 0.128 7.4 2.01 13.06
12/12/2020 4:45:00 PM 4.64 40.352 0.128 7.38 2 12.97
12/12/2020 5:00:00 PM 4.61 40.298 0.129 7.35 1.98 12.9
12/12/2020 5:15:00 PM 4.58 40.244 0.129 7.34 1.95 12.83
12/12/2020 5:30:00 PM 4.55 40.19 0.129 7.32 2.05 12.78
12/12/2020 5:45:00 PM 4.53 40.154 0.129 7.31 2.03 12.74
12/12/2020 6:00:00 PM 4.51 40.118 0.129 7.29 2.04 12.69
12/12/2020 6:15:00 PM 4.5 40.1 0.13 7.28 2 12.67
12/12/2020 6:30:00 PM 4.49 40.082 0.13 7.27 2.05 12.64
12/12/2020 6:45:00 PM 4.48 40.064 0.131 7.27 2.08 12.63
12/12/2020 7:00:00 PM 4.47 40.046 0.131 7.26 2.05 12.61
12/12/2020 7:15:00 PM 4.46 40.028 0.131 7.24 2.04 12.59
12/12/2020 7:30:00 PM 4.45 40.01 0.131 7.25 2.08 12.58
12/12/2020 7:45:00 PM 4.45 40.01 0.131 7.24 2.11 12.57
12/12/2020 8:00:00 PM 4.45 40.01 0.132 7.24 2.05 12.57
12/12/2020 8:15:00 PM 4.45 40.01 0.132 7.24 2.01 12.56
12/12/2020 8:30:00 PM 4.45 40.01 0.132 7.23 2.16 12.55
12/12/2020 8:45:00 PM 4.45 40.01 0.132 7.23 2.08 12.55
12/12/2020 9:00:00 PM 4.44 39.992 0.132 7.24 2.03 12.54
12/12/2020 9:15:00 PM 4.42 39.956 0.132 7.23 2 12.54
12/12/2020 9:30:00 PM 4.39 39.902 0.133 7.23 2.06 12.54
12/12/2020 9:45:00 PM 4.36 39.848 0.133 7.22 2.02 12.54
12/12/2020 10:00:00 PM 4.34 39.812 0.133 7.22 2.04 12.55
12/12/2020 10:15:00 PM 4.3 39.74 0.133 7.21 2.03 12.55
12/12/2020 10:30:00 PM 4.26 39.668 0.134 7.21 2.02 12.56
12/12/2020 10:45:00 PM 4.22 39.596 0.134 7.2 2 12.57
12/12/2020 11:00:00 PM 4.19 39.542 0.134 7.2 1.97 12.58
12/12/2020 11:15:00 PM 4.16 39.488 0.134 7.2 2.91 12.59
12/12/2020 11:30:00 PM 4.14 39.452 0.134 7.19 2.05 12.59
12/12/2020 11:45:00 PM 4.12 39.416 0.134 7.2 2.03 12.6
12/13/2020 12:00:00 AM 4.11 39.398 0.134 7.2 2.02 12.6
12/13/2020 12:15:00 AM 4.1 39.38 0.134 7.19 2.04 12.61
12/13/2020 12:30:00 AM 4.1 39.38 0.135 7.2 2.03 12.6
12/13/2020 12:45:00 AM 4.08 39.344 0.135 7.2 2.08 12.61
12/13/2020 1:00:00 AM 4.04 39.272 0.135 7.19 2.14 12.61
12/13/2020 1:15:00 AM 4.02 39.236 0.135 7.19 2.05 12.62
12/13/2020 1:30:00 AM 4.02 39.236 0.135 7.19 2.12 12.62
12/13/2020 1:45:00 AM 4.02 39.236 0.135 7.19 2.23 12.62
12/13/2020 2:00:00 AM 4.03 39.254 0.135 7.19 2.04 12.62
12/13/2020 2:15:00 AM 4.03 39.254 0.135 7.19 1.97 12.62
12/13/2020 2:30:00 AM 4.03 39.254 0.135 7.19 1.95 12.62
12/13/2020 2:45:00 AM 4.02 39.236 0.135 7.19 1.99 12.62
12/13/2020 3:00:00 AM 3.99 39.182 0.136 7.19 1.96 12.62
12/13/2020 3:15:00 AM 3.97 39.146 0.136 7.19 2.06 12.63
12/13/2020 3:30:00 AM 3.96 39.128 0.136 7.19 2 12.63
12/13/2020 3:45:00 AM 3.95 39.11 0.136 7.19 3.53 12.63
12/13/2020 4:00:00 AM 3.94 39.092 0.136 7.19 1.94 12.64
12/13/2020 4:30:00 AM 3.92 39.056 0.136 7.18 2.08 12.65
12/13/2020 4:45:00 AM 3.92 39.056 0.136 7.19 1.98 12.65
12/13/2020 5:00:00 AM 3.92 39.056 0.136 7.19 2.08 12.65
12/13/2020 5:15:00 AM 3.91 39.038 0.136 7.19 1.99 12.66
12/13/2020 5:30:00 AM 3.91 39.038 0.136 7.18 2.06 12.65
12/13/2020 5:45:00 AM 3.89 39.002 0.136 7.19 2.04 12.66
12/13/2020 6:00:00 AM 3.85 38.93 0.136 7.19 1.98 12.67
12/13/2020 6:15:00 AM 3.81 38.858 0.136 7.19 2.08 12.68
12/13/2020 6:30:00 AM 3.77 38.786 0.136 7.18 2.18 12.69
12/13/2020 6:45:00 AM 3.74 38.732 0.136 7.19 2.02 12.7
12/13/2020 7:00:00 AM 3.74 38.732 0.136 7.19 2.03 12.71
12/13/2020 7:15:00 AM 3.75 38.75 0.136 7.19 2.01 12.72
12/13/2020 7:30:00 AM 3.77 38.786 0.136 7.2 2.15 12.72
12/13/2020 7:45:00 AM 3.8 38.84 0.136 7.21 2.06 12.73
12/13/2020 8:00:00 AM 3.82 38.876 0.137 7.21 2.05 12.77
12/13/2020 8:15:00 AM 3.84 38.912 0.137 7.22 2.01 12.79
12/13/2020 8:30:00 AM 3.85 38.93 0.137 7.23 1.96 12.82
12/13/2020 8:45:00 AM 3.87 38.966 0.137 7.24 2.04 12.86
12/13/2020 9:00:00 AM 3.89 39.002 0.137 7.25 2.03 12.9
12/13/2020 9:15:00 AM 3.9 39.02 0.137 7.25 2 12.93
12/13/2020 9:30:00 AM 3.91 39.038 0.137 7.26 1.97 12.95
12/13/2020 9:45:00 AM 3.93 39.074 0.137 7.27 2.02 12.99
12/13/2020 10:00:00 AM 3.96 39.128 0.137 7.28 1.98 13.06
12/13/2020 10:15:00 AM 4.03 39.254 0.136 7.3 2.01 13.14
12/13/2020 10:30:00 AM 4.1 39.38 0.136 7.32 2.03 13.22
12/13/2020 10:45:00 AM 4.14 39.452 0.136 7.34 1.97 13.27
12/13/2020 11:00:00 AM 4.17 39.506 0.136 7.35 1.99 13.3
12/13/2020 11:15:00 AM 4.23 39.614 0.136 7.36 1.95 13.34
12/13/2020 11:30:00 AM 4.3 39.74 0.136 7.38 1.96 13.37
12/13/2020 11:45:00 AM 4.33 39.794 0.136 7.39 2.03 13.38
12/13/2020 12:00:00 PM 4.37 39.866 0.136 7.4 1.96 13.39
12/13/2020 12:15:00 PM 4.4 39.92 0.137 7.41 2.1 13.4
12/13/2020 12:30:00 PM 4.43 39.974 0.137 7.41 2.02 13.39
12/13/2020 12:45:00 PM 4.46 40.028 0.137 7.42 1.97 13.38
12/13/2020 1:00:00 PM 4.47 40.046 0.137 7.42 2.01 13.37
12/13/2020 1:15:00 PM 4.48 40.064 0.137 7.42 1.95 13.34
12/13/2020 1:30:00 PM 4.54 40.172 0.137 7.43 1.98 13.36
12/13/2020 1:45:00 PM 4.66 40.388 0.137 7.45 1.92 13.38
12/13/2020 2:00:00 PM 4.73 40.514 0.138 7.45 1.97 13.37
12/13/2020 2:15:00 PM 4.74 40.532 0.138 7.46 2.06 13.35
12/13/2020 2:30:00 PM 4.75 40.55 0.138 7.46 1.98 13.35
12/13/2020 2:45:00 PM 4.76 40.568 0.138 7.45 2.01 13.34
12/13/2020 3:00:00 PM 4.77 40.586 0.138 7.46 1.95 13.34
12/13/2020 3:15:00 PM 4.77 40.586 0.138 7.46 2 13.29
12/13/2020 3:30:00 PM 4.77 40.586 0.139 7.45 1.98 13.26
12/13/2020 3:45:00 PM 4.76 40.568 0.139 7.45 2.03 13.26
12/13/2020 4:00:00 PM 4.73 40.514 0.139 7.45 2 13.23
12/13/2020 4:15:00 PM 4.71 40.478 0.14 7.43 2.01 13.17
12/13/2020 4:30:00 PM 4.68 40.424 0.14 7.41 2.07 13.08
12/13/2020 4:45:00 PM 4.65 40.37 0.14 7.39 2.04 13
12/13/2020 5:00:00 PM 4.61 40.298 0.141 7.37 1.98 12.92
12/13/2020 5:15:00 PM 4.58 40.244 0.141 7.34 2.01 12.86
12/13/2020 5:30:00 PM 4.56 40.208 0.141 7.33 2.03 12.81
12/13/2020 5:45:00 PM 4.53 40.154 0.141 7.31 1.99 12.77
12/13/2020 6:00:00 PM 4.51 40.118 0.141 7.3 2.04 12.74
12/13/2020 6:15:00 PM 4.5 40.1 0.141 7.29 2.02 12.71
12/13/2020 6:30:00 PM 4.48 40.064 0.141 7.28 2.05 12.69
12/13/2020 6:45:00 PM 4.46 40.028 0.141 7.27 2.11 12.68
12/13/2020 7:00:00 PM 4.45 40.01 0.141 7.27 2.01 12.67
12/13/2020 7:15:00 PM 4.43 39.974 0.141 7.26 2.06 12.66
12/13/2020 7:30:00 PM 4.41 39.938 0.14 7.26 2.08 12.66
12/13/2020 7:45:00 PM 4.39 39.902 0.14 7.26 2.1 12.65
12/13/2020 8:00:00 PM 4.37 39.866 0.14 7.25 1.98 12.65
12/13/2020 8:15:00 PM 4.35 39.83 0.14 7.25 2 12.65
12/13/2020 8:30:00 PM 4.33 39.794 0.14 7.24 1.99 12.65
12/13/2020 8:45:00 PM 4.3 39.74 0.14 7.23 2.04 12.65
12/13/2020 9:00:00 PM 4.27 39.686 0.14 7.24 2.08 12.66
12/13/2020 9:15:00 PM 4.23 39.614 0.139 7.24 2.09 12.66
12/13/2020 9:30:00 PM 4.19 39.542 0.139 7.23 2.07 12.67
12/13/2020 9:45:00 PM 4.14 39.452 0.139 7.23 2.06 12.67
12/13/2020 10:00:00 PM 4.1 39.38 0.139 7.23 2.07 12.68
12/13/2020 10:15:00 PM 4.07 39.326 0.139 7.23 2.02 12.69
12/13/2020 10:30:00 PM 4.05 39.29 0.139 7.22 2.02 12.69
12/13/2020 10:45:00 PM 4.03 39.254 0.139 7.22 2.02 12.7
12/13/2020 11:00:00 PM 4.01 39.218 0.139 7.22 2.05 12.7
12/13/2020 11:15:00 PM 4 39.2 0.139 7.22 2 12.71
12/13/2020 11:30:00 PM 3.97 39.146 0.139 7.22 2.06 12.72
12/13/2020 11:45:00 PM 3.95 39.11 0.139 7.22 2.09 12.72
12/14/2020 12:00:00 AM 3.93 39.074 0.139 7.22 2.05 12.72
12/14/2020 12:15:00 AM 3.91 39.038 0.139 7.22 2.06 12.73
12/14/2020 12:30:00 AM 3.89 39.002 0.139 7.22 2.12 12.73
12/14/2020 12:45:00 AM 3.88 38.984 0.138 7.22 2.14 12.74
12/14/2020 1:00:00 AM 3.86 38.948 0.138 7.22 2.04 12.74
12/14/2020 1:15:00 AM 3.84 38.912 0.138 7.22 2.05 12.75
12/14/2020 1:30:00 AM 3.83 38.894 0.138 7.22 2.04 12.75
12/14/2020 1:45:00 AM 3.82 38.876 0.138 7.22 2.03 12.76
12/14/2020 2:00:00 AM 3.8 38.84 0.138 7.22 2.01 12.76
12/14/2020 2:15:00 AM 3.79 38.822 0.138 7.22 2 12.76
12/14/2020 2:30:00 AM 3.78 38.804 0.138 7.22 2.06 12.77
12/14/2020 2:45:00 AM 3.77 38.786 0.137 7.22 2.02 12.76
12/14/2020 3:00:00 AM 3.76 38.768 0.137 7.22 1.98 12.76
12/14/2020 3:15:00 AM 3.75 38.75 0.137 7.22 1.99 12.76
12/14/2020 3:30:00 AM 3.74 38.732 0.137 7.22 2.03 12.77
12/14/2020 3:45:00 AM 3.73 38.714 0.137 7.22 1.98 12.77
12/14/2020 4:00:00 AM 3.72 38.696 0.137 7.22 1.99 12.78
12/14/2020 4:15:00 AM 3.72 38.696 0.137 7.22 2.09 12.78
12/14/2020 4:30:00 AM 3.72 38.696 0.137 7.22 2.04 12.78
12/14/2020 4:45:00 AM 3.71 38.678 0.137 7.21 1.97 12.78
12/14/2020 5:00:00 AM 3.7 38.66 0.136 7.21 1.98 12.78
12/14/2020 5:15:00 AM 3.7 38.66 0.136 7.22 2.2 12.78
12/14/2020 5:30:00 AM 3.69 38.642 0.136 7.22 2 12.78
12/14/2020 5:45:00 AM 3.68 38.624 0.136 7.22 1.99 12.79
12/14/2020 6:00:00 AM 3.67 38.606 0.136 7.22 2.03 12.78
12/14/2020 6:15:00 AM 3.66 38.588 0.136 7.22 2 12.79
12/14/2020 6:30:00 AM 3.65 38.57 0.136 7.22 2.07 12.79
12/14/2020 6:45:00 AM 3.63 38.534 0.136 7.22 2.05 12.79
12/14/2020 7:00:00 AM 3.62 38.516 0.136 7.22 2.12 12.78
12/14/2020 7:15:00 AM 3.6 38.48 0.135 7.22 2.05 12.79
12/14/2020 7:30:00 AM 3.58 38.444 0.135 7.21 2.03 12.79
12/14/2020 7:45:00 AM 3.56 38.408 0.135 7.21 2.11 12.81
12/14/2020 8:00:00 AM 3.55 38.39 0.135 7.21 2.08 12.81
12/14/2020 8:15:00 AM 3.53 38.354 0.135 7.22 2.15 12.84
12/14/2020 8:30:00 AM 3.51 38.318 0.136 7.26 2.05 12.87
12/14/2020 8:45:00 AM 3.51 38.318 0.135 7.24 2.02 12.9
12/14/2020 9:00:00 AM 3.5 38.3 0.135 7.25 2.28 12.95
12/14/2020 9:15:00 AM 3.49 38.282 0.135 7.26 2.04 13.01
12/14/2020 9:30:00 AM 3.5 38.3 0.135 7.27 3.05 13.09
12/14/2020 9:45:00 AM 3.52 38.336 0.134 7.28 10.81 13.18
12/14/2020 10:00:00 AM 3.54 38.372 0.134 7.31 2 13.25
12/14/2020 10:15:00 AM 3.57 38.426 0.134 7.33 1.99 13.29
12/14/2020 10:30:00 AM 3.6 38.48 0.134 7.34 2.07 13.34
12/14/2020 10:45:00 AM 3.65 38.57 0.134 7.35 1.97 13.4
12/14/2020 11:00:00 AM 3.69 38.642 0.134 7.37 1.98 13.45
12/14/2020 11:15:00 AM 3.72 38.696 0.134 7.38 1.98 13.47
12/14/2020 11:30:00 AM 3.77 38.786 0.134 7.4 1.98 13.5
12/14/2020 11:45:00 AM 3.81 38.858 0.134 7.41 2 13.51
12/14/2020 12:00:00 PM 3.83 38.894 0.134 7.42 2.01 13.52
12/14/2020 12:15:00 PM 3.83 38.894 0.134 7.42 1.99 13.5
12/14/2020 12:30:00 PM 3.84 38.912 0.134 7.42 1.96 13.48
12/14/2020 12:45:00 PM 3.85 38.93 0.134 7.42 1.97 13.47
12/14/2020 1:00:00 PM 3.87 38.966 0.134 7.41 1.96 13.48
12/14/2020 1:15:00 PM 3.91 39.038 0.134 7.44 1.99 13.49
12/14/2020 1:30:00 PM 3.95 39.11 0.134 7.44 2 13.5
12/14/2020 1:45:00 PM 4.01 39.218 0.133 7.45 2 13.51
12/14/2020 2:00:00 PM 4.1 39.38 0.133 7.47 1.97 13.52
12/14/2020 2:15:00 PM 4.12 39.416 0.133 7.47 2.74 13.51
12/14/2020 2:30:00 PM 4.11 39.398 0.133 7.47 1.98 13.49
12/14/2020 2:45:00 PM 4.1 39.38 0.133 7.47 1.96 13.46
12/14/2020 3:00:00 PM 4.1 39.38 0.133 7.46 1.97 13.43
12/14/2020 3:15:00 PM 4.12 39.416 0.133 7.46 1.95 13.43
12/14/2020 3:30:00 PM 4.14 39.452 0.134 7.47 1.99 13.41
12/14/2020 3:45:00 PM 4.14 39.452 0.134 7.46 1.96 13.39
12/14/2020 4:00:00 PM 4.13 39.434 0.134 7.45 1.96 13.31
12/14/2020 4:15:00 PM 4.11 39.398 0.134 7.43 1.98 13.24
12/14/2020 4:30:00 PM 4.09 39.362 0.134 7.41 2.03 13.16
12/14/2020 4:45:00 PM 4.08 39.344 0.134 7.39 2.06 13.08
12/14/2020 5:00:00 PM 4.06 39.308 0.135 7.37 2.01 13.01
12/14/2020 5:15:00 PM 4.05 39.29 0.135 7.35 2.04 12.95
12/14/2020 5:30:00 PM 4.03 39.254 0.135 7.34 1.99 12.89
12/14/2020 5:45:00 PM 4.02 39.236 0.135 7.33 1.98 12.85
12/14/2020 6:00:00 PM 3.99 39.182 0.135 7.31 1.96 12.83
12/14/2020 6:15:00 PM 3.96 39.128 0.135 7.31 1.98 12.81
12/14/2020 6:30:00 PM 3.93 39.074 0.135 7.3 2.06 12.79
12/14/2020 6:45:00 PM 3.91 39.038 0.136 7.3 2.03 12.78
12/14/2020 7:00:00 PM 3.9 39.02 0.136 7.29 1.96 12.78
12/14/2020 7:15:00 PM 3.87 38.966 0.136 7.29 2.03 12.77
12/14/2020 7:30:00 PM 3.84 38.912 0.136 7.28 1.98 12.76
12/14/2020 7:45:00 PM 3.81 38.858 0.136 7.26 2.03 12.76
12/14/2020 8:00:00 PM 3.78 38.804 0.136 7.27 1.98 12.77
12/14/2020 8:15:00 PM 3.76 38.768 0.136 7.27 2.26 12.77
12/14/2020 8:30:00 PM 3.73 38.714 0.136 7.27 1.97 12.78
12/14/2020 8:45:00 PM 3.69 38.642 0.136 7.26 2.03 12.78
12/14/2020 9:00:00 PM 3.64 38.552 0.137 7.26 1.96 12.79
12/14/2020 9:15:00 PM 3.55 38.39 0.137 7.26 2.03 12.81
12/14/2020 9:30:00 PM 3.47 38.246 0.137 7.25 2.05 12.83
12/14/2020 9:45:00 PM 3.4 38.12 0.137 7.24 1.99 12.85
12/14/2020 10:00:00 PM 3.33 37.994 0.137 7.25 2.01 12.87
12/14/2020 10:15:00 PM 3.28 37.904 0.137 7.24 1.99 12.89
12/14/2020 10:30:00 PM 3.23 37.814 0.137 7.25 2.14 12.9
12/14/2020 10:45:00 PM 3.18 37.724 0.137 7.24 2.03 12.92
12/14/2020 11:00:00 PM 3.12 37.616 0.137 7.24 2.01 12.94
12/14/2020 11:15:00 PM 3.08 37.544 0.137 7.25 1.98 12.96
12/14/2020 11:30:00 PM 3.04 37.472 0.137 7.24 2 12.98
12/14/2020 11:45:00 PM 3.01 37.418 0.137 7.25 2.04 13
12/15/2020 12:00:00 AM 2.97 37.346 0.137 7.24 2.07 13.01
12/15/2020 12:15:00 AM 2.93 37.274 0.137 7.24 2.09 13.03
12/15/2020 12:30:00 AM 2.89 37.202 0.137 7.24 2.08 13.04
12/15/2020 12:45:00 AM 2.85 37.13 0.137 7.24 2.09 13.06
12/15/2020 1:00:00 AM 2.8 37.04 0.137 7.24 2.11 13.08
12/15/2020 1:15:00 AM 2.76 36.968 0.137 7.24 1.98 13.1
12/15/2020 1:30:00 AM 2.72 36.896 0.137 7.24 2.06 13.12
12/15/2020 1:45:00 AM 2.7 36.86 0.137 7.24 1.99 13.12
12/15/2020 2:00:00 AM 2.68 36.824 0.137 7.24 2.12 13.14
12/15/2020 2:15:00 AM 2.65 36.77 0.138 7.24 2.06 13.15
12/15/2020 2:30:00 AM 2.61 36.698 0.138 7.24 2.09 13.16
12/15/2020 2:45:00 AM 2.58 36.644 0.138 7.24 1.99 13.17
12/15/2020 3:00:00 AM 2.55 36.59 0.138 7.24 2.22 13.2
12/15/2020 3:15:00 AM 2.52 36.536 0.138 7.24 2 13.21
12/15/2020 3:30:00 AM 2.5 36.5 0.138 7.24 2.03 13.22
12/15/2020 3:45:00 AM 2.49 36.482 0.138 7.24 2.24 13.22
12/15/2020 4:00:00 AM 2.51 36.518 0.138 7.24 2.05 13.23
12/15/2020 4:15:00 AM 2.51 36.518 0.137 7.24 2.11 13.24
12/15/2020 4:30:00 AM 2.51 36.518 0.137 7.25 2.11 13.24
12/15/2020 4:45:00 AM 2.5 36.5 0.137 7.25 2.05 13.25
12/15/2020 5:00:00 AM 2.5 36.5 0.137 7.25 2.1 13.25
12/15/2020 5:15:00 AM 2.5 36.5 0.137 7.25 2.11 13.26
12/15/2020 5:30:00 AM 2.5 36.5 0.137 7.25 2.03 13.26
12/15/2020 5:45:00 AM 2.51 36.518 0.137 7.25 2.03 13.26
12/15/2020 6:00:00 AM 2.51 36.518 0.137 7.25 2.09 13.26
12/15/2020 6:15:00 AM 2.49 36.482 0.137 7.25 2.07 13.26
12/15/2020 6:30:00 AM 2.48 36.464 0.137 7.25 2.11 13.27
12/15/2020 6:45:00 AM 2.47 36.446 0.137 7.25 2.08 13.28
12/15/2020 7:00:00 AM 2.45 36.41 0.137 7.24 2 13.28
12/15/2020 7:15:00 AM 2.43 36.374 0.137 7.24 2.05 13.29
12/15/2020 7:30:00 AM 2.42 36.356 0.137 7.24 2.01 13.3
12/15/2020 7:45:00 AM 2.42 36.356 0.137 7.25 2.08 13.32
12/15/2020 8:00:00 AM 2.42 36.356 0.137 7.26 2.07 13.37
12/15/2020 8:15:00 AM 2.44 36.392 0.137 7.27 2.04 13.43
12/15/2020 8:30:00 AM 2.47 36.446 0.137 7.29 2 13.51
12/15/2020 8:45:00 AM 2.51 36.518 0.137 7.3 1.99 13.58
12/15/2020 9:00:00 AM 2.54 36.572 0.137 7.32 1.99 13.66
12/15/2020 9:15:00 AM 2.58 36.644 0.137 7.34 2.03 13.73
12/15/2020 9:30:00 AM 2.61 36.698 0.137 7.35 2.02 13.78
12/15/2020 9:45:00 AM 2.63 36.734 0.137 7.37 2.04 13.82
12/15/2020 10:00:00 AM 2.67 36.806 0.136 7.38 2.02 13.86
12/15/2020 10:15:00 AM 2.71 36.878 0.136 7.4 2.02 13.89
12/15/2020 10:30:00 AM 2.76 36.968 0.136 7.4 1.98 13.91
12/15/2020 10:45:00 AM 2.81 37.058 0.136 7.42 2.03 13.92
12/15/2020 11:00:00 AM 2.85 37.13 0.136 7.41 1.94 13.93
12/15/2020 11:15:00 AM 2.94 37.292 0.136 7.42 1.99 13.94
12/15/2020 11:30:00 AM 3.04 37.472 0.136 7.44 2 13.96
12/15/2020 11:45:00 AM 3.14 37.652 0.136 7.45 1.98 13.95
12/15/2020 12:00:00 PM 3.23 37.814 0.136 7.46 1.93 13.94
12/15/2020 12:15:00 PM 3.33 37.994 0.136 7.47 2.01 13.93
12/15/2020 12:30:00 PM 3.42 38.156 0.136 7.47 1.96 13.92
12/15/2020 12:45:00 PM 3.53 38.354 0.136 7.48 2.04 13.9
12/15/2020 1:00:00 PM 3.65 38.57 0.135 7.48 1.94 13.88
12/15/2020 1:15:00 PM 3.79 38.822 0.135 7.49 1.94 13.86
12/15/2020 1:30:00 PM 3.87 38.966 0.135 7.5 1.89 13.83
12/15/2020 1:45:00 PM 3.91 39.038 0.135 7.49 1.95 13.82
12/15/2020 2:00:00 PM 3.92 39.056 0.135 7.5 1.97 13.8
12/15/2020 2:15:00 PM 3.92 39.056 0.135 7.49 1.94 13.78
12/15/2020 2:30:00 PM 3.86 38.948 0.135 7.49 1.91 13.77
12/15/2020 2:45:00 PM 3.75 38.75 0.135 7.48 1.93 13.78
12/15/2020 3:00:00 PM 3.66 38.588 0.135 7.48 1.91 13.78
12/15/2020 3:15:00 PM 3.58 38.444 0.135 7.47 1.97 13.77
12/15/2020 3:30:00 PM 3.51 38.318 0.135 7.46 1.91 13.77
12/15/2020 3:45:00 PM 3.45 38.21 0.135 7.46 1.92 13.76
12/15/2020 4:00:00 PM 3.39 38.102 0.135 7.45 1.95 13.73
12/15/2020 4:15:00 PM 3.33 37.994 0.135 7.44 1.98 13.68
12/15/2020 4:30:00 PM 3.28 37.904 0.136 7.41 2.02 13.63
12/15/2020 4:45:00 PM 3.22 37.796 0.136 7.4 1.95 13.55
12/15/2020 5:00:00 PM 3.16 37.688 0.136 7.38 1.96 13.49
12/15/2020 5:15:00 PM 3.11 37.598 0.136 7.36 1.97 13.42
12/15/2020 5:30:00 PM 3.06 37.508 0.136 7.34 2.09 13.38
12/15/2020 5:45:00 PM 3.01 37.418 0.136 7.33 1.92 13.35
12/15/2020 6:00:00 PM 2.96 37.328 0.137 7.32 1.99 13.32
12/15/2020 6:15:00 PM 2.92 37.256 0.137 7.31 2.06 13.3
12/15/2020 6:30:00 PM 2.88 37.184 0.137 7.3 2 13.29
12/15/2020 6:45:00 PM 2.84 37.112 0.137 7.3 2.01 13.29
12/15/2020 7:00:00 PM 2.79 37.022 0.137 7.28 1.99 13.29
12/15/2020 7:15:00 PM 2.75 36.95 0.137 7.29 1.98 13.28
12/15/2020 7:30:00 PM 2.7 36.86 0.137 7.28 2.07 13.29
12/15/2020 7:45:00 PM 2.66 36.788 0.137 7.27 1.95 13.29
12/15/2020 8:00:00 PM 2.62 36.716 0.137 7.28 2.02 13.3
12/15/2020 8:15:00 PM 2.58 36.644 0.138 7.27 2.06 13.3
12/15/2020 8:30:00 PM 2.54 36.572 0.138 7.26 2.01 13.3
12/15/2020 8:45:00 PM 2.5 36.5 0.138 7.27 2.02 13.32
12/15/2020 9:00:00 PM 2.47 36.446 0.138 7.27 1.99 13.32
12/15/2020 9:15:00 PM 2.43 36.374 0.138 7.27 1.99 13.33
12/15/2020 9:30:00 PM 2.39 36.302 0.138 7.27 2.03 13.34
12/15/2020 9:45:00 PM 2.35 36.23 0.138 7.26 2 13.34
12/15/2020 10:00:00 PM 2.32 36.176 0.138 7.26 2.04 13.36
12/15/2020 10:15:00 PM 2.28 36.104 0.138 7.26 2.01 13.37
12/15/2020 10:30:00 PM 2.25 36.05 0.139 7.26 2.01 13.37
12/15/2020 10:45:00 PM 2.23 36.014 0.139 7.25 2.08 13.38
12/15/2020 11:00:00 PM 2.21 35.978 0.139 7.26 2.09 13.39
12/15/2020 11:15:00 PM 2.2 35.96 0.139 7.25 2.02 13.4
12/15/2020 11:30:00 PM 2.18 35.924 0.139 7.26 1.99 13.41
12/15/2020 11:45:00 PM 2.16 35.888 0.139 7.25 1.97 13.41
12/16/2020 12:00:00 AM 2.13 35.834 0.139 7.26 2.06 13.43
12/16/2020 12:15:00 AM 2.09 35.762 0.139 7.26 2.01 13.44
12/16/2020 12:30:00 AM 2.06 35.708 0.139 7.26 2.11 13.45
12/16/2020 12:45:00 AM 2.03 35.654 0.139 7.25 2.42 13.46
12/16/2020 1:00:00 AM 2.01 35.618 0.139 7.26 2.05 13.47
12/16/2020 1:15:00 AM 1.97 35.546 0.139 7.25 2.03 13.48
12/16/2020 1:30:00 AM 1.94 35.492 0.139 7.25 2 13.49
12/16/2020 1:45:00 AM 1.91 35.438 0.139 7.26 2.02 13.5
12/16/2020 2:00:00 AM 1.87 35.366 0.139 7.26 2.04 13.51
12/16/2020 2:15:00 AM 1.87 35.366 0.139 7.25 2.08 13.52
12/16/2020 2:30:00 AM 1.86 35.348 0.139 7.25 1.98 13.53
12/16/2020 2:45:00 AM 1.87 35.366 0.139 7.26 2.17 13.53
12/16/2020 3:00:00 AM 1.86 35.348 0.139 7.24 2.07 13.53
12/16/2020 3:15:00 AM 1.85 35.33 0.139 7.25 2.08 13.55
12/16/2020 3:30:00 AM 1.83 35.294 0.139 7.26 2.09 13.55
12/16/2020 3:45:00 AM 1.8 35.24 0.139 7.25 2.11 13.56
12/16/2020 4:00:00 AM 1.77 35.186 0.139 7.25 2.06 13.56
12/16/2020 4:15:00 AM 1.75 35.15 0.139 7.25 2 13.57
12/16/2020 4:30:00 AM 1.73 35.114 0.139 7.25 2.07 13.58
12/16/2020 4:45:00 AM 1.73 35.114 0.139 7.25 2.13 13.58
12/16/2020 5:00:00 AM 1.72 35.096 0.139 7.25 2.08 13.58
12/16/2020 5:15:00 AM 1.72 35.096 0.139 7.25 2.04 13.58
12/16/2020 5:30:00 AM 1.71 35.078 0.139 7.25 2.08 13.59
12/16/2020 5:45:00 AM 1.69 35.042 0.139 7.25 2.13 13.59
12/16/2020 6:00:00 AM 1.67 35.006 0.139 7.25 2.29 13.6
12/16/2020 6:15:00 AM 1.66 34.988 0.139 7.25 2.19 13.61
12/16/2020 6:30:00 AM 1.66 34.988 0.139 7.25 2.01 13.6
12/16/2020 6:45:00 AM 1.66 34.988 0.139 7.25 2.06 13.61
12/16/2020 7:00:00 AM 1.66 34.988 0.139 7.25 2.03 13.61
12/16/2020 7:15:00 AM 1.65 34.97 0.139 7.25 2.02 13.61
12/16/2020 7:30:00 AM 1.64 34.952 0.139 7.25 2.13 13.62
12/16/2020 7:45:00 AM 1.65 34.97 0.139 7.26 2.02 13.63
12/16/2020 8:00:00 AM 1.65 34.97 0.139 7.26 2.03 13.64
12/16/2020 8:15:00 AM 1.64 34.952 0.139 7.27 2 13.67
12/16/2020 8:30:00 AM 1.64 34.952 0.139 7.27 2.04 13.7
12/16/2020 8:45:00 AM 1.63 34.934 0.139 7.28 2.07 13.75
12/16/2020 9:00:00 AM 1.65 34.97 0.139 7.29 2.05 13.8
12/16/2020 9:15:00 AM 1.68 35.024 0.138 7.3 2.03 13.86
12/16/2020 9:30:00 AM 1.71 35.078 0.138 7.31 2.01 13.93
12/16/2020 9:45:00 AM 1.72 35.096 0.138 7.33 2.05 13.99
12/16/2020 10:00:00 AM 1.73 35.114 0.138 7.34 2.04 14.03
12/16/2020 10:15:00 AM 1.73 35.114 0.138 7.35 1.99 14.06
12/16/2020 10:30:00 AM 1.75 35.15 0.138 7.36 1.99 14.1
12/16/2020 10:45:00 AM 1.75 35.15 0.138 7.37 2.01 14.11
12/16/2020 11:00:00 AM 1.76 35.168 0.138 7.36 2.01 14.11
12/16/2020 11:15:00 AM 1.75 35.15 0.138 7.37 1.99 14.12
12/16/2020 11:30:00 AM 1.75 35.15 0.138 7.38 2.15 14.12
12/16/2020 11:45:00 AM 1.74 35.132 0.138 7.37 1.95 14.13
12/16/2020 12:00:00 PM 1.71 35.078 0.138 7.37 1.97 14.13
12/16/2020 12:15:00 PM 1.63 34.934 0.138 7.38 1.95 14.13
12/16/2020 12:30:00 PM 1.56 34.808 0.138 7.38 2.03 14.14
12/16/2020 12:45:00 PM 1.56 34.808 0.137 7.38 2.32 14.15
12/16/2020 1:00:00 PM 1.53 34.754 0.137 7.38 2.04 14.15
12/16/2020 1:15:00 PM 1.44 34.592 0.137 7.37 2.12 14.13
12/16/2020 1:30:00 PM 1.36 34.448 0.137 7.36 2.12 14.13
12/16/2020 1:45:00 PM 1.29 34.322 0.137 7.36 2.02 14.13
12/16/2020 2:00:00 PM 1.21 34.178 0.137 7.36 2.03 14.14
12/16/2020 2:15:00 PM 1.1 33.98 0.136 7.35 1.99 14.15
12/16/2020 2:30:00 PM 1 33.8 0.136 7.35 2.06 14.14
12/16/2020 2:45:00 PM 0.92 33.656 0.136 7.34 2.05 14.15
12/16/2020 3:00:00 PM 0.81 33.458 0.136 7.34 1.98 14.15
12/16/2020 3:15:00 PM 0.65 33.17 0.136 7.32 2.04 14.13
12/16/2020 3:30:00 PM 0.46 32.828 0.136 7.3 2.04 14.13
12/16/2020 3:45:00 PM 0.32 32.576 0.136 7.3 2.06 14.13
12/16/2020 4:00:00 PM 0.21 32.378 0.135 7.29 2.02 14.14
12/16/2020 4:15:00 PM 0.11 32.198 0.135 7.28 2.01 14.15
12/16/2020 4:30:00 PM 0.05 32.09 0.135 7.27 2.13 14.15
12/16/2020 4:45:00 PM 0 32 0.135 7.27 2.14 14.16
12/16/2020 5:00:00 PM -0.01 31.982 0.135 7.28 2.11 14.14
12/16/2020 5:15:00 PM -0.02 31.964 0.135 7.28 2.04 14.14
12/16/2020 5:30:00 PM -0.01 31.982 0.135 7.27 2.05 14.14
12/16/2020 5:45:00 PM -0.01 31.982 0.135 7.27 2.11 14.15
12/16/2020 6:00:00 PM -0.01 31.982 0.135 7.27 2.12 14.15
12/16/2020 6:15:00 PM -0.02 31.964 0.135 7.27 2.36 14.17
12/16/2020 6:30:00 PM -0.02 31.964 0.135 7.27 2.88 14.2
12/16/2020 6:45:00 PM -0.02 31.964 0.135 7.27 2.13 14.18
12/16/2020 7:00:00 PM -0.02 31.964 0.135 7.27 2.16 14.17
12/16/2020 7:15:00 PM -0.02 31.964 0.135 7.26 2.11 14.18
12/16/2020 7:30:00 PM -0.01 31.982 0.135 7.27 2.2 14.15
12/16/2020 7:45:00 PM -0.01 31.982 0.135 7.26 2.18 14.14
12/16/2020 8:00:00 PM -0.01 31.982 0.135 7.26 2.14 14.13
12/16/2020 8:15:00 PM -0.01 31.982 0.136 7.25 2.17 14.12
12/16/2020 8:30:00 PM -0.01 31.982 0.136 7.25 2.16 14.12
12/16/2020 8:45:00 PM 0 32 0.136 7.25 2.12 14.08
12/16/2020 9:00:00 PM 0 32 0.136 7.24 2.11 14.04
12/16/2020 9:15:00 PM 0 32 0.136 7.22 2.11 14.01
12/16/2020 9:30:00 PM 0 32 0.136 7.22 2.11 13.98
12/16/2020 9:45:00 PM 0.01 32.018 0.136 7.22 2.17 13.94
12/16/2020 10:00:00 PM 0.01 32.018 0.136 7.21 2.1 13.95
12/16/2020 10:15:00 PM 0.01 32.018 0.136 7.21 2.12 13.95
12/16/2020 10:30:00 PM 0.01 32.018 0.136 7.21 2.18 13.95
12/16/2020 10:45:00 PM 0.01 32.018 0.136 7.2 2.07 13.93
12/16/2020 11:00:00 PM 0.02 32.036 0.138 7.2 2.19 13.93
12/16/2020 11:15:00 PM 0.02 32.036 0.14 7.19 2.18 13.92
12/16/2020 11:30:00 PM 0.02 32.036 0.141 7.19 2.2 13.88
12/16/2020 11:45:00 PM 0.01 32.018 0.14 7.18 2.5 13.85
12/17/2020 12:00:00 AM 0.01 32.018 0.14 7.17 2.09 13.8
12/17/2020 12:15:00 AM 0.01 32.018 0.14 7.17 2.05 13.75
12/17/2020 12:30:00 AM 0.01 32.018 0.141 7.16 2.15 13.67
12/17/2020 12:45:00 AM 0.01 32.018 0.141 7.14 2.08 13.64
12/17/2020 1:00:00 AM 0.01 32.018 0.141 7.14 2.05 13.65
12/17/2020 1:15:00 AM 0.01 32.018 0.141 7.15 2.04 13.62
12/17/2020 1:30:00 AM 0.01 32.018 0.141 7.14 2.07 13.6
12/17/2020 1:45:00 AM 0.01 32.018 0.141 7.13 2.05 13.59
12/17/2020 2:00:00 AM 0.01 32.018 0.14 7.13 2.01 13.56
12/17/2020 2:15:00 AM 0.01 32.018 0.14 7.14 2.05 13.52
12/17/2020 2:30:00 AM 0.01 32.018 0.14 7.12 2.01 13.5
12/17/2020 2:45:00 AM 0 32 0.14 7.12 2.06 13.45
12/17/2020 3:00:00 AM 0 32 0.14 7.12 2.03 13.41
12/17/2020 3:15:00 AM 0 32 0.14 7.13 2 13.4
12/17/2020 3:30:00 AM 0 32 0.139 7.11 2.04 13.39
12/17/2020 3:45:00 AM 0.01 32.018 0.139 7.11 2.11 13.42
12/17/2020 4:00:00 AM 0.01 32.018 0.138 7.12 2.12 13.4
12/17/2020 4:15:00 AM 0.01 32.018 0.138 7.12 2.07 13.37
12/17/2020 4:30:00 AM 0.01 32.018 0.138 7.11 2.12 13.33
12/17/2020 4:45:00 AM 0.01 32.018 0.138 7.11 2.12 13.35
12/17/2020 5:00:00 AM 0.01 32.018 0.138 7.11 2.14 13.36
12/17/2020 5:15:00 AM 0.01 32.018 0.138 7.1 2.11 13.37
12/17/2020 5:30:00 AM 0.01 32.018 0.138 7.1 2.11 13.4
12/17/2020 5:45:00 AM 0.01 32.018 0.138 7.1 2.22 13.48
12/17/2020 6:00:00 AM 0.01 32.018 0.138 7.1 4.27 13.52
12/17/2020 6:15:00 AM 0.01 32.018 0.138 7.09 2.26 13.55
12/17/2020 6:30:00 AM 0 32 0.138 7.09 2.23 13.58
12/17/2020 6:45:00 AM 0 32 0.138 7.09 2.19 13.6
12/17/2020 7:00:00 AM 0 32 0.138 7.09 2.24 13.61
12/17/2020 7:15:00 AM 0 32 0.138 7.1 2.17 13.65
12/17/2020 7:30:00 AM 0 32 0.138 7.08 2.2 13.66
12/17/2020 7:45:00 AM 0 32 0.139 7.09 2.19 13.65
12/17/2020 8:00:00 AM 0 32 0.139 7.09 2.18 13.67
12/17/2020 8:15:00 AM 0 32 0.139 7.09 2.18 13.69
12/17/2020 8:30:00 AM 0 32 0.139 7.09 2.18 13.72
12/17/2020 8:45:00 AM 0 32 0.139 7.09 2.13 13.75
12/17/2020 9:00:00 AM 0 32 0.139 7.1 2.14 13.79
12/17/2020 9:15:00 AM 0 32 0.138 7.11 2.17 13.86
12/17/2020 9:30:00 AM 0 32 0.138 7.11 2.2 13.95
12/17/2020 9:45:00 AM 0 32 0.138 7.11 2.09 14
12/17/2020 10:00:00 AM 0 32 0.138 7.12 2.13 14.06
12/17/2020 10:15:00 AM 0 32 0.138 7.12 2.09 14.12
12/17/2020 10:30:00 AM 0 32 0.138 7.13 2.1 14.19
12/17/2020 10:45:00 AM 0 32 0.137 7.14 2.09 14.25
12/17/2020 11:00:00 AM 0.01 32.018 0.137 7.15 2.03 14.32
12/17/2020 11:15:00 AM 0.01 32.018 0.137 7.16 2.08 14.38
12/17/2020 11:30:00 AM 0.01 32.018 0.137 7.17 2.08 14.43
12/17/2020 11:45:00 AM 0.01 32.018 0.137 7.18 2.06 14.49
12/17/2020 12:00:00 PM 0.01 32.018 0.136 7.19 2.1 14.56
12/17/2020 12:15:00 PM 0.02 32.036 0.136 7.19 2.08 14.59
12/17/2020 12:30:00 PM 0.02 32.036 0.136 7.19 2.06 14.63
12/17/2020 12:45:00 PM 0.02 32.036 0.136 7.2 2.03 14.66
12/17/2020 1:00:00 PM 0.01 32.018 0.135 7.21 2.02 14.68
12/17/2020 1:15:00 PM 0.01 32.018 0.135 7.21 2.01 14.7
12/17/2020 1:30:00 PM 0.01 32.018 0.135 7.21 1.98 14.74
12/17/2020 1:45:00 PM 0.01 32.018 0.135 7.22 2.03 14.74
12/17/2020 2:00:00 PM 0.01 32.018 0.135 7.23 2 14.72
12/17/2020 2:15:00 PM 0.01 32.018 0.135 7.22 2.01 14.71
12/17/2020 2:30:00 PM 0.01 32.018 0.135 7.23 1.99 14.76
12/17/2020 2:45:00 PM 0.01 32.018 0.135 7.24 2.02 14.74
12/17/2020 3:00:00 PM 0.01 32.018 0.135 7.25 2 14.77
12/17/2020 3:15:00 PM 0 32 0.135 7.26 1.98 14.78
12/17/2020 3:30:00 PM 0 32 0.135 7.25 1.95 14.77
12/17/2020 3:45:00 PM 0 32 0.135 7.26 1.99 14.76
12/17/2020 4:00:00 PM 0 32 0.135 7.27 2 14.72
12/17/2020 4:15:00 PM 0 32 0.135 7.26 2.11 14.72
12/17/2020 4:30:00 PM -0.01 31.982 0.135 7.27 1.95 14.66
12/17/2020 4:45:00 PM -0.01 31.982 0.135 7.26 1.94 14.59
12/17/2020 5:00:00 PM -0.01 31.982 0.135 7.25 2.04 14.52
12/17/2020 5:15:00 PM -0.01 31.982 0.135 7.23 1.95 14.43
12/17/2020 5:30:00 PM -0.01 31.982 0.135 7.23 2.23 14.35
12/17/2020 5:45:00 PM -0.01 31.982 0.135 7.23 1.99 14.26
12/17/2020 6:00:00 PM -0.01 31.982 0.136 7.22 2.06 14.19
12/17/2020 6:15:00 PM -0.01 31.982 0.136 7.21 1.95 14.13
12/17/2020 6:30:00 PM -0.01 31.982 0.136 7.2 1.98 14.06
12/17/2020 6:45:00 PM -0.01 31.982 0.136 7.19 1.95 14.02
12/17/2020 7:00:00 PM -0.01 31.982 0.136 7.19 2.01 13.96
12/17/2020 7:15:00 PM -0.01 31.982 0.136 7.18 2 13.91
12/17/2020 7:30:00 PM -0.01 31.982 0.136 7.17 1.91 13.89
12/17/2020 7:45:00 PM -0.01 31.982 0.136 7.16 1.92 13.86
12/17/2020 8:00:00 PM -0.01 31.982 0.135 7.16 1.97 13.82
12/17/2020 8:15:00 PM -0.01 31.982 0.135 7.15 2.23 13.79
12/17/2020 8:30:00 PM -0.01 31.982 0.135 7.14 1.98 13.74
12/17/2020 8:45:00 PM -0.01 31.982 0.135 7.14 1.95 13.74
12/17/2020 9:00:00 PM -0.01 31.982 0.135 7.14 1.94 13.72
12/17/2020 9:15:00 PM -0.01 31.982 0.135 7.13 1.96 13.69
12/17/2020 9:30:00 PM -0.01 31.982 0.135 7.13 2.03 13.67
12/17/2020 9:45:00 PM -0.01 31.982 0.135 7.13 1.96 13.67
12/17/2020 10:00:00 PM -0.01 31.982 0.135 7.12 1.95 13.64
12/17/2020 10:15:00 PM -0.01 31.982 0.135 7.12 1.95 13.64
12/17/2020 10:30:00 PM -0.01 31.982 0.135 7.12 1.97 13.62
12/17/2020 10:45:00 PM -0.01 31.982 0.135 7.11 1.93 13.6
12/17/2020 11:00:00 PM -0.01 31.982 0.135 7.11 1.94 13.58
12/17/2020 11:15:00 PM -0.01 31.982 0.135 7.11 1.96 13.59
12/17/2020 11:30:00 PM -0.01 31.982 0.135 7.1 1.92 13.58
12/17/2020 11:45:00 PM 0 32 0.135 7.09 1.95 13.57
12/18/2020 12:00:00 AM -0.01 31.982 0.135 7.1 1.94 13.58
12/18/2020 12:15:00 AM 0 32 0.135 7.09 1.98 13.56
12/18/2020 12:30:00 AM -0.01 31.982 0.135 7.09 1.95 13.55
12/18/2020 12:45:00 AM -0.01 31.982 0.135 7.09 1.97 13.55
12/18/2020 1:00:00 AM -0.01 31.982 0.135 7.08 1.98 13.53
12/18/2020 1:15:00 AM -0.01 31.982 0.135 7.09 1.96 13.55
12/18/2020 1:30:00 AM -0.01 31.982 0.135 7.08 1.94 13.54
12/18/2020 1:45:00 AM -0.01 31.982 0.135 7.08 1.97 13.54
12/18/2020 2:00:00 AM -0.01 31.982 0.135 7.08 1.96 13.54
12/18/2020 2:15:00 AM -0.01 31.982 0.136 7.08 1.95 13.55
12/18/2020 2:30:00 AM -0.01 31.982 0.136 7.08 1.99 13.55
12/18/2020 2:45:00 AM -0.01 31.982 0.136 7.07 1.97 13.56
12/18/2020 3:00:00 AM -0.01 31.982 0.136 7.08 1.98 13.54
12/18/2020 3:15:00 AM -0.01 31.982 0.136 7.08 1.96 13.56
12/18/2020 3:30:00 AM -0.01 31.982 0.136 7.07 1.97 13.55
12/18/2020 3:45:00 AM -0.01 31.982 0.136 7.07 1.99 13.56
12/18/2020 4:00:00 AM -0.01 31.982 0.136 7.07 2.21 13.58
12/18/2020 4:15:00 AM -0.01 31.982 0.136 7.06 1.98 13.58
12/18/2020 4:30:00 AM -0.01 31.982 0.137 7.07 1.99 13.58
12/18/2020 4:45:00 AM -0.01 31.982 0.137 7.08 1.96 13.61
12/18/2020 5:00:00 AM -0.01 31.982 0.137 7.08 2.04 13.61
12/18/2020 5:15:00 AM -0.01 31.982 0.137 7.07 2.02 13.61
12/18/2020 5:30:00 AM -0.01 31.982 0.137 7.08 2 13.61
12/18/2020 5:45:00 AM -0.01 31.982 0.137 7.07 1.97 13.68
12/18/2020 6:00:00 AM -0.02 31.964 0.138 7.07 1.95 13.76
12/18/2020 6:15:00 AM -0.02 31.964 0.137 7.08 1.96 13.77
12/18/2020 6:30:00 AM -0.02 31.964 0.137 7.09 1.95 13.79
12/18/2020 6:45:00 AM -0.02 31.964 0.137 7.09 1.99 13.8
12/18/2020 7:00:00 AM -0.02 31.964 0.137 7.09 2.01 13.79
12/18/2020 7:15:00 AM -0.02 31.964 0.137 7.09 2 13.79
12/18/2020 7:30:00 AM -0.02 31.964 0.137 7.09 2 13.8
12/18/2020 7:45:00 AM -0.02 31.964 0.137 7.09 1.98 13.8
12/18/2020 8:00:00 AM -0.02 31.964 0.137 7.09 2.01 13.84
12/18/2020 8:15:00 AM -0.02 31.964 0.137 7.09 2.01 13.84
12/18/2020 8:30:00 AM -0.02 31.964 0.137 7.1 2.01 13.87
12/18/2020 8:45:00 AM -0.02 31.964 0.137 7.11 2.03 13.93
12/18/2020 9:00:00 AM -0.02 31.964 0.137 7.13 1.99 14.02
12/18/2020 9:15:00 AM -0.02 31.964 0.137 7.14 1.98 14.09
12/18/2020 9:30:00 AM -0.02 31.964 0.137 7.15 2.01 14.18
12/18/2020 9:45:00 AM -0.02 31.964 0.137 7.16 1.99 14.24
12/18/2020 10:00:00 AM -0.02 31.964 0.137 7.17 1.96 14.29
12/18/2020 10:15:00 AM -0.02 31.964 0.137 7.17 2.02 14.36
12/18/2020 10:30:00 AM -0.02 31.964 0.137 7.19 1.99 14.42
12/18/2020 10:45:00 AM -0.02 31.964 0.137 7.2 2 14.43
12/18/2020 11:00:00 AM -0.02 31.964 0.137 7.2 1.97 14.47
12/18/2020 11:15:00 AM -0.02 31.964 0.137 7.21 1.99 14.48
12/18/2020 11:30:00 AM -0.02 31.964 0.136 7.22 2.01 14.51
12/18/2020 11:45:00 AM -0.02 31.964 0.136 7.22 1.99 14.54
12/18/2020 12:00:00 PM -0.02 31.964 0.136 7.22 1.98 14.56
12/18/2020 12:15:00 PM -0.01 31.982 0.136 7.22 2 14.62
12/18/2020 12:30:00 PM -0.01 31.982 0.136 7.24 2.03 14.64
12/18/2020 12:45:00 PM -0.01 31.982 0.136 7.25 2.03 14.66
12/18/2020 1:00:00 PM -0.01 31.982 0.135 7.25 1.98 14.71
12/18/2020 1:15:00 PM -0.02 31.964 0.135 7.27 2.01 14.73
12/18/2020 1:30:00 PM -0.02 31.964 0.135 7.27 2 14.75
12/18/2020 1:45:00 PM -0.02 31.964 0.135 7.28 2.01 14.74
12/18/2020 2:00:00 PM -0.02 31.964 0.135 7.28 1.97 14.76
12/18/2020 2:15:00 PM -0.02 31.964 0.135 7.29 2.02 14.76
12/18/2020 2:30:00 PM -0.02 31.964 0.135 7.29 1.96 14.76
12/18/2020 2:45:00 PM -0.02 31.964 0.135 7.3 2.01 14.77
12/18/2020 3:00:00 PM -0.02 31.964 0.135 7.3 1.98 14.77
12/18/2020 3:15:00 PM -0.02 31.964 0.135 7.29 2.02 14.75
12/18/2020 3:30:00 PM -0.02 31.964 0.135 7.31 2.09 14.74
12/18/2020 3:45:00 PM -0.02 31.964 0.135 7.31 2.05 14.72
12/18/2020 4:00:00 PM -0.02 31.964 0.135 7.32 2.03 14.7
12/18/2020 4:15:00 PM -0.02 31.964 0.135 7.31 2.05 14.63
12/18/2020 4:30:00 PM -0.02 31.964 0.136 7.31 2.01 14.58
12/18/2020 4:45:00 PM -0.02 31.964 0.136 7.3 2.04 14.53
12/18/2020 5:00:00 PM -0.03 31.946 0.136 7.29 2.01 14.44
12/18/2020 5:15:00 PM -0.03 31.946 0.136 7.28 2.37 14.37
12/18/2020 5:30:00 PM -0.03 31.946 0.136 7.27 2.06 14.3
12/18/2020 5:45:00 PM -0.03 31.946 0.137 7.26 2.03 14.23
12/18/2020 6:00:00 PM -0.03 31.946 0.137 7.25 4.22 14.17
12/18/2020 6:15:00 PM -0.03 31.946 0.137 7.23 2.27 14.13
12/18/2020 6:30:00 PM -0.03 31.946 0.137 7.24 2.06 14.08
12/18/2020 6:45:00 PM -0.03 31.946 0.138 7.23 2.03 14.06
12/18/2020 7:00:00 PM -0.03 31.946 0.138 7.22 2.05 14.02
12/18/2020 7:15:00 PM -0.03 31.946 0.138 7.21 2.08 14.01
12/18/2020 7:30:00 PM -0.03 31.946 0.138 7.21 2.06 13.98
12/18/2020 7:45:00 PM -0.03 31.946 0.139 7.2 2.14 13.97
12/18/2020 8:00:00 PM -0.03 31.946 0.139 7.2 2.57 13.97
12/18/2020 8:15:00 PM -0.03 31.946 0.139 7.19 2.11 13.97
12/18/2020 8:30:00 PM -0.03 31.946 0.139 7.19 2.07 13.96
12/18/2020 8:45:00 PM -0.03 31.946 0.14 7.19 2.06 13.97
12/18/2020 9:00:00 PM -0.03 31.946 0.14 7.18 2.06 13.97
12/18/2020 9:15:00 PM -0.03 31.946 0.14 7.18 2.09 13.97
12/18/2020 9:30:00 PM -0.03 31.946 0.14 7.17 2.1 13.99
12/18/2020 9:45:00 PM -0.03 31.946 0.141 7.17 2.05 13.99
12/18/2020 10:00:00 PM -0.03 31.946 0.141 7.17 2.18 14.01
12/18/2020 10:15:00 PM -0.03 31.946 0.141 7.17 2.13 14.01
12/18/2020 10:30:00 PM -0.03 31.946 0.141 7.17 2.07 14.03
12/18/2020 10:45:00 PM -0.03 31.946 0.142 7.17 2.06 14.04
12/18/2020 11:00:00 PM -0.03 31.946 0.142 7.16 2.1 14.05
12/18/2020 11:15:00 PM -0.03 31.946 0.142 7.16 2.15 14.08
12/18/2020 11:30:00 PM -0.03 31.946 0.142 7.16 2.09 14.09
12/18/2020 11:45:00 PM -0.03 31.946 0.142 7.15 2.05 14.08
12/19/2020 12:00:00 AM -0.03 31.946 0.142 7.15 2.15 14.09
12/19/2020 12:15:00 AM -0.03 31.946 0.142 7.15 2.24 14.11
12/19/2020 12:30:00 AM -0.03 31.946 0.142 7.15 2.09 14.12
12/19/2020 12:45:00 AM -0.03 31.946 0.142 7.15 2.07 14.14
12/19/2020 1:00:00 AM -0.03 31.946 0.143 7.15 2.07 14.14
12/19/2020 1:15:00 AM -0.03 31.946 0.143 7.15 2.14 14.15
12/19/2020 1:30:00 AM -0.03 31.946 0.143 7.14 2.14 14.17
12/19/2020 1:45:00 AM -0.03 31.946 0.143 7.14 2.06 14.19
12/19/2020 2:00:00 AM -0.03 31.946 0.144 7.15 2.11 14.3
12/19/2020 2:15:00 AM -0.03 31.946 0.143 7.14 2.14 14.22
12/19/2020 2:30:00 AM -0.03 31.946 0.143 7.14 2.07 14.23
12/19/2020 2:45:00 AM -0.03 31.946 0.143 7.14 2.11 14.25
12/19/2020 3:00:00 AM -0.03 31.946 0.143 7.13 2.1 14.26
12/19/2020 3:15:00 AM -0.03 31.946 0.143 7.14 2.13 14.25
12/19/2020 3:30:00 AM -0.03 31.946 0.143 7.13 2.09 14.28
12/19/2020 3:45:00 AM -0.03 31.946 0.143 7.13 2.1 14.29
12/19/2020 4:00:00 AM -0.03 31.946 0.143 7.13 2.1 14.29
12/19/2020 4:15:00 AM -0.03 31.946 0.143 7.14 2.17 14.29
12/19/2020 4:30:00 AM -0.03 31.946 0.143 7.13 2.06 14.31
12/19/2020 4:45:00 AM -0.03 31.946 0.144 7.13 2.12 14.31
12/19/2020 5:00:00 AM -0.03 31.946 0.144 7.13 2.08 14.33
12/19/2020 5:15:00 AM -0.03 31.946 0.144 7.14 2.11 14.33
12/19/2020 5:30:00 AM -0.03 31.946 0.144 7.13 2.12 14.34
12/19/2020 5:45:00 AM -0.03 31.946 0.144 7.13 2.25 14.34
12/19/2020 6:00:00 AM -0.03 31.946 0.144 7.12 2.11 14.34
12/19/2020 6:15:00 AM -0.03 31.946 0.144 7.13 2.29 14.36
12/19/2020 6:30:00 AM -0.03 31.946 0.144 7.13 2.11 14.36
12/19/2020 6:45:00 AM -0.03 31.946 0.144 7.13 2.07 14.36
12/19/2020 7:00:00 AM -0.03 31.946 0.144 7.13 2.08 14.36
12/19/2020 7:15:00 AM -0.03 31.946 0.144 7.13 2.12 14.37
12/19/2020 7:30:00 AM -0.03 31.946 0.145 7.12 2.08 14.37
12/19/2020 7:45:00 AM -0.03 31.946 0.145 7.13 2.07 14.37
12/19/2020 8:00:00 AM -0.03 31.946 0.145 7.13 2.06 14.39
12/19/2020 8:15:00 AM -0.02 31.964 0.145 7.14 2.11 14.44
12/19/2020 8:30:00 AM -0.02 31.964 0.145 7.14 2.11 14.49
12/19/2020 8:45:00 AM -0.02 31.964 0.145 7.15 2.12 14.54
12/19/2020 9:00:00 AM -0.02 31.964 0.145 7.16 2.08 14.6
12/19/2020 9:15:00 AM -0.02 31.964 0.145 7.17 2.12 14.66
12/19/2020 9:30:00 AM -0.02 31.964 0.145 7.18 2.07 14.73
12/19/2020 9:45:00 AM -0.02 31.964 0.145 7.18 2.1 14.78
12/19/2020 10:00:00 AM -0.02 31.964 0.145 7.2 2.09 14.84
12/19/2020 10:15:00 AM -0.02 31.964 0.145 7.21 2.05 14.87
12/19/2020 10:30:00 AM -0.02 31.964 0.145 7.22 2.13 14.91
12/19/2020 10:45:00 AM -0.02 31.964 0.145 7.22 2.08 14.93
12/19/2020 11:00:00 AM -0.02 31.964 0.145 7.23 2.08 14.96
12/19/2020 11:15:00 AM -0.02 31.964 0.145 7.24 2.09 14.98
12/19/2020 11:30:00 AM -0.02 31.964 0.145 7.25 2.07 14.98
12/19/2020 11:45:00 AM -0.01 31.982 0.145 7.25 2.09 14.99
12/19/2020 12:00:00 PM -0.01 31.982 0.145 7.26 2.13 15
12/19/2020 12:15:00 PM -0.01 31.982 0.145 7.27 2.38 15.02
12/19/2020 12:30:00 PM -0.01 31.982 0.145 7.27 2.08 15.01
12/19/2020 12:45:00 PM -0.01 31.982 0.145 7.28 2.2 15.01
12/19/2020 1:00:00 PM -0.01 31.982 0.145 7.28 2.04 15
12/19/2020 1:15:00 PM -0.01 31.982 0.145 7.28 2.05 15.02
12/19/2020 1:30:00 PM -0.01 31.982 0.145 7.29 2.03 14.99
12/19/2020 1:45:00 PM -0.01 31.982 0.145 7.29 2.07 14.98
12/19/2020 2:00:00 PM -0.01 31.982 0.145 7.3 2.1 14.98
12/19/2020 2:15:00 PM -0.01 31.982 0.145 7.3 2.52 14.96
12/19/2020 2:30:00 PM -0.01 31.982 0.145 7.31 2.08 14.93
12/19/2020 2:45:00 PM -0.01 31.982 0.145 7.31 2.07 14.89
12/19/2020 3:00:00 PM -0.02 31.964 0.145 7.3 2.09 14.87
12/19/2020 3:15:00 PM -0.02 31.964 0.145 7.3 2.1 14.86
12/19/2020 3:30:00 PM -0.02 31.964 0.145 7.3 2.03 14.83
12/19/2020 3:45:00 PM -0.02 31.964 0.145 7.3 2.04 14.78
12/19/2020 4:00:00 PM -0.02 31.964 0.146 7.29 2.04 14.71
12/19/2020 4:15:00 PM -0.02 31.964 0.146 7.29 2.07 14.65
12/19/2020 4:30:00 PM -0.02 31.964 0.146 7.27 2.02 14.58
12/19/2020 4:45:00 PM -0.02 31.964 0.146 7.27 2 14.49
12/19/2020 5:00:00 PM -0.02 31.964 0.146 7.26 2.12 14.41
12/19/2020 5:15:00 PM -0.03 31.946 0.146 7.25 2.02 14.35
12/19/2020 5:30:00 PM -0.02 31.964 0.147 7.24 2.05 14.27
12/19/2020 5:45:00 PM -0.02 31.964 0.147 7.23 2.1 14.21
12/19/2020 6:00:00 PM -0.02 31.964 0.147 7.2 2.02 14.16
12/19/2020 6:15:00 PM -0.02 31.964 0.147 7.21 2.06 14.13
12/19/2020 6:30:00 PM -0.02 31.964 0.147 7.21 2.02 14.09
12/19/2020 6:45:00 PM -0.03 31.946 0.147 7.2 1.99 14.06
12/19/2020 7:00:00 PM -0.03 31.946 0.147 7.2 2.09 14.05
12/19/2020 7:15:00 PM -0.02 31.964 0.148 7.19 1.99 14.04
12/19/2020 7:30:00 PM -0.03 31.946 0.148 7.19 1.99 14.02
12/19/2020 7:45:00 PM -0.02 31.964 0.148 7.18 2.03 14.01
12/19/2020 8:00:00 PM -0.03 31.946 0.148 7.18 2.03 14.01
12/19/2020 8:15:00 PM -0.03 31.946 0.148 7.17 2 13.99
12/19/2020 8:30:00 PM -0.03 31.946 0.149 7.16 2.06 13.99
12/19/2020 8:45:00 PM -0.03 31.946 0.149 7.17 2.03 14.01
12/19/2020 9:00:00 PM -0.03 31.946 0.149 7.15 2.06 14.01
12/19/2020 9:15:00 PM -0.03 31.946 0.149 7.17 3.26 14
12/19/2020 9:30:00 PM -0.03 31.946 0.149 7.16 2.07 14.01
12/19/2020 9:45:00 PM -0.03 31.946 0.149 7.16 2.01 14.01
12/19/2020 10:00:00 PM -0.03 31.946 0.15 7.16 2.04 14.03
12/19/2020 10:15:00 PM -0.03 31.946 0.15 7.16 2.02 14.02
12/19/2020 10:30:00 PM -0.03 31.946 0.15 7.16 2.04 14.02
12/19/2020 10:45:00 PM -0.03 31.946 0.15 7.16 2.02 14.03
12/19/2020 11:00:00 PM -0.03 31.946 0.15 7.15 2.05 14.05
12/19/2020 11:15:00 PM -0.03 31.946 0.15 7.15 2.04 14.05
12/19/2020 11:30:00 PM -0.03 31.946 0.15 7.15 2.04 14.04
12/19/2020 11:45:00 PM -0.03 31.946 0.15 7.15 2.02 14.06
12/20/2020 12:00:00 AM -0.03 31.946 0.15 7.15 2.04 14.07
12/20/2020 12:15:00 AM -0.03 31.946 0.15 7.15 2.06 14.08
12/20/2020 12:30:00 AM -0.03 31.946 0.15 7.15 2.02 14.06
12/20/2020 12:45:00 AM -0.03 31.946 0.15 7.15 2.05 14.08
12/20/2020 1:00:00 AM -0.03 31.946 0.15 7.14 2.03 14.08
12/20/2020 1:15:00 AM -0.03 31.946 0.15 7.14 2.07 14.08
12/20/2020 1:30:00 AM -0.03 31.946 0.15 7.14 2.04 14.08
12/20/2020 1:45:00 AM -0.03 31.946 0.15 7.15 2.1 14.1
12/20/2020 2:00:00 AM -0.03 31.946 0.15 7.14 2.05 14.09
12/20/2020 2:15:00 AM -0.03 31.946 0.15 7.14 2.11 14.1
12/20/2020 2:30:00 AM -0.03 31.946 0.15 7.14 2.06 14.09
12/20/2020 2:45:00 AM -0.02 31.964 0.15 7.14 2.01 14.08
12/20/2020 3:00:00 AM -0.02 31.964 0.15 7.14 2 14.08
12/20/2020 3:15:00 AM -0.03 31.946 0.15 7.14 2.03 14.08
12/20/2020 3:30:00 AM -0.02 31.964 0.15 7.14 2.12 14.09
12/20/2020 3:45:00 AM -0.02 31.964 0.15 7.14 2.03 14.07
12/20/2020 4:00:00 AM -0.02 31.964 0.15 7.13 2.06 14.08
12/20/2020 4:30:00 AM -0.02 31.964 0.15 7.13 4.43 14.08
12/20/2020 4:45:00 AM -0.02 31.964 0.15 7.14 2.09 14.08
12/20/2020 5:00:00 AM -0.02 31.964 0.15 7.14 2.05 14.08
12/20/2020 5:15:00 AM -0.02 31.964 0.15 7.12 2.14 14.07
12/20/2020 5:30:00 AM -0.02 31.964 0.15 7.13 2.07 14.08
12/20/2020 5:45:00 AM -0.02 31.964 0.15 7.13 2.09 14.06
12/20/2020 6:00:00 AM -0.02 31.964 0.149 7.14 2.05 14.07
12/20/2020 6:15:00 AM -0.02 31.964 0.149 7.13 2.04 14.07
12/20/2020 6:30:00 AM -0.02 31.964 0.149 7.13 2.06 14.07
12/20/2020 6:45:00 AM -0.02 31.964 0.149 7.13 2.04 14.06
12/20/2020 7:00:00 AM -0.02 31.964 0.149 7.14 2.03 14.07
12/20/2020 7:15:00 AM -0.02 31.964 0.149 7.14 2.03 14.07
12/20/2020 7:30:00 AM -0.02 31.964 0.149 7.12 2.08 14.06
12/20/2020 7:45:00 AM -0.02 31.964 0.149 7.14 2.05 14.07
12/20/2020 8:00:00 AM -0.02 31.964 0.148 7.14 2.03 14.07
12/20/2020 8:15:00 AM -0.02 31.964 0.148 7.13 1.99 14.08
12/20/2020 8:30:00 AM -0.02 31.964 0.148 7.15 2.03 14.12
12/20/2020 8:45:00 AM -0.02 31.964 0.148 7.16 2.03 14.16
12/20/2020 9:00:00 AM -0.02 31.964 0.147 7.17 2.05 14.23
12/20/2020 9:15:00 AM -0.02 31.964 0.147 7.17 2.04 14.26
12/20/2020 9:30:00 AM -0.02 31.964 0.147 7.18 2.07 14.27
12/20/2020 9:45:00 AM -0.02 31.964 0.147 7.19 2 14.32
12/20/2020 10:00:00 AM -0.02 31.964 0.146 7.2 2.01 14.34
12/20/2020 10:15:00 AM -0.02 31.964 0.146 7.21 2.02 14.38
12/20/2020 10:30:00 AM -0.02 31.964 0.146 7.21 2.02 14.43
12/20/2020 10:45:00 AM -0.02 31.964 0.145 7.23 2.03 14.47
12/20/2020 11:00:00 AM -0.02 31.964 0.145 7.23 2.03 14.49
12/20/2020 11:15:00 AM -0.01 31.982 0.145 7.25 2.14 14.52
12/20/2020 11:30:00 AM -0.01 31.982 0.145 7.25 2.01 14.53
12/20/2020 11:45:00 AM -0.01 31.982 0.145 7.26 2.04 14.55
12/20/2020 12:00:00 PM -0.01 31.982 0.144 7.27 2.06 14.54
12/20/2020 12:15:00 PM -0.01 31.982 0.144 7.27 2.05 14.55
12/20/2020 12:30:00 PM -0.01 31.982 0.144 7.28 2 14.56
12/20/2020 12:45:00 PM -0.01 31.982 0.144 7.28 2.02 14.55
12/20/2020 1:00:00 PM -0.01 31.982 0.144 7.28 2.01 14.53
12/20/2020 1:15:00 PM -0.02 31.964 0.144 7.29 2.03 14.53
12/20/2020 1:30:00 PM -0.02 31.964 0.144 7.28 2.04 14.5
12/20/2020 1:45:00 PM -0.02 31.964 0.144 7.29 2.05 14.49
12/20/2020 2:00:00 PM -0.02 31.964 0.144 7.29 2.78 14.47
12/20/2020 2:15:00 PM -0.01 31.982 0.144 7.3 2.02 14.46
12/20/2020 2:30:00 PM -0.01 31.982 0.144 7.3 2.03 14.45
12/20/2020 2:45:00 PM -0.01 31.982 0.144 7.3 2.03 14.43
12/20/2020 3:00:00 PM -0.01 31.982 0.144 7.3 2.05 14.42
12/20/2020 3:15:00 PM -0.01 31.982 0.144 7.3 2.24 14.39
12/20/2020 3:30:00 PM -0.01 31.982 0.144 7.29 2.04 14.36
12/20/2020 3:45:00 PM -0.01 31.982 0.144 7.29 2.03 14.31
12/20/2020 4:00:00 PM 0 32 0.144 7.29 2.01 14.26
12/20/2020 4:15:00 PM 0 32 0.144 7.28 2.04 14.2
12/20/2020 4:30:00 PM 0 32 0.144 7.27 2.08 14.17
12/20/2020 4:45:00 PM 0 32 0.144 7.27 2 14.09
12/20/2020 5:00:00 PM 0 32 0.144 7.24 2.05 14.05
12/20/2020 5:15:00 PM 0.01 32.018 0.144 7.25 2.52 14
12/20/2020 5:30:00 PM 0.01 32.018 0.144 7.24 2.04 13.97
12/20/2020 5:45:00 PM 0.01 32.018 0.144 7.24 2.03 13.94
12/20/2020 6:00:00 PM 0.02 32.036 0.144 7.23 2.3 13.92
12/20/2020 6:15:00 PM 0.03 32.054 0.144 7.22 2.09 13.91
12/20/2020 6:30:00 PM 0.03 32.054 0.144 7.22 2.06 13.89
12/20/2020 6:45:00 PM 0.04 32.072 0.145 7.22 2.17 13.89
12/20/2020 7:00:00 PM 0.05 32.09 0.145 7.2 2.08 13.88
12/20/2020 7:15:00 PM 0.05 32.09 0.145 7.21 2.04 13.87
12/20/2020 7:30:00 PM 0.06 32.108 0.145 7.21 2.03 13.88
12/20/2020 7:45:00 PM 0.07 32.126 0.145 7.21 2.03 13.87
12/20/2020 8:00:00 PM 0.07 32.126 0.145 7.21 2.05 13.86
12/20/2020 8:15:00 PM 0.09 32.162 0.145 7.21 2.05 13.87
12/20/2020 8:30:00 PM 0.1 32.18 0.145 7.21 2.04 13.86
12/20/2020 8:45:00 PM 0.11 32.198 0.145 7.19 2.11 13.86
12/20/2020 9:00:00 PM 0.12 32.216 0.145 7.2 2.04 13.86
12/20/2020 9:15:00 PM 0.13 32.234 0.145 7.2 2.07 13.86
12/20/2020 9:30:00 PM 0.14 32.252 0.145 7.19 2.04 13.85
12/20/2020 9:45:00 PM 0.16 32.288 0.145 7.19 2.15 13.86
12/20/2020 10:00:00 PM 0.16 32.288 0.145 7.2 2.06 13.86
12/20/2020 10:15:00 PM 0.17 32.306 0.145 7.2 2.08 13.86
12/20/2020 10:30:00 PM 0.17 32.306 0.146 7.19 2.04 13.87
12/20/2020 10:45:00 PM 0.18 32.324 0.146 7.19 2.05 13.87
12/20/2020 11:00:00 PM 0.18 32.324 0.146 7.19 2.06 13.88
12/20/2020 11:15:00 PM 0.18 32.324 0.146 7.2 2.1 13.88
12/20/2020 11:30:00 PM 0.19 32.342 0.146 7.19 2.07 13.89
12/20/2020 11:45:00 PM 0.2 32.36 0.146 7.19 2 13.88
12/21/2020 12:00:00 AM 0.21 32.378 0.145 7.19 2.04 13.89
12/21/2020 12:15:00 AM 0.21 32.378 0.145 7.19 2.26 13.88
12/21/2020 12:30:00 AM 0.22 32.396 0.145 7.17 2.07 13.88
12/21/2020 12:45:00 AM 0.23 32.414 0.145 7.19 2.01 13.89
12/21/2020 1:00:00 AM 0.24 32.432 0.145 7.19 2.01 13.89
12/21/2020 1:15:00 AM 0.25 32.45 0.145 7.19 2.08 13.89
12/21/2020 1:30:00 AM 0.25 32.45 0.145 7.19 2.07 13.9
12/21/2020 1:45:00 AM 0.26 32.468 0.145 7.19 2.09 13.9
12/21/2020 2:00:00 AM 0.26 32.468 0.145 7.19 2.13 13.9
12/21/2020 2:15:00 AM 0.26 32.468 0.145 7.18 2.11 13.9
12/21/2020 2:30:00 AM 0.26 32.468 0.145 7.18 2.07 13.91
12/21/2020 2:45:00 AM 0.26 32.468 0.145 7.19 2.03 13.92
12/21/2020 3:00:00 AM 0.26 32.468 0.145 7.19 2.06 13.93
12/21/2020 3:15:00 AM 0.27 32.486 0.145 7.19 2.06 13.93
12/21/2020 3:30:00 AM 0.28 32.504 0.145 7.19 2.03 13.94
12/21/2020 3:45:00 AM 0.29 32.522 0.145 7.19 2.34 13.94
12/21/2020 4:00:00 AM 0.29 32.522 0.145 7.19 2.22 13.94
12/21/2020 4:15:00 AM 0.29 32.522 0.145 7.19 2.05 13.95
12/21/2020 4:30:00 AM 0.28 32.504 0.145 7.19 2.06 13.95
12/21/2020 4:45:00 AM 0.27 32.486 0.146 7.19 2.41 13.96
12/21/2020 5:00:00 AM 0.26 32.468 0.146 7.19 2.05 13.97
12/21/2020 5:15:00 AM 0.27 32.486 0.146 7.18 2.09 13.97
12/21/2020 5:30:00 AM 0.27 32.486 0.146 7.18 2.11 13.97
12/21/2020 5:45:00 AM 0.28 32.504 0.146 7.18 2.08 13.98
12/21/2020 6:00:00 AM 0.28 32.504 0.146 7.19 2.04 13.98
12/21/2020 6:15:00 AM 0.29 32.522 0.146 7.19 2.06 13.98
12/21/2020 6:30:00 AM 0.3 32.54 0.146 7.19 2.04 13.98
12/21/2020 6:45:00 AM 0.3 32.54 0.146 7.19 2.11 13.98
12/21/2020 7:00:00 AM 0.3 32.54 0.146 7.19 2.07 13.99
12/21/2020 7:15:00 AM 0.31 32.558 0.146 7.19 2.02 13.99
12/21/2020 7:30:00 AM 0.31 32.558 0.146 7.19 2.24 13.99
12/21/2020 7:45:00 AM 0.3 32.54 0.146 7.19 2.06 14
12/21/2020 8:00:00 AM 0.29 32.522 0.146 7.19 2.03 14.05
12/21/2020 8:15:00 AM 0.29 32.522 0.146 7.2 2.31 14.09
12/21/2020 8:30:00 AM 0.3 32.54 0.146 7.21 2.03 14.13
12/21/2020 8:45:00 AM 0.32 32.576 0.146 7.22 2 14.18
12/21/2020 9:00:00 AM 0.34 32.612 0.145 7.23 2 14.23
12/21/2020 9:15:00 AM 0.37 32.666 0.145 7.24 1.98 14.28
12/21/2020 9:30:00 AM 0.4 32.72 0.145 7.25 2.07 14.31
12/21/2020 9:45:00 AM 0.44 32.792 0.145 7.26 2.01 14.35
12/21/2020 10:00:00 AM 0.48 32.864 0.145 7.27 1.99 14.36
12/21/2020 10:15:00 AM 0.53 32.954 0.144 7.28 2.02 14.38
12/21/2020 10:30:00 AM 0.58 33.044 0.144 7.29 1.99 14.39
12/21/2020 10:45:00 AM 0.61 33.098 0.144 7.3 1.97 14.39
12/21/2020 11:00:00 AM 0.64 33.152 0.144 7.3 2 14.38
12/21/2020 11:15:00 AM 0.66 33.188 0.144 7.31 2.04 14.37
12/21/2020 11:30:00 AM 0.7 33.26 0.144 7.31 2.02 14.37
12/21/2020 11:45:00 AM 0.75 33.35 0.144 7.31 2.06 14.37
12/21/2020 12:00:00 PM 0.79 33.422 0.144 7.32 1.97 14.36
12/21/2020 12:15:00 PM 0.85 33.53 0.143 7.32 2 14.34
12/21/2020 12:30:00 PM 0.88 33.584 0.143 7.33 1.98 14.33
12/21/2020 12:45:00 PM 0.92 33.656 0.143 7.33 2.06 14.32
12/21/2020 1:00:00 PM 0.97 33.746 0.143 7.33 2.04 14.32
12/21/2020 1:15:00 PM 1.03 33.854 0.143 7.34 1.97 14.3
12/21/2020 1:30:00 PM 1.07 33.926 0.143 7.34 3.95 14.29
12/21/2020 1:45:00 PM 1.1 33.98 0.143 7.34 1.96 14.27
12/21/2020 2:00:00 PM 1.15 34.07 0.143 7.34 1.98 14.25
12/21/2020 2:15:00 PM 1.17 34.106 0.143 7.34 2.04 14.24
12/21/2020 2:30:00 PM 1.23 34.214 0.143 7.35 2.1 14.23
12/21/2020 2:45:00 PM 1.27 34.286 0.143 7.35 2.02 14.21
12/21/2020 3:00:00 PM 1.28 34.304 0.143 7.35 1.97 14.19
12/21/2020 3:15:00 PM 1.29 34.322 0.143 7.35 2.02 14.17
12/21/2020 3:30:00 PM 1.29 34.322 0.143 7.35 2.02 14.14
12/21/2020 3:45:00 PM 1.29 34.322 0.143 7.34 1.98 14.12
12/21/2020 4:00:00 PM 1.28 34.304 0.143 7.34 2.06 14.08
12/21/2020 4:15:00 PM 1.11 33.998 0.153 7.32 2.24 14.03
12/21/2020 4:30:00 PM 1.16 34.088 0.148 7.32 2.02 13.97
12/21/2020 4:45:00 PM 1.22 34.196 0.146 7.29 2.11 13.92
12/21/2020 5:00:00 PM 1.23 34.214 0.146 7.3 2.05 13.87
12/21/2020 5:15:00 PM 1.22 34.196 0.147 7.29 2.04 13.82
12/21/2020 5:30:00 PM 1.19 34.142 0.147 7.27 2.07 13.79
12/21/2020 5:45:00 PM 1.18 34.124 0.146 7.27 2.09 13.77
12/21/2020 6:00:00 PM 1.16 34.088 0.145 7.26 2.11 13.74
12/21/2020 6:15:00 PM 1.14 34.052 0.145 7.26 2.04 13.73
12/21/2020 6:30:00 PM 1.14 34.052 0.145 7.25 2.17 13.72
12/21/2020 6:45:00 PM 1.16 34.088 0.144 7.25 2.03 13.71
12/21/2020 7:00:00 PM 1.17 34.106 0.144 7.24 2.08 13.71
12/21/2020 7:15:00 PM 1.16 34.088 0.144 7.24 2.01 13.71
12/21/2020 7:30:00 PM 1.15 34.07 0.144 7.24 2.07 13.71
12/21/2020 7:45:00 PM 1.14 34.052 0.144 7.22 2.04 13.7
12/21/2020 8:00:00 PM 1.12 34.016 0.144 7.23 2.04 13.71
12/21/2020 8:15:00 PM 1.11 33.998 0.144 7.23 2.01 13.72
12/21/2020 8:30:00 PM 1.1 33.98 0.144 7.22 2.05 13.72
12/21/2020 8:45:00 PM 1.08 33.944 0.144 7.22 2.11 13.72
12/21/2020 9:00:00 PM 1.05 33.89 0.144 7.22 2.01 13.73
12/21/2020 9:15:00 PM 1.04 33.872 0.144 7.22 2.02 13.73
12/21/2020 9:30:00 PM 1.02 33.836 0.144 7.21 2.12 13.74
12/21/2020 9:45:00 PM 1.01 33.818 0.144 7.21 2.02 13.75
12/21/2020 10:00:00 PM 0.99 33.782 0.144 7.21 2.07 13.75
12/21/2020 10:15:00 PM 0.98 33.764 0.144 7.21 1.99 13.75
12/21/2020 10:30:00 PM 0.97 33.746 0.144 7.21 2.06 13.76
12/21/2020 10:45:00 PM 0.96 33.728 0.144 7.21 2.08 13.75
12/21/2020 11:00:00 PM 0.95 33.71 0.144 7.19 2.01 13.76
12/21/2020 11:15:00 PM 0.93 33.674 0.144 7.2 1.98 13.77
12/21/2020 11:30:00 PM 0.93 33.674 0.144 7.2 1.99 13.77
12/21/2020 11:45:00 PM 0.93 33.674 0.144 7.2 2.04 13.77
12/22/2020 12:00:00 AM 0.93 33.674 0.144 7.2 2.04 13.77
12/22/2020 12:15:00 AM 0.92 33.656 0.144 7.2 1.98 13.77
12/22/2020 12:30:00 AM 0.91 33.638 0.144 7.2 2.02 13.78
12/22/2020 12:45:00 AM 0.91 33.638 0.144 7.2 2.05 13.77
12/22/2020 1:00:00 AM 0.91 33.638 0.144 7.19 1.98 13.78
12/22/2020 1:15:00 AM 0.9 33.62 0.144 7.2 2 13.78
12/22/2020 1:30:00 AM 0.89 33.602 0.144 7.2 2.03 13.79
12/22/2020 1:45:00 AM 0.89 33.602 0.144 7.19 2 13.78
12/22/2020 2:00:00 AM 0.89 33.602 0.144 7.2 2.03 13.79
12/22/2020 2:15:00 AM 0.89 33.602 0.144 7.19 2.01 13.79
12/22/2020 2:30:00 AM 0.89 33.602 0.144 7.19 2.02 13.78
12/22/2020 2:45:00 AM 0.88 33.584 0.144 7.19 1.99 13.79
12/22/2020 3:00:00 AM 0.87 33.566 0.144 7.18 2 13.79
12/22/2020 3:15:00 AM 0.88 33.584 0.144 7.2 1.99 13.79
12/22/2020 3:30:00 AM 0.88 33.584 0.144 7.18 2 13.79
12/22/2020 3:45:00 AM 0.88 33.584 0.144 7.19 2.03 13.79
12/22/2020 4:00:00 AM 0.88 33.584 0.144 7.18 2.01 13.79
12/22/2020 4:15:00 AM 0.88 33.584 0.144 7.19 2 13.79
12/22/2020 4:30:00 AM 0.86 33.548 0.144 7.18 1.98 13.79
12/22/2020 4:45:00 AM 0.86 33.548 0.144 7.19 2 13.79
12/22/2020 5:00:00 AM 0.86 33.548 0.144 7.18 2.03 13.79
12/22/2020 5:15:00 AM 0.86 33.548 0.144 7.19 1.96 13.8
12/22/2020 5:30:00 AM 0.86 33.548 0.144 7.18 2.02 13.8
12/22/2020 5:45:00 AM 0.85 33.53 0.144 7.19 1.99 13.8
12/22/2020 6:00:00 AM 0.86 33.548 0.144 7.19 2 13.81
12/22/2020 6:15:00 AM 0.84 33.512 0.144 7.18 2.06 13.8
12/22/2020 6:30:00 AM 0.84 33.512 0.144 7.19 1.99 13.81
12/22/2020 6:45:00 AM 0.84 33.512 0.144 7.19 2.07 13.82
12/22/2020 7:00:00 AM 0.84 33.512 0.144 7.19 2.01 13.82
12/22/2020 7:15:00 AM 0.84 33.512 0.144 7.19 2 13.82
12/22/2020 7:30:00 AM 0.85 33.53 0.144 7.18 2 13.83
12/22/2020 7:45:00 AM 0.84 33.512 0.144 7.18 2 13.84
12/22/2020 8:00:00 AM 0.86 33.548 0.144 7.19 1.98 13.86
12/22/2020 8:15:00 AM 0.87 33.566 0.144 7.19 1.97 13.89
12/22/2020 8:30:00 AM 0.88 33.584 0.143 7.2 1.98 13.93
12/22/2020 8:45:00 AM 0.9 33.62 0.143 7.21 1.99 13.97
12/22/2020 9:00:00 AM 0.92 33.656 0.143 7.22 2.02 14.01
12/22/2020 9:15:00 AM 0.95 33.71 0.143 7.23 2 14.05
12/22/2020 9:30:00 AM 0.97 33.746 0.143 7.24 1.97 14.09
12/22/2020 9:45:00 AM 1 33.8 0.143 7.24 1.98 14.12
12/22/2020 10:00:00 AM 1.03 33.854 0.143 7.25 2.06 14.16
12/22/2020 10:15:00 AM 1.07 33.926 0.143 7.26 1.97 14.2
12/22/2020 10:30:00 AM 1.14 34.052 0.143 7.27 1.99 14.22
12/22/2020 10:45:00 AM 1.2 34.16 0.143 7.27 1.94 14.25
12/22/2020 11:00:00 AM 1.26 34.268 0.143 7.29 1.97 14.26
12/22/2020 11:15:00 AM 1.34 34.412 0.143 7.31 1.97 14.27
12/22/2020 11:30:00 AM 1.39 34.502 0.142 7.31 1.96 14.28
12/22/2020 11:45:00 AM 1.51 34.718 0.142 7.32 1.96 14.28
12/22/2020 12:00:00 PM 1.66 34.988 0.142 7.32 1.95 14.27
12/22/2020 12:15:00 PM 1.75 35.15 0.142 7.34 1.93 14.25
12/22/2020 12:30:00 PM 1.77 35.186 0.142 7.34 1.97 14.22
12/22/2020 12:45:00 PM 1.81 35.258 0.142 7.34 1.95 14.2
12/22/2020 1:00:00 PM 1.82 35.276 0.142 7.34 1.96 14.2
12/22/2020 1:15:00 PM 1.8 35.24 0.142 7.34 1.94 14.19
12/22/2020 1:30:00 PM 1.78 35.204 0.142 7.34 1.93 14.18
12/22/2020 1:45:00 PM 1.76 35.168 0.142 7.34 1.9 14.18
12/22/2020 2:00:00 PM 1.8 35.24 0.142 7.34 2.16 14.19
12/22/2020 2:15:00 PM 1.84 35.312 0.142 7.35 1.94 14.2
12/22/2020 2:30:00 PM 1.85 35.33 0.142 7.35 1.99 14.2
12/22/2020 2:45:00 PM 1.84 35.312 0.142 7.35 1.97 14.18
12/22/2020 3:00:00 PM 1.82 35.276 0.142 7.35 1.97 14.16
12/22/2020 3:15:00 PM 1.79 35.222 0.142 7.34 1.95 14.14
12/22/2020 3:30:00 PM 1.77 35.186 0.142 7.34 1.98 14.12
12/22/2020 3:45:00 PM 1.75 35.15 0.142 7.34 2.03 14.12
12/22/2020 4:00:00 PM 1.73 35.114 0.142 7.33 1.95 14.1
12/22/2020 4:15:00 PM 1.71 35.078 0.142 7.33 1.91 14.08
12/22/2020 4:30:00 PM 1.69 35.042 0.142 7.33 1.94 14.07
12/22/2020 4:45:00 PM 1.65 34.97 0.142 7.32 2.02 14.03
12/22/2020 5:00:00 PM 1.61 34.898 0.142 7.31 1.92 13.98
12/22/2020 5:15:00 PM 1.58 34.844 0.143 7.29 1.98 13.94
12/22/2020 5:30:00 PM 1.55 34.79 0.143 7.29 1.97 13.91
12/22/2020 5:45:00 PM 1.51 34.718 0.143 7.28 1.96 13.88
12/22/2020 6:00:00 PM 1.48 34.664 0.143 7.27 2.01 13.87
12/22/2020 6:15:00 PM 1.46 34.628 0.143 7.27 1.94 13.86
12/22/2020 6:30:00 PM 1.44 34.592 0.143 7.26 2.03 13.86
12/22/2020 6:45:00 PM 1.42 34.556 0.143 7.26 1.96 13.85
12/22/2020 7:00:00 PM 1.4 34.52 0.144 7.25 1.97 13.85
12/22/2020 7:15:00 PM 1.37 34.466 0.144 7.25 2.04 13.86
12/22/2020 7:30:00 PM 1.35 34.43 0.144 7.25 1.97 13.87
12/22/2020 7:45:00 PM 1.33 34.394 0.144 7.25 1.95 13.87
12/22/2020 8:00:00 PM 1.31 34.358 0.144 7.24 1.99 13.87
12/22/2020 8:15:00 PM 1.29 34.322 0.144 7.24 2.02 13.88
12/22/2020 8:30:00 PM 1.27 34.286 0.144 7.24 1.96 13.88
12/22/2020 8:45:00 PM 1.25 34.25 0.144 7.23 1.97 13.89
12/22/2020 9:00:00 PM 1.23 34.214 0.145 7.24 2.01 13.9
12/22/2020 9:15:00 PM 1.21 34.178 0.145 7.24 2.01 13.91
12/22/2020 9:30:00 PM 1.19 34.142 0.145 7.24 1.98 13.92
12/22/2020 9:45:00 PM 1.18 34.124 0.145 7.23 2.08 13.92
12/22/2020 10:00:00 PM 1.16 34.088 0.145 7.24 1.98 13.94
12/22/2020 10:15:00 PM 1.15 34.07 0.145 7.24 1.97 13.94
12/22/2020 10:30:00 PM 1.13 34.034 0.145 7.23 1.96 13.95
12/22/2020 10:45:00 PM 1.11 33.998 0.145 7.24 1.99 13.95
12/22/2020 11:00:00 PM 1.08 33.944 0.145 7.23 1.95 13.96
12/22/2020 11:15:00 PM 1.04 33.872 0.146 7.23 1.95 13.98
12/22/2020 11:30:00 PM 1 33.8 0.146 7.23 2 13.99
12/22/2020 11:45:00 PM 0.95 33.71 0.146 7.22 1.95 14
12/23/2020 12:00:00 AM 0.89 33.602 0.146 7.22 1.99 14.02
12/23/2020 12:15:00 AM 0.84 33.512 0.146 7.22 1.97 14.03
12/23/2020 12:30:00 AM 0.79 33.422 0.146 7.22 1.99 14.04
12/23/2020 12:45:00 AM 0.75 33.35 0.146 7.22 1.97 14.06
12/23/2020 1:00:00 AM 0.71 33.278 0.146 7.22 1.99 14.08
12/23/2020 1:15:00 AM 0.67 33.206 0.146 7.21 2 14.09
12/23/2020 1:30:00 AM 0.66 33.188 0.145 7.22 2.01 14.11
12/23/2020 1:45:00 AM 0.66 33.188 0.145 7.22 1.98 14.11
12/23/2020 2:00:00 AM 0.67 33.206 0.145 7.23 1.97 14.11
12/23/2020 2:15:00 AM 0.68 33.224 0.145 7.23 2 14.13
12/23/2020 2:30:00 AM 0.67 33.206 0.145 7.23 1.98 14.13
12/23/2020 2:45:00 AM 0.64 33.152 0.145 7.22 2.02 14.13
12/23/2020 3:00:00 AM 0.61 33.098 0.145 7.22 1.98 14.14
12/23/2020 3:15:00 AM 0.58 33.044 0.145 7.22 1.98 14.16
12/23/2020 3:30:00 AM 0.53 32.954 0.145 7.22 1.98 14.18
12/23/2020 3:45:00 AM 0.52 32.936 0.145 7.22 1.98 14.19
12/23/2020 4:00:00 AM 0.52 32.936 0.145 7.22 1.93 14.18
12/23/2020 4:15:00 AM 0.52 32.936 0.145 7.22 2 14.2
12/23/2020 4:30:00 AM 0.52 32.936 0.145 7.23 2 14.2
12/23/2020 4:45:00 AM 0.52 32.936 0.145 7.22 1.95 14.2
12/23/2020 5:00:00 AM 0.5 32.9 0.145 7.22 2.03 14.22
12/23/2020 5:15:00 AM 0.47 32.846 0.144 7.2 2 14.23
12/23/2020 5:30:00 AM 0.43 32.774 0.144 7.21 2.04 14.24
12/23/2020 5:45:00 AM 0.39 32.702 0.144 7.22 1.98 14.26
12/23/2020 6:00:00 AM 0.35 32.63 0.144 7.22 2.05 14.27
12/23/2020 6:15:00 AM 0.31 32.558 0.144 7.22 2.01 14.29
12/23/2020 6:30:00 AM 0.28 32.504 0.144 7.22 2.01 14.3
12/23/2020 6:45:00 AM 0.25 32.45 0.144 7.22 2.13 14.31
12/23/2020 7:00:00 AM 0.24 32.432 0.144 7.21 1.99 14.31
12/23/2020 7:15:00 AM 0.23 32.414 0.144 7.22 1.97 14.32
12/23/2020 7:30:00 AM 0.21 32.378 0.144 7.22 2.01 14.33
12/23/2020 7:45:00 AM 0.19 32.342 0.144 7.21 1.97 14.35
12/23/2020 8:00:00 AM 0.18 32.324 0.144 7.22 2 14.38
12/23/2020 8:15:00 AM 0.17 32.306 0.144 7.23 1.96 14.44
12/23/2020 8:30:00 AM 0.17 32.306 0.144 7.23 1.95 14.49
12/23/2020 8:45:00 AM 0.18 32.324 0.144 7.26 1.99 14.54
12/23/2020 9:00:00 AM 0.21 32.378 0.144 7.26 1.99 14.59
12/23/2020 9:15:00 AM 0.26 32.468 0.144 7.28 2 14.63
12/23/2020 9:30:00 AM 0.31 32.558 0.144 7.28 2.03 14.66
12/23/2020 9:45:00 AM 0.37 32.666 0.144 7.29 2.01 14.68
12/23/2020 10:00:00 AM 0.45 32.81 0.144 7.3 2 14.7
12/23/2020 10:15:00 AM 0.53 32.954 0.144 7.31 2.02 14.7
12/23/2020 10:30:00 AM 0.61 33.098 0.144 7.32 1.98 14.71
12/23/2020 10:45:00 AM 0.68 33.224 0.144 7.33 2.02 14.7
12/23/2020 11:00:00 AM 0.77 33.386 0.143 7.33 1.96 14.7
12/23/2020 11:15:00 AM 0.87 33.566 0.143 7.33 1.98 14.69
12/23/2020 11:30:00 AM 1.02 33.836 0.143 7.34 1.97 14.67
12/23/2020 11:45:00 AM 1.16 34.088 0.143 7.35 1.95 14.64
12/23/2020 12:00:00 PM 1.3 34.34 0.143 7.36 1.97 14.61
12/23/2020 12:15:00 PM 1.41 34.538 0.143 7.36 1.94 14.58
12/23/2020 12:30:00 PM 1.54 34.772 0.143 7.36 1.97 14.55
12/23/2020 12:45:00 PM 1.66 34.988 0.143 7.37 1.97 14.52
12/23/2020 1:00:00 PM 1.78 35.204 0.142 7.37 1.93 14.49
12/23/2020 1:15:00 PM 1.9 35.42 0.142 7.37 1.91 14.45
12/23/2020 1:30:00 PM 1.98 35.564 0.142 7.38 1.98 14.41
12/23/2020 1:45:00 PM 2.04 35.672 0.142 7.38 1.93 14.38
12/23/2020 2:00:00 PM 2.08 35.744 0.142 7.37 1.89 14.35
12/23/2020 2:15:00 PM 2.09 35.762 0.142 7.37 1.92 14.32
12/23/2020 2:30:00 PM 2.11 35.798 0.142 7.37 2.01 14.3
12/23/2020 2:45:00 PM 2.11 35.798 0.142 7.36 1.91 14.28
12/23/2020 3:00:00 PM 2.09 35.762 0.142 7.37 1.97 14.26
12/23/2020 3:15:00 PM 2.04 35.672 0.142 7.36 1.91 14.24
12/23/2020 3:30:00 PM 2 35.6 0.142 7.35 1.93 14.23
12/23/2020 3:45:00 PM 1.96 35.528 0.142 7.35 1.96 14.21
12/23/2020 4:00:00 PM 1.88 35.384 0.142 7.34 1.92 14.17
12/23/2020 4:15:00 PM 1.83 35.294 0.142 7.33 1.95 14.13
12/23/2020 4:30:00 PM 1.78 35.204 0.143 7.33 1.92 14.08
12/23/2020 4:45:00 PM 1.74 35.132 0.143 7.31 1.99 14.04
12/23/2020 5:00:00 PM 1.7 35.06 0.143 7.31 2 13.99
12/23/2020 5:15:00 PM 1.67 35.006 0.143 7.3 1.96 13.94
12/23/2020 5:30:00 PM 1.64 34.952 0.143 7.29 1.93 13.9
12/23/2020 5:45:00 PM 1.61 34.898 0.143 7.28 1.99 13.87
12/23/2020 6:00:00 PM 1.59 34.862 0.143 7.27 1.94 13.85
12/23/2020 6:15:00 PM 1.57 34.826 0.143 7.27 1.98 13.84
12/23/2020 6:30:00 PM 1.55 34.79 0.143 7.27 1.99 13.82
12/23/2020 6:45:00 PM 1.54 34.772 0.143 7.26 1.98 13.81
12/23/2020 7:00:00 PM 1.52 34.736 0.143 7.26 2.02 13.81
12/23/2020 7:15:00 PM 1.5 34.7 0.143 7.25 1.95 13.8
12/23/2020 7:30:00 PM 1.48 34.664 0.144 7.25 2 13.8
12/23/2020 7:45:00 PM 1.46 34.628 0.144 7.25 2.03 13.8
12/23/2020 8:00:00 PM 1.44 34.592 0.144 7.24 2.02 13.8
12/23/2020 8:15:00 PM 1.41 34.538 0.144 7.24 1.95 13.81
12/23/2020 8:30:00 PM 1.38 34.484 0.144 7.24 1.91 13.82
12/23/2020 8:45:00 PM 1.34 34.412 0.144 7.24 2.02 13.83
12/23/2020 9:00:00 PM 1.3 34.34 0.144 7.22 1.96 13.85
12/23/2020 9:15:00 PM 1.25 34.25 0.144 7.23 1.99 13.85
12/23/2020 9:30:00 PM 1.21 34.178 0.144 7.23 1.98 13.86
12/23/2020 9:45:00 PM 1.17 34.106 0.144 7.22 2.03 13.87
12/23/2020 10:00:00 PM 1.12 34.016 0.144 7.21 1.96 13.89
12/23/2020 10:15:00 PM 1.08 33.944 0.144 7.22 1.96 13.91
12/23/2020 10:30:00 PM 1.05 33.89 0.144 7.22 2 13.92
12/23/2020 10:45:00 PM 1.04 33.872 0.144 7.23 2.69 13.93
12/23/2020 11:00:00 PM 1.02 33.836 0.144 7.23 1.99 13.93
12/23/2020 11:15:00 PM 1 33.8 0.144 7.23 1.97 13.94
12/23/2020 11:30:00 PM 0.99 33.782 0.144 7.22 1.97 13.94
12/23/2020 11:45:00 PM 0.98 33.764 0.144 7.23 1.97 13.95
12/24/2020 12:00:00 AM 0.96 33.728 0.144 7.23 1.96 13.95
12/24/2020 12:15:00 AM 0.93 33.674 0.144 7.23 1.97 13.96
12/24/2020 12:30:00 AM 0.9 33.62 0.144 7.23 1.96 13.97
12/24/2020 12:45:00 AM 0.87 33.566 0.145 7.22 1.98 13.97
12/24/2020 1:00:00 AM 0.84 33.512 0.145 7.22 1.98 13.98
12/24/2020 1:15:00 AM 0.83 33.494 0.145 7.23 1.96 13.98
12/24/2020 1:30:00 AM 0.8 33.44 0.145 7.23 1.97 13.99
12/24/2020 1:45:00 AM 0.8 33.44 0.145 7.22 1.98 13.99
12/24/2020 2:00:00 AM 0.81 33.458 0.145 7.23 1.97 13.98
12/24/2020 2:15:00 AM 0.81 33.458 0.145 7.23 1.99 13.99
12/24/2020 2:30:00 AM 0.81 33.458 0.145 7.22 1.98 13.98
12/24/2020 2:45:00 AM 0.81 33.458 0.145 7.23 1.97 13.98
12/24/2020 3:00:00 AM 0.8 33.44 0.144 7.23 1.99 13.98
12/24/2020 3:15:00 AM 0.79 33.422 0.144 7.23 2.02 13.98
12/24/2020 3:30:00 AM 0.8 33.44 0.144 7.23 1.98 13.97
12/24/2020 3:45:00 AM 0.84 33.512 0.144 7.23 1.98 13.97
12/24/2020 4:00:00 AM 0.88 33.584 0.144 7.24 1.98 13.96
12/24/2020 4:15:00 AM 0.9 33.62 0.144 7.23 1.97 13.95
12/24/2020 4:30:00 AM 0.91 33.638 0.144 7.23 2.01 13.95
12/24/2020 4:45:00 AM 0.94 33.692 0.144 7.23 1.98 13.94
12/24/2020 5:00:00 AM 0.98 33.764 0.144 7.23 1.97 13.93
12/24/2020 5:15:00 AM 1.01 33.818 0.144 7.23 2 13.92
12/24/2020 5:30:00 AM 1.05 33.89 0.144 7.23 1.95 13.91
12/24/2020 5:45:00 AM 1.08 33.944 0.144 7.24 1.97 13.89
12/24/2020 6:00:00 AM 1.12 34.016 0.144 7.24 1.98 13.88
12/24/2020 6:15:00 AM 1.15 34.07 0.144 7.24 2.01 13.87
12/24/2020 6:30:00 AM 1.2 34.16 0.144 7.24 1.98 13.85
12/24/2020 6:45:00 AM 1.24 34.232 0.144 7.23 1.97 13.83
12/24/2020 7:00:00 AM 1.28 34.304 0.144 7.24 1.95 13.81
12/24/2020 7:15:00 AM 1.32 34.376 0.143 7.24 2.09 13.8
12/24/2020 7:30:00 AM 1.36 34.448 0.144 7.24 1.96 13.79
12/24/2020 7:45:00 AM 1.38 34.484 0.144 7.23 2.03 13.77
12/24/2020 8:00:00 AM 1.41 34.538 0.143 7.23 2.06 13.76
12/24/2020 8:15:00 AM 1.45 34.61 0.142 7.24 2.1 13.76
12/24/2020 8:30:00 AM 1.49 34.682 0.142 7.23 2.9 13.77
12/24/2020 8:45:00 AM 1.53 34.754 0.145 7.25 2.79 13.79
12/24/2020 9:00:00 AM 1.55 34.79 0.147 7.26 3.28 13.8
12/24/2020 9:15:00 AM 1.57 34.826 0.147 7.27 3.44 13.8
12/24/2020 9:30:00 AM 1.6 34.88 0.149 7.28 4.15 13.8
12/24/2020 9:45:00 AM 1.63 34.934 0.149 7.3 4.49 13.82
12/24/2020 10:00:00 AM 1.67 35.006 0.147 7.3 4.04 13.81
12/24/2020 10:15:00 AM 1.7 35.06 0.145 7.29 3.56 13.81
12/24/2020 10:30:00 AM 1.72 35.096 0.145 7.28 3.21 13.82
12/24/2020 10:45:00 AM 1.74 35.132 0.144 7.28 3.17 13.82
12/24/2020 11:00:00 AM 1.76 35.168 0.144 7.28 3.2 13.83
12/24/2020 11:15:00 AM 1.78 35.204 0.146 7.29 3.4 13.82
12/24/2020 11:30:00 AM 1.8 35.24 0.147 7.29 4.04 13.82
12/24/2020 11:45:00 AM 1.83 35.294 0.145 7.3 3.57 13.82
12/24/2020 12:00:00 PM 1.86 35.348 0.144 7.3 3.22 13.81
12/24/2020 12:15:00 PM 1.88 35.384 0.143 7.29 3.21 13.82
12/24/2020 12:30:00 PM 1.89 35.402 0.143 7.28 3.12 13.82
12/24/2020 12:45:00 PM 1.9 35.42 0.144 7.29 3.06 13.81
12/24/2020 1:00:00 PM 1.92 35.456 0.145 7.28 2.96 13.8
12/24/2020 1:15:00 PM 1.94 35.492 0.144 7.29 3.25 13.79
12/24/2020 1:30:00 PM 1.95 35.51 0.145 7.3 4.16 13.77
12/24/2020 1:45:00 PM 1.96 35.528 0.144 7.3 4.32 13.75
12/24/2020 2:00:00 PM 1.97 35.546 0.144 7.31 4.79 13.73
12/24/2020 2:15:00 PM 1.98 35.564 0.14 7.27 3.98 13.71
12/24/2020 2:30:00 PM 1.98 35.564 0.138 7.29 3.68 13.69
12/24/2020 2:45:00 PM 1.98 35.564 0.14 7.26 3.74 13.66
12/24/2020 3:00:00 PM 1.97 35.546 0.143 7.26 4.12 13.64
12/24/2020 3:15:00 PM 1.94 35.492 0.156 7.27 9.75 13.6
12/24/2020 3:30:00 PM 1.89 35.402 0.157 7.3 15.12 13.56
12/24/2020 3:45:00 PM 1.89 35.402 0.139 7.3 14.16 13.52
12/24/2020 4:00:00 PM 1.98 35.564 0.136 7.28 15.17 13.48
12/24/2020 4:15:00 PM 2.03 35.654 0.131 7.27 20.73 13.44
12/24/2020 4:30:00 PM 2.07 35.726 0.13 7.23 22.42 13.4
12/24/2020 4:45:00 PM 2.12 35.816 0.127 7.15 28.83 13.36
12/24/2020 5:00:00 PM 2.17 35.906 0.125 7.13 33.38 13.31
12/24/2020 5:15:00 PM 2.2 35.96 0.121 7.15 26.24 13.29
12/24/2020 5:30:00 PM 2.23 36.014 0.115 7.09 23.07 13.26
12/24/2020 5:45:00 PM 2.28 36.104 0.107 7.02 34.79 13.22
12/24/2020 6:00:00 PM 2.36 36.248 0.101 7.01 25.73 13.16
12/24/2020 6:15:00 PM 2.45 36.41 0.096 6.97 36.43 13.12
12/24/2020 6:30:00 PM 2.53 36.554 0.092 6.97 30.77 13.07
12/24/2020 6:45:00 PM 2.59 36.662 0.089 6.91 37.97 13.04
12/24/2020 7:00:00 PM 2.6 36.68 0.088 6.85 40.21 13.03
12/24/2020 7:15:00 PM 2.59 36.662 0.087 6.84 45.82 13.02
12/24/2020 7:30:00 PM 2.56 36.608 0.088 6.87 59.79 13.03
12/24/2020 7:45:00 PM 2.54 36.572 0.091 6.93 65.58 13.06
12/24/2020 8:00:00 PM 2.52 36.536 0.098 6.86 68.14 13.12
12/24/2020 8:15:00 PM 2.4 36.32 0.104 6.86 67.69 13.19
12/24/2020 8:30:00 PM 2.26 36.068 0.109 6.82 63.93 13.27
12/24/2020 8:45:00 PM 2.27 36.086 0.113 6.81 50.9 13.32
12/24/2020 9:00:00 PM 2.24 36.032 0.116 6.75 54.87 13.37
12/24/2020 9:15:00 PM 2.14 35.852 0.118 6.75 47.97 13.4
12/24/2020 9:30:00 PM 2.13 35.834 0.12 6.77 47.37 13.43
12/24/2020 9:45:00 PM 2.14 35.852 0.121 6.81 61.63 13.51
12/24/2020 10:00:00 PM 2.18 35.924 0.12 6.82 51.62 13.6
12/24/2020 10:15:00 PM 2.11 35.798 0.116 6.91 50.12 13.66
12/24/2020 10:30:00 PM 2.02 35.636 0.109 6.71 43.53 13.71
12/24/2020 10:45:00 PM 1.93 35.474 0.102 6.7 69.28 13.74
12/24/2020 11:00:00 PM 1.87 35.366 0.096 6.69 83.24 13.76
12/24/2020 11:15:00 PM 1.75 35.15 0.091 6.63 89.21 13.82
12/24/2020 11:30:00 PM 1.75 35.15 0.09 6.65 72.54 13.8
12/24/2020 11:45:00 PM 1.79 35.222 0.091 6.74 77.4 13.79
12/25/2020 12:00:00 AM 1.78 35.204 0.088 6.64 61.58 13.81
12/25/2020 12:15:00 AM 1.76 35.168 0.085 6.66 84.92 13.82
12/25/2020 12:30:00 AM 1.78 35.204 0.084 6.66 84.02 13.81
12/25/2020 12:45:00 AM 1.81 35.258 0.082 6.71 116.58 13.81
12/25/2020 1:00:00 AM 1.86 35.348 0.081 6.8 75.11 13.78
12/25/2020 1:15:00 AM 1.93 35.474 0.08 6.8 64.17 13.76
12/25/2020 1:30:00 AM 1.99 35.582 0.081 6.83 87.06 13.73
12/25/2020 1:45:00 AM 2.03 35.654 0.083 6.8 99.83 13.7
12/25/2020 2:00:00 AM 2.08 35.744 0.082 6.8 95.72 13.68
12/25/2020 2:15:00 AM 2.04 35.672 0.082 6.97 116.33 13.7
12/25/2020 2:30:00 AM 2.08 35.744 0.081 6.86 99.26 13.69
12/25/2020 2:45:00 AM 2.11 35.798 0.08 6.77 123.26 13.68
12/25/2020 3:00:00 AM 2.12 35.816 0.079 6.78 100.39 13.69
12/25/2020 3:15:00 AM 2.13 35.834 0.078 6.74 94.4 13.7
12/25/2020 3:30:00 AM 2.14 35.852 0.076 6.74 102.77 13.72
12/25/2020 3:45:00 AM 2.17 35.906 0.074 6.78 81.94 13.73
12/25/2020 4:00:00 AM 2.19 35.942 0.073 6.74 85.04 13.72
12/25/2020 4:15:00 AM 2.21 35.978 0.072 6.77 90.58 13.73
12/25/2020 4:30:00 AM 2.22 35.996 0.072 6.8 130.99 13.72
12/25/2020 4:45:00 AM 2.24 36.032 0.071 6.74 91.7 13.72
12/25/2020 5:00:00 AM 2.25 36.05 0.07 6.76 73.84 13.73
12/25/2020 5:15:00 AM 2.25 36.05 0.069 6.77 92.08 13.73
12/25/2020 5:30:00 AM 2.26 36.068 0.068 6.76 96.91 13.74
12/25/2020 5:45:00 AM 2.26 36.068 0.067 6.76 72.85 13.73
12/25/2020 6:00:00 AM 2.27 36.086 0.067 6.77 82.09 13.74
12/25/2020 6:15:00 AM 2.28 36.104 0.067 6.78 103.78 13.74
12/25/2020 6:30:00 AM 2.3 36.14 0.066 6.77 83.51 13.74
12/25/2020 6:45:00 AM 2.32 36.176 0.065 6.79 96.21 13.74
12/25/2020 7:00:00 AM 2.34 36.212 0.065 6.77 85.4 13.74
12/25/2020 7:15:00 AM 2.37 36.266 0.064 6.75 115.6 13.74
12/25/2020 7:30:00 AM 2.4 36.32 0.064 6.76 112.68 13.73
12/25/2020 7:45:00 AM 2.42 36.356 0.063 6.74 103.99 13.74
12/25/2020 8:00:00 AM 2.44 36.392 0.063 6.7 121.2 13.74
12/25/2020 8:15:00 AM 2.47 36.446 0.062 6.68 84.92 13.74
12/25/2020 8:30:00 AM 2.49 36.482 0.062 6.69 86.8 13.74
12/25/2020 8:45:00 AM 2.52 36.536 0.062 6.65 98.54 13.73
12/25/2020 9:00:00 AM 2.54 36.572 0.061 6.59 83.43 13.73
12/25/2020 9:15:00 AM 2.57 36.626 0.061 6.54 105.63 13.73
12/25/2020 9:30:00 AM 2.59 36.662 0.06 6.61 120.07 13.72
12/25/2020 9:45:00 AM 2.6 36.68 0.06 6.64 111.45 13.73
12/25/2020 10:00:00 AM 2.61 36.698 0.059 6.66 90.63 13.73
12/25/2020 10:15:00 AM 2.61 36.698 0.059 6.69 111.59 13.74
12/25/2020 10:30:00 AM 2.61 36.698 0.059 6.7 94.92 13.73
12/25/2020 10:45:00 AM 2.59 36.662 0.059 6.67 110.88 13.74
12/25/2020 11:00:00 AM 2.59 36.662 0.058 6.62 99.23 13.74
12/25/2020 11:15:00 AM 2.59 36.662 0.058 6.62 101.16 13.74
12/25/2020 11:30:00 AM 2.59 36.662 0.058 6.62 111.71 13.75
12/25/2020 11:45:00 AM 2.58 36.644 0.058 6.6 122.28 13.76
12/25/2020 12:00:00 PM 2.57 36.626 0.058 6.6 159.73 13.77
12/25/2020 12:15:00 PM 2.57 36.626 0.058 6.58 133.2 13.76
12/25/2020 12:30:00 PM 2.55 36.59 0.058 6.57 173.86 13.77
12/25/2020 12:45:00 PM 2.53 36.554 0.057 6.51 118.25 13.78
12/25/2020 1:00:00 PM 2.51 36.518 0.058 6.56 113.18 13.8
12/25/2020 1:15:00 PM 2.49 36.482 0.057 6.56 181.75 13.79
12/25/2020 1:30:00 PM 2.47 36.446 0.057 6.58 194.25 13.81
12/25/2020 1:45:00 PM 2.46 36.428 0.057 6.54 142.17 13.82
12/25/2020 2:00:00 PM 2.44 36.392 0.057 6.53 119.93 13.82
12/25/2020 2:15:00 PM 2.44 36.392 0.057 6.51 128.31 13.83
12/25/2020 2:30:00 PM 2.43 36.374 0.057 6.57 296.92 13.83
12/25/2020 2:45:00 PM 2.41 36.338 0.057 6.61 135.54 13.84
12/25/2020 3:00:00 PM 2.4 36.32 0.057 6.59 147.15 13.84
12/25/2020 3:15:00 PM 2.38 36.284 0.057 6.64 227.31 13.85
12/25/2020 3:30:00 PM 2.37 36.266 0.056 6.65 116.81 13.85
12/25/2020 3:45:00 PM 2.35 36.23 0.056 6.6 158.44 13.87
12/25/2020 4:00:00 PM 2.34 36.212 0.056 6.59 164.35 13.88
12/25/2020 4:15:00 PM 2.33 36.194 0.056 6.62 182.42 13.88
12/25/2020 4:30:00 PM 2.31 36.158 0.056 6.61 268.74 13.89
12/25/2020 4:45:00 PM 2.31 36.158 0.056 6.61 126.4 13.89
12/25/2020 5:00:00 PM 2.29 36.122 0.056 6.64 134.95 13.9
12/25/2020 5:15:00 PM 2.28 36.104 0.055 6.65 129.3 13.91
12/25/2020 5:30:00 PM 2.27 36.086 0.055 6.66 192.4 13.92
12/25/2020 5:45:00 PM 2.26 36.068 0.055 6.68 154.76 13.93
12/25/2020 6:00:00 PM 2.25 36.05 0.055 6.68 209.49 13.93
12/25/2020 6:15:00 PM 2.24 36.032 0.055 6.65 181.5 13.92
12/25/2020 6:30:00 PM 2.23 36.014 0.055 6.67 215.28 13.93
12/25/2020 6:45:00 PM 2.22 35.996 0.055 6.67 219.33 13.94
12/25/2020 7:00:00 PM 2.21 35.978 0.055 6.71 139.3 13.95
12/25/2020 7:15:00 PM 2.2 35.96 0.055 6.69 143.85 13.95
12/25/2020 7:30:00 PM 2.2 35.96 0.055 6.7 171.87 13.96
12/25/2020 7:45:00 PM 2.19 35.942 0.055 6.66 131.4 13.96
12/25/2020 8:00:00 PM 2.18 35.924 0.055 6.65 139.78 13.97
12/25/2020 8:15:00 PM 2.18 35.924 0.055 6.68 179.71 13.97
12/25/2020 8:30:00 PM 2.17 35.906 0.055 6.69 125.64 13.98
12/25/2020 8:45:00 PM 2.17 35.906 0.055 6.68 160.79 13.99
12/25/2020 9:00:00 PM 2.16 35.888 0.055 6.66 179.19 13.99
12/25/2020 9:15:00 PM 2.17 35.906 0.055 6.7 141.05 13.98
12/25/2020 9:30:00 PM 2.18 35.924 0.055 6.68 142.08 13.99
12/25/2020 9:45:00 PM 2.19 35.942 0.055 6.71 163.29 13.99
12/25/2020 10:00:00 PM 2.19 35.942 0.055 6.69 140.24 13.98
12/25/2020 10:15:00 PM 2.19 35.942 0.055 6.67 139.8 13.98
12/25/2020 10:30:00 PM 2.19 35.942 0.055 6.68 149.57 13.99
12/25/2020 10:45:00 PM 2.19 35.942 0.055 6.68 171.55 13.99
12/25/2020 11:00:00 PM 2.19 35.942 0.055 6.68 120.52 13.98
12/25/2020 11:15:00 PM 2.19 35.942 0.055 6.69 136.99 13.98
12/25/2020 11:30:00 PM 2.19 35.942 0.055 6.65 159.93 13.97
12/25/2020 11:45:00 PM 2.19 35.942 0.055 6.7 152.6 13.98
12/26/2020 12:00:00 AM 2.19 35.942 0.055 6.67 155.77 13.99
12/26/2020 12:15:00 AM 2.19 35.942 0.055 6.62 146.38 13.99
12/26/2020 12:30:00 AM 2.18 35.924 0.055 6.64 197.45 13.98
12/26/2020 12:45:00 AM 2.19 35.942 0.055 6.61 126.31 13.99
12/26/2020 1:00:00 AM 2.2 35.96 0.055 6.56 152.85 13.98
12/26/2020 1:15:00 AM 2.2 35.96 0.055 6.61 168.16 13.99
12/26/2020 1:30:00 AM 2.19 35.942 0.055 6.54 144.31 13.99
12/26/2020 1:45:00 AM 2.19 35.942 0.055 6.43 175.28 14
12/26/2020 2:00:00 AM 2.19 35.942 0.055 6.41 162.72 14
12/26/2020 2:15:00 AM 2.19 35.942 0.055 6.43 148.99 13.99
12/26/2020 2:30:00 AM 2.18 35.924 0.055 6.42 131.47 13.98
12/26/2020 2:45:00 AM 2.19 35.942 0.055 6.43 105.19 13.99
12/26/2020 3:00:00 AM 2.2 35.96 0.055 6.43 112.73 13.99
12/26/2020 3:15:00 AM 2.2 35.96 0.055 6.44 134.67 13.99
12/26/2020 3:30:00 AM 2.21 35.978 0.055 6.45 111.19 13.99
12/26/2020 3:45:00 AM 2.21 35.978 0.055 6.47 161.69 14
12/26/2020 4:00:00 AM 2.21 35.978 0.055 6.45 162.17 13.99
12/26/2020 4:15:00 AM 2.21 35.978 0.055 6.49 177.28 13.99
12/26/2020 4:30:00 AM 2.22 35.996 0.055 6.47 114.55 14
12/26/2020 4:45:00 AM 2.22 35.996 0.055 6.49 104.94 14
12/26/2020 5:00:00 AM 2.24 36.032 0.055 6.48 164.15 13.98
12/26/2020 5:15:00 AM 2.24 36.032 0.055 6.47 162.58 13.98
12/26/2020 5:30:00 AM 2.25 36.05 0.055 6.45 161.69 13.99
12/26/2020 5:45:00 AM 2.26 36.068 0.055 6.44 134.42 13.98
12/26/2020 6:00:00 AM 2.28 36.104 0.055 6.45 146.69 13.98
12/26/2020 6:15:00 AM 2.29 36.122 0.055 6.42 143.47 13.97
12/26/2020 6:30:00 AM 2.29 36.122 0.055 6.5 173.72 13.97
12/26/2020 6:45:00 AM 2.3 36.14 0.055 6.48 111.99 13.97
12/26/2020 7:00:00 AM 2.3 36.14 0.055 6.37 104.78 13.97
12/26/2020 7:15:00 AM 2.31 36.158 0.055 6.41 129.8 13.95
12/26/2020 7:30:00 AM 2.32 36.176 0.055 6.41 94.41 13.96
12/26/2020 7:45:00 AM 2.33 36.194 0.055 6.43 107.17 13.96
12/26/2020 8:00:00 AM 2.34 36.212 0.055 6.48 128.07 13.95
12/26/2020 8:15:00 AM 2.35 36.23 0.055 6.47 106.12 13.96
12/26/2020 8:30:00 AM 2.36 36.248 0.055 6.5 95.02 13.96
12/26/2020 8:45:00 AM 2.38 36.284 0.055 6.53 124.03 13.96
12/26/2020 9:00:00 AM 2.4 36.32 0.055 6.53 97.45 13.95
12/26/2020 9:15:00 AM 2.42 36.356 0.055 6.53 79.32 13.95
12/26/2020 9:30:00 AM 2.45 36.41 0.054 6.51 93.67 13.93
12/26/2020 9:45:00 AM 2.46 36.428 0.054 6.43 116.63 13.94
12/26/2020 10:00:00 AM 2.48 36.464 0.054 6.46 95.9 13.94
12/26/2020 10:15:00 AM 2.49 36.482 0.054 6.42 107.78 13.92
12/26/2020 10:30:00 AM 2.51 36.518 0.054 6.4 134.53 13.93
12/26/2020 10:45:00 AM 2.51 36.518 0.054 6.39 88.76 13.92
12/26/2020 11:00:00 AM 2.53 36.554 0.054 6.4 100.2 13.92
12/26/2020 11:15:00 AM 2.54 36.572 0.054 6.36 150.42 13.93
12/26/2020 11:30:00 AM 2.56 36.608 0.054 6.33 137.65 13.92
12/26/2020 11:45:00 AM 2.57 36.626 0.054 6.35 125.27 13.91
12/26/2020 12:00:00 PM 2.58 36.644 0.054 6.34 134.31 13.91
12/26/2020 12:15:00 PM 2.6 36.68 0.054 6.34 100.27 13.9
12/26/2020 12:30:00 PM 2.61 36.698 0.028 6.31 141.82 13.9
12/26/2020 12:45:00 PM 2.62 36.716 0.035 6.31 109.88 13.89
12/26/2020 1:00:00 PM 2.62 36.716 0.012 6.35 196.37 13.9
12/26/2020 1:15:00 PM 2.62 36.716 0.03 6.31 97.95 13.89
12/26/2020 1:30:00 PM 2.63 36.734 0.042 6.33 114.42 13.89
12/26/2020 1:45:00 PM 2.63 36.734 0.014 6.31 78.01 13.88
12/26/2020 2:00:00 PM 2.62 36.716 0.035 6.29 120.76 13.89
12/26/2020 2:15:00 PM 2.62 36.716 0.029 6.29 99.79 13.88
12/26/2020 2:30:00 PM 2.63 36.734 0.038 6.28 104.48 13.88
12/26/2020 2:45:00 PM 2.64 36.752 0.018 6.26 97.97 13.86
12/26/2020 3:00:00 PM 2.65 36.77 0.014 6.25 73.7 13.87
12/26/2020 3:15:00 PM 2.64 36.752 0.054 6.26 100.37 13.86
12/26/2020 3:30:00 PM 2.64 36.752 0.054 6.26 75.12 13.85
12/26/2020 3:45:00 PM 2.65 36.77 0.054 6.24 90.34 13.85
12/26/2020 4:00:00 PM 2.65 36.77 0.054 6.26 67.94 13.85
12/26/2020 4:15:00 PM 2.63 36.734 0.054 6.25 96.49 13.85
12/26/2020 4:30:00 PM 2.62 36.716 0.054 6.23 85.42 13.86
12/26/2020 4:45:00 PM 2.61 36.698 0.054 6.25 82.57 13.87
12/26/2020 5:00:00 PM 2.6 36.68 0.054 6.24 91.94 13.88
12/26/2020 5:15:00 PM 2.61 36.698 0.054 6.24 93.51 13.87
12/26/2020 5:30:00 PM 2.61 36.698 0.054 6.23 83 13.87
12/26/2020 5:45:00 PM 2.62 36.716 0.054 6.23 76.97 13.87
12/26/2020 6:00:00 PM 2.63 36.734 0.054 6.26 82.12 13.85
12/26/2020 6:15:00 PM 2.64 36.752 0.054 6.23 81.69 13.86
12/26/2020 6:30:00 PM 2.65 36.77 0.053 6.24 97.58 13.86
12/26/2020 6:45:00 PM 2.66 36.788 0.053 6.24 79.39 13.85
12/26/2020 7:00:00 PM 2.68 36.824 0.053 6.24 70.53 13.84
12/26/2020 7:15:00 PM 2.7 36.86 0.053 6.24 70.01 13.84
12/26/2020 7:30:00 PM 2.71 36.878 0.053 6.25 89.14 13.84
12/26/2020 7:45:00 PM 2.73 36.914 0.053 6.25 74.43 13.83
12/26/2020 8:00:00 PM 2.73 36.914 0.053 6.24 65.17 13.84
12/26/2020 8:15:00 PM 2.74 36.932 0.053 6.25 75.19 13.83
12/26/2020 8:30:00 PM 2.75 36.95 0.053 6.26 71.71 13.83
12/26/2020 8:45:00 PM 2.75 36.95 0.053 6.24 64.79 13.83
12/26/2020 9:00:00 PM 2.75 36.95 0.053 6.25 61.7 13.83
12/26/2020 9:15:00 PM 2.76 36.968 0.053 6.27 58.13 13.83
12/26/2020 9:30:00 PM 2.76 36.968 0.053 6.28 71.29 13.83
12/26/2020 9:45:00 PM 2.76 36.968 0.053 6.28 85.45 13.83
12/26/2020 10:00:00 PM 2.75 36.95 0.053 6.3 68.45 13.83
12/26/2020 10:15:00 PM 2.76 36.968 0.053 6.28 80.47 13.84
12/26/2020 10:30:00 PM 2.76 36.968 0.053 6.25 62.38 13.83
12/26/2020 10:45:00 PM 2.75 36.95 0.053 6.25 83 13.84
12/26/2020 11:00:00 PM 2.75 36.95 0.053 6.27 57.63 13.84
12/26/2020 11:15:00 PM 2.76 36.968 0.053 6.26 65.65 13.84
12/26/2020 11:30:00 PM 2.76 36.968 0.053 6.28 66.87 13.85
12/26/2020 11:45:00 PM 2.76 36.968 0.053 6.28 46.9 13.85
12/27/2020 12:00:00 AM 2.76 36.968 0.053 6.29 63.47 13.84
12/27/2020 12:15:00 AM 2.76 36.968 0.053 6.29 68.02 13.85
12/27/2020 12:30:00 AM 2.77 36.986 0.053 6.27 47.48 13.85
12/27/2020 12:45:00 AM 2.78 37.004 0.053 6.3 82.27 13.84
12/27/2020 1:00:00 AM 2.79 37.022 0.053 6.32 45.67 13.84
12/27/2020 1:15:00 AM 2.79 37.022 0.053 6.3 74.57 13.84
12/27/2020 1:30:00 AM 2.79 37.022 0.053 6.3 54 13.84
12/27/2020 1:45:00 AM 2.79 37.022 0.053 6.3 60.04 13.83
12/27/2020 2:00:00 AM 2.79 37.022 0.053 6.3 39.06 13.83
12/27/2020 2:15:00 AM 2.79 37.022 0.053 6.33 58.59 13.84
12/27/2020 2:30:00 AM 2.8 37.04 0.053 6.34 48.26 13.84
12/27/2020 2:45:00 AM 2.8 37.04 0.053 6.32 41.55 13.84
12/27/2020 3:00:00 AM 2.81 37.058 0.053 6.33 40.53 13.84
12/27/2020 3:15:00 AM 2.81 37.058 0.053 6.34 64.06 13.83
12/27/2020 3:30:00 AM 2.81 37.058 0.053 6.37 35.51 13.84
12/27/2020 3:45:00 AM 2.81 37.058 0.053 6.34 47.35 13.84
12/27/2020 4:00:00 AM 2.81 37.058 0.053 6.38 43.64 13.84
12/27/2020 4:15:00 AM 2.81 37.058 0.053 6.34 39.44 13.84
12/27/2020 4:30:00 AM 2.82 37.076 0.053 6.34 54.23 13.84
12/27/2020 4:45:00 AM 2.82 37.076 0.053 6.34 41.6 13.84
12/27/2020 5:00:00 AM 2.82 37.076 0.053 6.38 40.1 13.85
12/27/2020 5:15:00 AM 2.81 37.058 0.053 6.36 36.37 13.85
12/27/2020 5:30:00 AM 2.81 37.058 0.053 6.44 71.53 13.85
12/27/2020 5:45:00 AM 2.81 37.058 0.053 6.44 38.56 13.85
12/27/2020 6:00:00 AM 2.81 37.058 0.053 6.44 34.08 13.86
12/27/2020 6:15:00 AM 2.81 37.058 0.053 6.4 41.12 13.86
12/27/2020 6:30:00 AM 2.8 37.04 0.053 6.42 34.59 13.86
12/27/2020 6:45:00 AM 2.8 37.04 0.053 6.39 38.58 13.87
12/27/2020 7:00:00 AM 2.79 37.022 0.053 6.43 76.49 13.87
12/27/2020 7:15:00 AM 2.79 37.022 0.053 6.44 48.08 13.87
12/27/2020 7:30:00 AM 2.79 37.022 0.053 6.42 42.66 13.88
12/27/2020 7:45:00 AM 2.78 37.004 0.053 6.46 35.11 13.88
12/27/2020 8:00:00 AM 2.77 36.986 0.053 6.47 49.7 13.89
12/27/2020 8:15:00 AM 2.77 36.986 0.054 6.47 32.44 13.89
12/27/2020 8:30:00 AM 2.77 36.986 0.054 6.45 26.86 13.9
12/27/2020 8:45:00 AM 2.76 36.968 0.054 6.46 53.12 13.9
12/27/2020 9:00:00 AM 2.76 36.968 0.054 6.46 31.41 13.9
12/27/2020 9:15:00 AM 2.75 36.95 0.054 6.42 28.32 13.91
12/27/2020 9:30:00 AM 2.75 36.95 0.054 6.46 33.27 13.91
12/27/2020 9:45:00 AM 2.75 36.95 0.054 6.43 30.74 13.91
12/27/2020 10:00:00 AM 2.75 36.95 0.054 6.38 29.75 13.92
12/27/2020 10:15:00 AM 2.75 36.95 0.054 6.42 28.12 13.92
12/27/2020 10:30:00 AM 2.75 36.95 0.054 6.41 25.16 13.92
12/27/2020 10:45:00 AM 2.75 36.95 0.053 6.44 33.92 13.93
12/27/2020 11:00:00 AM 2.76 36.968 0.054 6.44 33.53 13.93
12/27/2020 11:15:00 AM 2.77 36.986 0.054 6.45 43.76 13.93
12/27/2020 11:30:00 AM 2.78 37.004 0.054 6.43 29.29 13.93
12/27/2020 11:45:00 AM 2.79 37.022 0.054 6.44 24.36 13.93
12/27/2020 12:00:00 PM 2.79 37.022 0.054 6.45 31.58 13.94
12/27/2020 12:15:00 PM 2.78 37.004 0.054 6.43 35.66 13.93
12/27/2020 12:30:00 PM 2.78 37.004 0.054 6.44 26.8 13.93
12/27/2020 12:45:00 PM 2.79 37.022 0.054 6.44 22.27 13.93
12/27/2020 1:00:00 PM 2.8 37.04 0.053 6.46 25.64 13.93
12/27/2020 1:15:00 PM 2.81 37.058 0.055 6.46 40.36 13.93
12/27/2020 1:30:00 PM 2.79 37.022 0.055 6.43 22.29 13.94
12/27/2020 1:45:00 PM 2.77 36.986 0.055 6.41 26.95 13.93
12/27/2020 2:00:00 PM 2.74 36.932 0.055 6.4 27.45 13.94
12/27/2020 2:15:00 PM 2.72 36.896 0.055 6.42 50.91 13.94
12/27/2020 2:30:00 PM 2.69 36.842 0.055 6.42 26.76 13.94
12/27/2020 2:45:00 PM 2.68 36.824 0.055 6.41 22.05 13.95
12/27/2020 3:00:00 PM 2.66 36.788 0.055 6.44 26.02 13.95
12/27/2020 3:15:00 PM 2.65 36.77 0.055 6.41 28.92 13.96
12/27/2020 3:30:00 PM 2.64 36.752 0.055 6.41 29.16 13.96
12/27/2020 3:45:00 PM 2.63 36.734 0.055 6.42 19.39 13.96
12/27/2020 4:00:00 PM 2.62 36.716 0.055 6.46 18.46 13.96
12/27/2020 4:15:00 PM 2.6 36.68 0.055 6.46 21.5 13.96
12/27/2020 4:30:00 PM 2.59 36.662 0.055 6.45 23.11 13.96
12/27/2020 4:45:00 PM 2.57 36.626 0.055 6.47 22.07 13.96
12/27/2020 5:00:00 PM 2.56 36.608 0.055 6.43 20.09 13.96
12/27/2020 5:15:00 PM 2.54 36.572 0.056 6.42 37.49 13.97
12/27/2020 5:30:00 PM 2.53 36.554 0.056 6.44 25.52 13.97
12/27/2020 5:45:00 PM 2.52 36.536 0.056 6.44 28.38 13.97
12/27/2020 6:00:00 PM 2.51 36.518 0.056 6.42 27.75 13.99
12/27/2020 6:15:00 PM 2.5 36.5 0.056 6.44 22.24 13.98
12/27/2020 6:30:00 PM 2.49 36.482 0.056 6.43 21.5 13.97
12/27/2020 6:45:00 PM 2.48 36.464 0.056 6.47 22.56 13.98
12/27/2020 7:00:00 PM 2.48 36.464 0.056 6.46 21.11 13.97
12/27/2020 7:15:00 PM 2.47 36.446 0.056 6.46 20.25 13.98
12/27/2020 7:30:00 PM 2.46 36.428 0.056 6.47 27.46 13.99
12/27/2020 7:45:00 PM 2.45 36.41 0.056 6.44 21.29 13.99
12/27/2020 8:00:00 PM 2.44 36.392 0.056 6.47 21.49 13.98
12/27/2020 8:15:00 PM 2.44 36.392 0.056 6.48 21.4 13.99
12/27/2020 8:30:00 PM 2.43 36.374 0.056 6.47 22.45 14
12/27/2020 8:45:00 PM 2.43 36.374 0.057 6.48 21.29 14
12/27/2020 9:00:00 PM 2.43 36.374 0.057 6.5 23.61 13.99
12/27/2020 9:15:00 PM 2.43 36.374 0.057 6.48 20.37 13.99
12/27/2020 9:30:00 PM 2.43 36.374 0.057 6.49 26.12 14.01
12/27/2020 9:45:00 PM 2.43 36.374 0.057 6.51 21.67 14.01
12/27/2020 10:00:00 PM 2.42 36.356 0.057 6.5 21.89 14
12/27/2020 10:15:00 PM 2.42 36.356 0.057 6.51 40.93 14
12/27/2020 10:30:00 PM 2.42 36.356 0.057 6.5 20.31 14
12/27/2020 10:45:00 PM 2.42 36.356 0.057 6.48 24.09 14
12/27/2020 11:00:00 PM 2.43 36.374 0.057 6.5 18.72 13.99
12/27/2020 11:15:00 PM 2.43 36.374 0.057 6.49 15.69 13.99
12/27/2020 11:30:00 PM 2.43 36.374 0.057 6.51 14.36 13.98
12/27/2020 11:45:00 PM 2.42 36.356 0.057 6.46 21.28 13.99
12/28/2020 12:00:00 AM 2.42 36.356 0.057 6.47 19.82 13.99
12/28/2020 12:15:00 AM 2.41 36.338 0.057 6.5 22.48 13.99
12/28/2020 12:30:00 AM 2.41 36.338 0.058 6.51 18.02 13.98
12/28/2020 12:45:00 AM 2.4 36.32 0.058 6.51 16.73 13.99
12/28/2020 1:00:00 AM 2.4 36.32 0.058 6.48 25.23 13.97
12/28/2020 1:15:00 AM 2.4 36.32 0.058 6.52 16.36 13.98
12/28/2020 1:30:00 AM 2.4 36.32 0.058 6.51 17.46 13.96
12/28/2020 1:45:00 AM 2.39 36.302 0.058 6.47 13.66 13.98
12/28/2020 2:00:00 AM 2.39 36.302 0.058 6.51 14.64 13.97
12/28/2020 2:15:00 AM 2.39 36.302 0.058 6.49 14.85 13.97
12/28/2020 2:30:00 AM 2.39 36.302 0.058 6.48 16.17 13.96
12/28/2020 2:45:00 AM 2.38 36.284 0.059 6.54 15.47 13.96
12/28/2020 3:00:00 AM 2.38 36.284 0.059 6.53 16.93 13.97
12/28/2020 3:15:00 AM 2.38 36.284 0.059 6.57 15.98 13.97
12/28/2020 3:30:00 AM 2.38 36.284 0.059 6.6 16.12 13.98
12/28/2020 3:45:00 AM 2.38 36.284 0.059 6.56 16.16 13.97
12/28/2020 4:00:00 AM 2.37 36.266 0.059 6.61 16.01 13.96
12/28/2020 4:15:00 AM 2.37 36.266 0.059 6.56 15.13 13.96
12/28/2020 4:30:00 AM 2.38 36.284 0.059 6.55 15.27 13.96
12/28/2020 4:45:00 AM 2.37 36.266 0.06 6.56 15.22 13.95
12/28/2020 5:00:00 AM 2.37 36.266 0.06 6.56 15.38 13.97
12/28/2020 5:15:00 AM 2.37 36.266 0.06 6.53 15.69 13.96
12/28/2020 5:30:00 AM 2.36 36.248 0.06 6.52 14.69 13.95
12/28/2020 5:45:00 AM 2.36 36.248 0.06 6.54 14.21 13.96
12/28/2020 6:00:00 AM 2.36 36.248 0.06 6.54 14.95 13.96
12/28/2020 6:15:00 AM 2.36 36.248 0.06 6.54 14.6 13.96
12/28/2020 6:30:00 AM 2.36 36.248 0.06 6.54 14.11 13.95
12/28/2020 6:45:00 AM 2.36 36.248 0.061 6.56 13.33 13.96
12/28/2020 7:00:00 AM 2.36 36.248 0.061 6.56 13.3 13.96
12/28/2020 7:15:00 AM 2.35 36.23 0.061 6.57 13.36 13.97
12/28/2020 7:30:00 AM 2.35 36.23 0.061 6.53 12.83 13.95
12/28/2020 7:45:00 AM 2.35 36.23 0.061 6.57 13.64 13.97
12/28/2020 8:00:00 AM 2.35 36.23 0.061 6.57 13.25 13.96
12/28/2020 8:15:00 AM 2.35 36.23 0.061 6.56 13.01 13.96
12/28/2020 8:30:00 AM 2.36 36.248 0.061 6.53 12.5 13.96
12/28/2020 8:45:00 AM 2.36 36.248 0.062 6.56 12.82 13.97
12/28/2020 9:00:00 AM 2.36 36.248 0.062 6.54 12.71 13.97
12/28/2020 9:15:00 AM 2.38 36.284 0.062 6.61 11.98 13.96
12/28/2020 9:30:00 AM 2.39 36.302 0.062 6.59 12.48 13.97
12/28/2020 9:45:00 AM 2.4 36.32 0.062 6.58 12.09